Time,TemperatureF,DewpointF,PressureIn,WindDirection,WindDirectionDegrees,WindSpeedMPH,WindSpeedGustMPH,Humidity,HourlyPrecipIn,Conditions,Clouds,dailyrainin,SolarRadiationWatts/m^2,SoftwareType,DateUTC
2013-07-28 00:00:00,53.7,50.3,29.88,West,271,3.7,3.9,88,0.00,,,0.00,0.00,VWS V14.01,2013-07-28 04:00:00,
2013-07-28 00:01:00,53.8,52.0,29.87,West,265,2.8,2.8,94,0.00,,,0.00,0.00,VWS V14.01,2013-07-28 04:01:00,
2013-07-28 00:02:00,53.7,51.9,29.88,West,265,2.8,2.8,94,0.00,,,0.00,0.00,VWS V14.01,2013-07-28 04:02:00,
2013-07-28 00:03:00,53.6,50.3,29.91,West,259,3.5,3.7,89,0.00,,,0.00,0.00,VWS V14.01,2013-07-28 04:03:00,
2013-07-28 00:04:00,53.7,51.9,29.87,West,265,3.4,3.4,93,0.00,,,0.00,0.00,VWS V14.01,2013-07-28 04:04:00,
2013-07-28 00:05:00,53.6,51.7,29.87,West,265,3.5,3.5,93,0.00,,,0.00,0.00,VWS V14.01,2013-07-28 04:05:00,
2013-07-28 00:06:00,53.4,51.4,29.86,West,273,3.4,3.5,93,0.00,,,0.00,0.00,VWS V14.01,2013-07-28 04:06:00,
2013-07-28 00:07:00,53.4,51.4,29.86,West,279,3.4,3.5,93,0.00,,,0.00,0.43,VWS V14.01,2013-07-28 04:07:00,
2013-07-28 00:08:00,53.1,51.1,29.87,WNW,283,3.0,3.5,93,0.00,,,0.00,0.00,VWS V14.01,2013-07-28 04:08:00,
2013-07-28 00:09:00,53.4,50.7,29.89,WSW,241,2.7,2.7,90,0.00,,,0.00,0.00,VWS V14.01,2013-07-28 04:09:00,
2013-07-28 00:10:00,53.2,51.2,29.87,WNW,288,3.0,3.5,93,0.00,,,0.00,0.00,VWS V14.01,2013-07-28 04:10:00,
2013-07-28 00:11:00,53.1,51.1,29.87,WNW,288,2.7,3.5,93,0.00,,,0.00,0.00,VWS V14.01,2013-07-28 04:11:00,
2013-07-28 00:12:00,53.6,50.8,29.89,WSW,247,2.5,2.5,90,0.00,,,0.00,0.00,VWS V14.01,2013-07-28 04:12:00,
2013-07-28 00:13:00,53.1,51.2,29.88,WNW,289,3.0,3.5,93,0.00,,,0.00,0.00,VWS V14.01,2013-07-28 04:13:00,
2013-07-28 00:14:00,52.8,50.8,29.88,WNW,289,2.5,3.5,93,0.00,,,0.00,0.00,VWS V14.01,2013-07-28 04:14:00,
2013-07-28 00:15:00,52.8,49.5,29.88,WNW,289,2.5,3.5,88,0.00,,,0.00,0.00,VWS V14.01,2013-07-28 04:15:00,
2013-07-28 00:16:00,52.7,50.8,29.87,WNW,289,2.5,3.5,93,0.00,,,0.00,0.00,VWS V14.01,2013-07-28 04:16:00,
2013-07-28 00:17:00,52.8,50.1,29.87,WNW,289,2.8,3.5,91,0.00,,,0.00,0.00,VWS V14.01,2013-07-28 04:17:00,
2013-07-28 00:18:00,53.3,51.3,29.89,WSW,247,0.0,0.0,93,0.00,,,0.00,0.00,VWS V14.01,2013-07-28 04:18:00,
2013-07-28 00:19:00,53.4,51.3,29.87,WSW,247,0.0,0.0,93,0.00,,,0.00,0.00,VWS V14.01,2013-07-28 04:19:00,
2013-07-28 00:20:00,52.6,50.8,29.88,WNW,289,2.7,3.5,94,0.00,,,0.00,0.00,VWS V14.01,2013-07-28 04:20:00,
2013-07-28 00:21:00,52.6,50.8,29.88,WNW,289,2.5,3.5,94,0.00,,,0.00,0.00,VWS V14.01,2013-07-28 04:21:00,
2013-07-28 00:22:00,52.8,51.0,29.87,West,277,2.7,3.5,94,0.00,,,0.00,0.00,VWS V14.01,2013-07-28 04:22:00,
2013-07-28 00:23:00,52.4,50.7,29.87,West,276,2.0,3.5,94,0.00,,,0.00,0.00,VWS V14.01,2013-07-28 04:23:00,
2013-07-28 00:24:00,53.8,52.4,29.88,West,273,1.6,1.8,95,0.00,,,0.00,0.00,VWS V14.01,2013-07-28 04:24:00,
2013-07-28 00:25:00,52.7,51.1,29.86,West,276,2.3,3.5,94,0.00,,,0.00,0.00,VWS V14.01,2013-07-28 04:25:00,
2013-07-28 00:26:00,52.6,51.0,29.86,West,276,2.0,3.5,94,0.00,,,0.00,0.00,VWS V14.01,2013-07-28 04:26:00,
2013-07-28 00:27:00,54.1,52.5,29.88,West,274,1.3,2.2,94,0.00,,,0.00,0.00,VWS V14.01,2013-07-28 04:27:00,
2013-07-28 00:28:00,52.6,51.0,29.87,West,262,2.3,3.5,94,0.00,,,0.00,0.00,VWS V14.01,2013-07-28 04:28:00,
2013-07-28 00:29:00,52.8,51.2,29.87,West,271,3.0,3.5,94,0.00,,,0.00,0.00,VWS V14.01,2013-07-28 04:29:00,
2013-07-28 00:30:00,54.0,52.2,29.87,WNW,292,2.2,2.7,94,0.00,,,0.00,0.00,VWS V14.01,2013-07-28 04:30:00,
2013-07-28 00:31:00,52.5,50.9,29.86,West,276,0.0,3.5,94,0.00,,,0.00,0.00,VWS V14.01,2013-07-28 04:31:00,
2013-07-28 00:32:00,52.5,51.0,29.86,West,276,0.0,3.5,94,0.00,,,0.00,0.00,VWS V14.01,2013-07-28 04:32:00,
2013-07-28 00:33:00,53.0,51.5,29.87,WNW,283,0.0,3.5,95,0.00,,,0.00,0.00,VWS V14.01,2013-07-28 04:33:00,
2013-07-28 00:34:00,52.9,51.4,29.86,WNW,283,0.0,3.5,94,0.00,,,0.00,0.43,VWS V14.01,2013-07-28 04:34:00,
2013-07-28 00:35:00,54.0,52.0,29.88,WNW,292,2.2,2.5,93,0.00,,,0.00,0.43,VWS V14.01,2013-07-28 04:35:00,
2013-07-28 00:36:00,54.0,51.9,29.92,WNW,292,2.2,2.2,93,0.00,,,0.00,0.43,VWS V14.01,2013-07-28 04:36:00,
2013-07-28 00:37:00,52.7,51.1,29.91,WNW,283,0.0,3.5,94,0.00,,,0.00,0.00,VWS V14.01,2013-07-28 04:37:00,
2013-07-28 00:38:00,53.9,51.9,29.88,WNW,290,0.0,1.5,93,0.00,,,0.00,0.00,VWS V14.01,2013-07-28 04:38:00,
2013-07-28 00:39:00,52.6,51.1,29.87,West,276,0.0,3.5,95,0.00,,,0.00,0.00,VWS V14.01,2013-07-28 04:39:00,
2013-07-28 00:40:00,52.6,51.1,29.87,West,276,0.0,3.5,95,0.00,,,0.00,0.00,VWS V14.01,2013-07-28 04:40:00,
2013-07-28 00:41:00,53.9,52.0,29.91,WNW,290,0.0,0.0,93,0.00,,,0.00,0.00,VWS V14.01,2013-07-28 04:41:00,
2013-07-28 00:42:00,53.9,52.0,29.88,WNW,290,0.0,0.0,93,0.00,,,0.00,0.00,VWS V14.01,2013-07-28 04:42:00,
2013-07-28 00:43:00,52.2,50.9,29.87,SW,234,3.4,3.5,95,0.00,,,0.00,0.12,VWS V14.01,2013-07-28 04:43:00,
2013-07-28 00:44:00,52.5,50.0,29.87,SW,230,3.7,4.0,91,0.00,,,0.00,0.00,VWS V14.01,2013-07-28 04:44:00,
2013-07-28 00:45:00,54.0,52.2,29.88,WNW,290,1.0,1.0,94,0.00,,,0.00,0.00,VWS V14.01,2013-07-28 04:45:00,
2013-07-28 00:46:00,52.7,51.5,29.88,SW,223,4.0,4.4,96,0.00,,,0.00,0.67,VWS V14.01,2013-07-28 04:46:00,
2013-07-28 00:47:00,54.0,52.2,29.88,WNW,290,0.0,1.5,94,0.00,,,0.00,0.00,VWS V14.01,2013-07-28 04:47:00,
2013-07-28 00:48:00,52.6,51.3,29.87,SW,229,3.0,4.4,95,0.00,,,0.00,0.12,VWS V14.01,2013-07-28 04:48:00,
2013-07-28 00:49:00,52.6,51.3,29.87,SW,235,2.2,4.4,95,0.00,,,0.00,0.00,VWS V14.01,2013-07-28 04:49:00,
2013-07-28 00:50:00,53.8,52.2,29.88,WNW,290,0.0,0.0,94,0.00,,,0.00,0.43,VWS V14.01,2013-07-28 04:50:00,
2013-07-28 00:51:00,53.8,52.3,29.87,NW,312,2.2,2.2,95,0.00,,,0.00,0.00,VWS V14.01,2013-07-28 04:51:00,
2013-07-28 00:52:00,54.0,52.4,29.87,NW,312,1.0,2.2,94,0.00,,,0.00,0.00,VWS V14.01,2013-07-28 04:52:00,
2013-07-28 00:53:00,52.4,50.9,29.87,SW,228,2.2,4.4,95,0.00,,,0.00,0.12,VWS V14.01,2013-07-28 04:53:00,
2013-07-28 00:54:00,52.3,50.9,29.87,SW,228,2.2,4.4,95,0.00,,,0.00,0.00,VWS V14.01,2013-07-28 04:54:00,
2013-07-28 00:55:00,54.0,52.2,29.88,WNW,290,0.0,1.0,94,0.00,,,0.00,0.00,VWS V14.01,2013-07-28 04:55:00,
2013-07-28 00:56:00,54.1,52.2,29.88,WNW,289,1.5,1.5,93,0.00,,,0.00,0.00,VWS V14.01,2013-07-28 04:56:00,
2013-07-28 00:57:00,52.5,51.0,29.87,SW,232,4.2,4.4,95,0.00,,,0.00,0.00,VWS V14.01,2013-07-28 04:57:00,
2013-07-28 00:58:00,52.4,49.4,29.87,SW,234,4.2,4.5,89,0.00,,,0.00,0.43,VWS V14.01,2013-07-28 04:58:00,
2013-07-28 00:59:00,52.6,51.1,29.87,WSW,239,4.4,4.5,95,0.00,,,0.00,0.00,VWS V14.01,2013-07-28 04:59:00,
2013-07-28 01:00:00,53.9,52.1,29.88,West,265,2.7,2.7,94,0.00,,,0.00,0.00,VWS V14.01,2013-07-28 05:00:00,
2013-07-28 01:01:00,52.5,51.0,29.87,SW,232,3.0,4.7,95,0.00,,,0.00,0.00,VWS V14.01,2013-07-28 05:01:00,
2013-07-28 01:02:00,52.4,51.0,29.87,SW,232,3.4,3.4,95,0.00,,,0.00,0.00,VWS V14.01,2013-07-28 05:02:00,
2013-07-28 01:03:00,52.5,51.0,29.87,WSW,237,3.9,3.9,95,0.00,,,0.00,0.00,VWS V14.01,2013-07-28 05:03:00,
2013-07-28 01:04:00,52.5,51.0,29.87,WSW,237,3.9,3.9,95,0.00,,,0.00,0.00,VWS V14.01,2013-07-28 05:04:00,
2013-07-28 01:05:00,52.2,50.7,29.87,SW,233,2.5,3.4,95,0.00,,,0.00,0.00,VWS V14.01,2013-07-28 05:05:00,
2013-07-28 01:06:00,52.2,50.7,29.87,SW,233,2.2,2.5,95,0.00,,,0.00,0.43,VWS V14.01,2013-07-28 05:06:00,
2013-07-28 01:07:00,52.1,50.6,29.87,SW,233,3.0,3.0,94,0.00,,,0.00,0.00,VWS V14.01,2013-07-28 05:07:00,
2013-07-28 01:08:00,52.0,50.5,29.87,SW,233,1.3,3.0,95,0.00,,,0.00,0.00,VWS V14.01,2013-07-28 05:08:00,
2013-07-28 01:09:00,51.9,50.4,29.87,WSW,237,1.8,1.8,95,0.00,,,0.00,0.43,VWS V14.01,2013-07-28 05:09:00,
2013-07-28 01:10:00,51.9,50.5,29.87,WSW,237,3.2,3.2,95,0.00,,,0.00,0.00,VWS V14.01,2013-07-28 05:10:00,
2013-07-28 01:11:00,51.8,50.4,29.87,WSW,247,1.1,3.2,95,0.00,,,0.00,0.00,VWS V14.01,2013-07-28 05:11:00,
2013-07-28 01:12:00,51.7,50.4,29.87,WSW,247,1.3,1.3,95,0.00,,,0.00,0.00,VWS V14.01,2013-07-28 05:12:00,
2013-07-28 01:13:00,51.5,50.2,29.91,WSW,247,0.0,1.3,95,0.00,,,0.00,0.73,VWS V14.01,2013-07-28 05:13:00,
2013-07-28 01:14:00,51.7,50.5,29.88,WSW,247,0.0,1.0,96,0.00,,,0.00,0.00,VWS V14.01,2013-07-28 05:14:00,
2013-07-28 01:15:00,51.7,50.6,29.87,WSW,247,0.0,0.0,96,0.00,,,0.00,0.00,VWS V14.01,2013-07-28 05:15:00,
2013-07-28 01:16:00,51.6,50.5,29.87,WSW,247,0.0,1.6,96,0.00,,,0.00,0.00,VWS V14.01,2013-07-28 05:16:00,
2013-07-28 01:17:00,51.6,50.6,29.87,WSW,247,0.0,0.0,96,0.00,,,0.00,0.00,VWS V14.01,2013-07-28 05:17:00,
2013-07-28 01:18:00,51.6,50.7,29.86,WSW,247,0.0,0.0,97,0.00,,,0.00,0.00,VWS V14.01,2013-07-28 05:18:00,
2013-07-28 01:19:00,51.6,50.7,29.86,WSW,247,0.0,0.0,97,0.00,,,0.00,0.00,VWS V14.01,2013-07-28 05:19:00,
2013-07-28 01:20:00,51.5,50.7,29.87,WSW,247,0.0,0.0,97,0.00,,,0.00,0.00,VWS V14.01,2013-07-28 05:20:00,
2013-07-28 01:21:00,51.5,50.7,29.87,WSW,247,0.0,0.0,97,0.00,,,0.00,0.00,VWS V14.01,2013-07-28 05:21:00,
2013-07-28 01:22:00,51.4,50.6,29.86,WSW,247,0.0,0.0,97,0.00,,,0.00,0.00,VWS V14.01,2013-07-28 05:22:00,
2013-07-28 01:23:00,51.3,50.6,29.87,WSW,247,0.0,0.0,97,0.00,,,0.00,0.00,VWS V14.01,2013-07-28 05:23:00,
2013-07-28 01:24:00,51.2,50.5,29.88,WSW,247,0.0,0.0,97,0.00,,,0.00,0.00,VWS V14.01,2013-07-28 05:24:00,
2013-07-28 01:25:00,51.2,50.6,29.87,WSW,247,0.0,0.0,98,0.00,,,0.00,0.00,VWS V14.01,2013-07-28 05:25:00,
2013-07-28 01:26:00,51.3,50.7,29.87,WSW,247,0.0,0.0,98,0.00,,,0.00,0.00,VWS V14.01,2013-07-28 05:26:00,
2013-07-28 01:27:00,51.2,50.7,29.87,WSW,247,0.0,0.0,98,0.00,,,0.00,0.43,VWS V14.01,2013-07-28 05:27:00,
2013-07-28 01:28:00,51.0,50.5,29.87,WSW,247,0.0,0.0,98,0.00,,,0.00,0.00,VWS V14.01,2013-07-28 05:28:00,
2013-07-28 01:29:00,51.0,50.5,29.87,WSW,247,0.0,0.0,98,0.00,,,0.00,0.00,VWS V14.01,2013-07-28 05:29:00,
2013-07-28 01:30:00,50.9,50.4,29.86,WSW,247,0.0,0.0,98,0.00,,,0.00,0.00,VWS V14.01,2013-07-28 05:30:00,
2013-07-28 01:31:00,50.8,50.3,29.87,WSW,247,0.0,0.0,98,0.00,,,0.00,0.00,VWS V14.01,2013-07-28 05:31:00,
2013-07-28 01:32:00,50.7,50.2,29.86,SW,227,1.8,1.8,98,0.00,,,0.00,0.00,VWS V14.01,2013-07-28 05:32:00,
2013-07-28 01:33:00,50.5,50.1,29.86,SW,227,1.8,1.8,98,0.00,,,0.00,0.43,VWS V14.01,2013-07-28 05:33:00,
2013-07-28 01:34:00,50.6,50.2,29.87,SW,217,2.7,2.7,99,0.00,,,0.00,0.00,VWS V14.01,2013-07-28 05:34:00,
2013-07-28 01:35:00,50.5,50.1,29.87,SW,217,3.2,3.2,99,0.00,,,0.00,0.00,VWS V14.01,2013-07-28 05:35:00,
2013-07-28 01:36:00,50.8,50.4,29.91,SW,215,4.0,4.0,99,0.00,,,0.00,0.00,VWS V14.01,2013-07-28 05:36:00,
2013-07-28 01:37:00,50.5,50.2,29.87,SW,221,2.8,4.0,99,0.00,,,0.00,0.00,VWS V14.01,2013-07-28 05:37:00,
2013-07-28 01:38:00,50.8,50.5,29.87,SW,222,3.7,3.7,99,0.00,,,0.00,0.12,VWS V14.01,2013-07-28 05:38:00,
2013-07-28 01:39:00,50.8,50.5,29.87,SW,224,3.5,3.7,99,0.00,,,0.00,0.00,VWS V14.01,2013-07-28 05:39:00,
2013-07-28 01:40:00,50.7,50.4,29.87,SW,224,4.0,4.0,99,0.00,,,0.00,0.00,VWS V14.01,2013-07-28 05:40:00,
2013-07-28 01:41:00,50.9,50.7,29.87,SW,216,4.7,4.7,99,0.00,,,0.00,0.00,VWS V14.01,2013-07-28 05:41:00,
2013-07-28 01:42:00,50.9,50.7,29.87,SW,232,4.0,4.7,99,0.00,,,0.00,0.00,VWS V14.01,2013-07-28 05:42:00,
2013-07-28 01:43:00,50.9,50.7,29.87,SW,216,4.5,4.5,99,0.00,,,0.00,0.43,VWS V14.01,2013-07-28 05:43:00,
2013-07-28 01:44:00,50.9,50.7,29.86,SW,228,4.5,4.5,99,0.00,,,0.00,0.00,VWS V14.01,2013-07-28 05:44:00,
2013-07-28 01:45:00,50.8,50.5,29.86,SW,221,3.9,5.2,99,0.00,,,0.00,0.00,VWS V14.01,2013-07-28 05:45:00,
2013-07-28 01:46:00,50.8,50.5,29.86,SW,221,3.9,5.2,99,0.00,,,0.00,0.00,VWS V14.01,2013-07-28 05:46:00,
2013-07-28 01:47:00,50.6,50.3,29.87,SW,225,2.5,2.8,99,0.00,,,0.00,0.43,VWS V14.01,2013-07-28 05:47:00,
2013-07-28 01:48:00,50.6,50.0,29.87,SW,226,3.2,3.2,98,0.00,,,0.00,0.00,VWS V14.01,2013-07-28 05:48:00,
2013-07-28 01:49:00,50.7,50.4,29.87,SW,224,1.1,3.0,99,0.00,,,0.00,0.31,VWS V14.01,2013-07-28 05:49:00,
2013-07-28 01:50:00,50.5,49.0,29.86,SW,222,1.3,1.6,94,0.00,,,0.00,0.00,VWS V14.01,2013-07-28 05:50:00,
2013-07-28 01:51:00,50.6,50.3,29.86,SW,221,2.5,2.5,99,0.00,,,0.00,0.00,VWS V14.01,2013-07-28 05:51:00,
2013-07-28 01:52:00,50.5,50.2,29.87,SW,230,2.2,2.5,99,0.00,,,0.00,0.00,VWS V14.01,2013-07-28 05:52:00,
2013-07-28 01:53:00,50.5,48.9,29.86,SW,228,1.8,2.2,94,0.00,,,0.00,0.43,VWS V14.01,2013-07-28 05:53:00,
2013-07-28 01:54:00,50.3,50.0,29.86,SW,218,0.0,1.5,99,0.00,,,0.00,0.00,VWS V14.01,2013-07-28 05:54:00,
2013-07-28 01:55:00,50.2,49.8,29.86,SW,218,0.0,0.0,99,0.00,,,0.00,0.43,VWS V14.01,2013-07-28 05:55:00,
2013-07-28 01:56:00,50.2,49.8,29.90,SW,218,0.0,0.0,99,0.00,,,0.00,0.00,VWS V14.01,2013-07-28 05:56:00,
2013-07-28 01:57:00,49.9,49.5,29.87,SW,218,0.0,0.0,99,0.00,,,0.00,0.00,VWS V14.01,2013-07-28 05:57:00,
2013-07-28 01:58:00,49.8,49.3,29.87,SW,218,0.0,0.0,98,0.00,,,0.00,0.00,VWS V14.01,2013-07-28 05:58:00,
2013-07-28 01:59:00,50.1,48.2,29.86,SW,218,0.0,0.0,93,0.00,,,0.00,0.12,VWS V14.01,2013-07-28 05:59:00,
2013-07-28 02:00:00,50.4,50.0,29.87,SW,218,0.0,0.0,99,0.00,,,0.00,0.12,VWS V14.01,2013-07-28 06:00:00,
2013-07-28 02:03:00,50.5,50.3,29.87,NW,304,2.3,2.3,99,0.00,,,0.00,0.00,VWS V14.01,2013-07-28 06:03:00,
2013-07-28 02:04:00,50.4,50.2,29.87,West,281,2.2,2.3,99,0.00,,,0.00,0.00,VWS V14.01,2013-07-28 06:04:00,
2013-07-28 02:08:00,50.3,50.1,29.86,West,272,2.2,2.2,99,0.00,,,0.00,0.00,VWS V14.01,2013-07-28 06:08:00,
2013-07-28 02:09:00,50.2,50.0,29.87,West,272,2.3,2.3,99,0.00,,,0.00,0.00,VWS V14.01,2013-07-28 06:09:00,
2013-07-28 02:10:00,50.2,48.8,29.86,West,271,1.6,2.7,95,0.00,,,0.00,0.00,VWS V14.01,2013-07-28 06:10:00,
2013-07-28 02:14:00,50.4,50.2,29.87,West,272,2.5,2.5,99,0.00,,,0.00,0.43,VWS V14.01,2013-07-28 06:14:00,
2013-07-28 02:15:00,50.5,50.3,29.86,West,269,2.3,2.5,99,0.00,,,0.00,0.00,VWS V14.01,2013-07-28 06:15:00,
2013-07-28 02:16:00,50.2,50.0,29.86,West,277,2.5,2.5,99,0.00,,,0.00,0.00,VWS V14.01,2013-07-28 06:16:00,
2013-07-28 02:20:00,50.0,49.8,29.86,West,263,2.3,2.8,99,0.00,,,0.00,0.00,VWS V14.01,2013-07-28 06:20:00,
2013-07-28 02:21:00,50.0,49.8,29.86,West,263,2.3,2.8,99,0.00,,,0.00,0.00,VWS V14.01,2013-07-28 06:21:00,
2013-07-28 02:22:00,49.9,49.7,29.85,West,262,2.0,2.0,99,0.00,,,0.00,0.43,VWS V14.01,2013-07-28 06:22:00,
2013-07-28 02:26:00,50.2,50.0,29.86,West,263,2.2,2.5,99,0.00,,,0.00,0.00,VWS V14.01,2013-07-28 06:26:00,
2013-07-28 02:28:00,50.3,50.1,29.86,West,264,2.3,2.3,99,0.00,,,0.00,0.00,VWS V14.01,2013-07-28 06:28:00,
2013-07-28 02:30:00,50.4,50.2,29.86,West,262,3.2,3.2,99,0.00,,,0.00,0.00,VWS V14.01,2013-07-28 06:30:00,
2013-07-28 02:32:00,49.9,49.7,29.86,WSW,257,2.7,3.0,99,0.00,,,0.00,0.00,VWS V14.01,2013-07-28 06:32:00,
2013-07-28 02:33:00,50.2,50.0,29.86,WSW,254,2.7,2.8,99,0.00,,,0.00,0.00,VWS V14.01,2013-07-28 06:33:00,
2013-07-28 02:34:00,50.3,50.1,29.86,WSW,254,2.8,2.8,99,0.00,,,0.00,0.00,VWS V14.01,2013-07-28 06:34:00,
2013-07-28 02:35:00,50.4,50.2,29.87,WSW,256,3.2,3.5,99,0.00,,,0.00,0.00,VWS V14.01,2013-07-28 06:35:00,
2013-07-28 02:39:00,50.6,50.4,29.87,West,259,3.0,4.2,99,0.00,,,0.00,0.00,VWS V14.01,2013-07-28 06:39:00,
2013-07-28 02:40:00,51.1,50.9,29.86,West,265,4.9,4.9,99,0.00,,,0.00,0.73,VWS V14.01,2013-07-28 06:40:00,
2013-07-28 02:44:00,50.7,50.5,29.85,WSW,250,5.2,5.2,99,0.00,,,0.00,0.12,VWS V14.01,2013-07-28 06:44:00,
2013-07-28 02:45:00,50.8,50.6,29.85,SW,229,5.2,5.2,99,0.00,,,0.00,0.43,VWS V14.01,2013-07-28 06:45:00,
2013-07-28 02:46:00,51.0,50.8,29.85,WSW,248,5.7,5.7,99,0.00,,,0.00,0.00,VWS V14.01,2013-07-28 06:46:00,
2013-07-28 02:48:00,51.0,50.6,29.89,WSW,238,5.7,5.7,99,0.00,,,0.00,0.00,VWS V14.01,2013-07-28 06:48:00,
2013-07-28 02:49:00,50.7,50.3,29.86,WSW,250,4.4,4.7,99,0.00,,,0.00,0.00,VWS V14.01,2013-07-28 06:49:00,
2013-07-28 02:52:00,50.5,50.1,29.86,WSW,255,3.2,4.7,98,0.00,,,0.00,0.00,VWS V14.01,2013-07-28 06:52:00,
2013-07-28 02:53:00,50.7,50.2,29.86,West,259,4.0,4.0,98,0.00,,,0.00,0.00,VWS V14.01,2013-07-28 06:53:00,
2013-07-28 02:55:00,50.6,50.1,29.85,WSW,244,3.2,4.2,98,0.00,,,0.00,0.00,VWS V14.01,2013-07-28 06:55:00,
2013-07-28 02:58:00,50.8,50.3,29.86,WSW,243,4.7,5.4,98,0.00,,,0.00,0.00,VWS V14.01,2013-07-28 06:58:00,
2013-07-28 02:59:00,50.8,50.3,29.86,West,266,4.0,4.7,98,0.00,,,0.00,0.00,VWS V14.01,2013-07-28 06:59:00,
2013-07-28 03:00:00,50.5,50.2,29.86,SW,218,0.0,0.0,99,0.00,,,0.00,0.00,VWS V14.01,2013-07-28 07:00:00,
2013-07-28 03:01:00,50.9,50.2,29.85,WSW,254,4.0,4.0,98,0.00,,,0.00,0.00,VWS V14.01,2013-07-28 07:01:00,
2013-07-28 03:02:00,50.4,50.2,29.86,NW,311,2.0,2.0,99,0.00,,,0.00,0.00,VWS V14.01,2013-07-28 07:02:00,
2013-07-28 03:03:00,50.5,50.3,29.87,NW,304,2.3,2.3,99,0.00,,,0.00,0.00,VWS V14.01,2013-07-28 07:03:00,
2013-07-28 03:04:00,50.6,49.8,29.86,WSW,244,3.7,3.7,97,0.00,,,0.00,0.00,VWS V14.01,2013-07-28 07:04:00,
2013-07-28 03:05:00,50.5,49.8,29.86,WSW,250,4.2,4.2,97,0.00,,,0.00,0.00,VWS V14.01,2013-07-28 07:05:00,
2013-07-28 03:06:00,50.5,49.8,29.88,WSW,250,4.2,4.2,97,0.00,,,0.00,0.00,VWS V14.01,2013-07-28 07:06:00,
2013-07-28 03:07:00,50.5,49.8,29.86,WSW,242,4.4,4.4,97,0.00,,,0.00,0.06,VWS V14.01,2013-07-28 07:07:00,
2013-07-28 03:08:00,50.2,50.1,29.87,West,272,2.2,2.3,99,0.00,,,0.00,0.00,VWS V14.01,2013-07-28 07:08:00,
2013-07-28 03:09:00,50.7,48.7,29.86,WSW,253,4.5,4.5,93,0.00,,,0.00,0.00,VWS V14.01,2013-07-28 07:09:00,
2013-07-28 03:10:00,50.5,49.8,29.86,WSW,252,3.7,3.7,97,0.00,,,0.00,0.00,VWS V14.01,2013-07-28 07:10:00,
2013-07-28 03:11:00,50.2,50.0,29.87,West,271,0.0,1.8,99,0.00,,,0.00,0.43,VWS V14.01,2013-07-28 07:11:00,
2013-07-28 03:12:00,50.5,49.7,29.87,WSW,247,3.4,4.2,97,0.00,,,0.00,0.00,VWS V14.01,2013-07-28 07:12:00,
2013-07-28 03:13:00,50.5,49.7,29.87,WSW,253,2.8,3.9,97,0.00,,,0.00,0.00,VWS V14.01,2013-07-28 07:13:00,
2013-07-28 03:14:00,50.5,49.7,29.87,WSW,249,3.9,3.9,97,0.00,,,0.00,0.73,VWS V14.01,2013-07-28 07:14:00,
2013-07-28 03:15:00,50.5,50.3,29.86,West,269,2.3,2.5,99,0.00,,,0.00,0.00,VWS V14.01,2013-07-28 07:15:00,
2013-07-28 03:16:00,50.2,50.0,29.86,West,277,2.5,2.5,99,0.00,,,0.00,0.00,VWS V14.01,2013-07-28 07:16:00,
2013-07-28 03:17:00,50.8,50.0,29.85,WSW,251,4.0,6.1,97,0.00,,,0.00,0.43,VWS V14.01,2013-07-28 07:17:00,
2013-07-28 03:18:00,50.5,49.6,29.85,WSW,254,2.8,4.0,97,0.00,,,0.00,0.00,VWS V14.01,2013-07-28 07:18:00,
2013-07-28 03:19:00,50.7,49.8,29.85,WSW,250,4.5,4.5,97,0.00,,,0.00,0.12,VWS V14.01,2013-07-28 07:19:00,
2013-07-28 03:20:00,50.0,49.8,29.86,West,263,2.3,2.8,99,0.00,,,0.00,0.00,VWS V14.01,2013-07-28 07:20:00,
2013-07-28 03:21:00,50.1,49.9,29.86,West,262,2.0,2.3,99,0.00,,,0.00,0.00,VWS V14.01,2013-07-28 07:21:00,
2013-07-28 03:22:00,50.3,49.4,29.86,WSW,254,3.4,3.7,97,0.00,,,0.00,0.12,VWS V14.01,2013-07-28 07:22:00,
2013-07-28 03:23:00,50.3,49.3,29.85,West,259,3.5,3.9,97,0.00,,,0.00,0.00,VWS V14.01,2013-07-28 07:23:00,
2013-07-28 03:24:00,50.0,49.8,29.86,West,262,1.5,2.3,99,0.00,,,0.00,0.00,VWS V14.01,2013-07-28 07:24:00,
2013-07-28 03:25:00,50.2,49.4,29.86,WSW,250,3.5,3.7,97,0.00,,,0.00,0.00,VWS V14.01,2013-07-28 07:25:00,
2013-07-28 03:26:00,50.5,49.6,29.86,WSW,250,3.7,3.7,97,0.00,,,0.00,0.00,VWS V14.01,2013-07-28 07:26:00,
2013-07-28 03:27:00,50.0,49.2,29.86,WSW,247,2.8,3.7,97,0.00,,,0.00,0.00,VWS V14.01,2013-07-28 07:27:00,
2013-07-28 03:28:00,50.5,49.7,29.86,WSW,238,5.4,5.4,97,0.00,,,0.00,0.00,VWS V14.01,2013-07-28 07:28:00,
2013-07-28 03:29:00,50.4,50.2,29.86,West,262,3.2,3.2,99,0.00,,,0.00,0.00,VWS V14.01,2013-07-28 07:29:00,
2013-07-28 03:30:00,50.5,49.7,29.86,WSW,251,4.0,4.2,97,0.00,,,0.00,0.00,VWS V14.01,2013-07-28 07:30:00,
2013-07-28 03:31:00,50.1,49.3,29.86,WSW,244,2.8,4.2,97,0.00,,,0.00,0.00,VWS V14.01,2013-07-28 07:31:00,
2013-07-28 03:32:00,50.5,49.8,29.86,WSW,248,4.2,4.2,97,0.00,,,0.00,0.00,VWS V14.01,2013-07-28 07:32:00,
2013-07-28 03:33:00,50.1,49.3,29.87,WSW,253,3.9,3.9,97,0.00,,,0.00,0.00,VWS V14.01,2013-07-28 07:33:00,
2013-07-28 03:34:00,50.3,50.1,29.86,WSW,254,2.8,2.8,99,0.00,,,0.00,0.00,VWS V14.01,2013-07-28 07:34:00,
2013-07-28 03:35:00,50.5,49.8,29.86,WSW,242,3.9,5.1,97,0.00,,,0.00,0.12,VWS V14.01,2013-07-28 07:35:00,
2013-07-28 03:36:00,50.5,50.3,29.86,WSW,257,4.2,4.2,99,0.00,,,0.00,0.00,VWS V14.01,2013-07-28 07:36:00,
2013-07-28 03:37:00,50.3,49.6,29.86,SW,234,4.5,6.4,97,0.00,,,0.00,0.00,VWS V14.01,2013-07-28 07:37:00,
2013-07-28 03:38:00,50.2,49.5,29.85,West,259,4.0,5.6,97,0.00,,,0.00,0.00,VWS V14.01,2013-07-28 07:38:00,
2013-07-28 03:39:00,50.5,49.8,29.86,SW,233,4.9,4.9,97,0.00,,,0.00,0.00,VWS V14.01,2013-07-28 07:39:00,
2013-07-28 03:40:00,50.3,49.6,29.86,WSW,246,4.2,4.9,97,0.00,,,0.00,0.00,VWS V14.01,2013-07-28 07:40:00,
2013-07-28 03:41:00,50.8,50.6,29.85,WSW,250,4.5,4.9,99,0.00,,,0.00,0.00,VWS V14.01,2013-07-28 07:41:00,
2013-07-28 03:42:00,50.4,49.6,29.86,WSW,245,4.5,4.5,97,0.00,,,0.00,0.00,VWS V14.01,2013-07-28 07:42:00,
2013-07-28 03:43:00,50.1,49.4,29.86,WSW,246,4.0,4.5,97,0.00,,,0.00,0.00,VWS V14.01,2013-07-28 07:43:00,
2013-07-28 03:44:00,50.7,50.5,29.85,WSW,250,5.2,5.2,99,0.00,,,0.00,0.12,VWS V14.01,2013-07-28 07:44:00,
2013-07-28 03:45:00,50.8,50.6,29.85,WSW,244,4.9,5.2,99,0.00,,,0.00,0.00,VWS V14.01,2013-07-28 07:45:00,
2013-07-28 03:46:00,50.6,49.9,29.87,WSW,257,4.9,4.9,97,0.00,,,0.00,0.00,VWS V14.01,2013-07-28 07:46:00,
2013-07-28 03:47:00,50.4,49.7,29.86,WSW,238,5.7,5.7,97,0.00,,,0.00,0.00,VWS V14.01,2013-07-28 07:47:00,
2013-07-28 03:48:00,50.2,49.4,29.86,SW,236,4.0,5.7,97,0.00,,,0.00,0.43,VWS V14.01,2013-07-28 07:48:00,
2013-07-28 03:49:00,50.2,49.5,29.86,WSW,239,4.2,4.2,97,0.00,,,0.00,0.00,VWS V14.01,2013-07-28 07:49:00,
2013-07-28 03:50:00,50.2,49.4,29.86,WSW,243,3.4,4.2,97,0.00,,,0.00,0.00,VWS V14.01,2013-07-28 07:50:00,
2013-07-28 03:51:00,50.1,49.3,29.86,WSW,244,3.9,4.0,97,0.00,,,0.00,0.00,VWS V14.01,2013-07-28 07:51:00,
2013-07-28 03:52:00,50.5,50.0,29.86,WSW,250,3.5,4.7,98,0.00,,,0.00,0.00,VWS V14.01,2013-07-28 07:52:00,
2013-07-28 03:53:00,50.7,50.2,29.86,West,259,4.0,4.0,98,0.00,,,0.00,0.00,VWS V14.01,2013-07-28 07:53:00,
2013-07-28 03:54:00,50.2,49.5,29.87,WSW,241,4.7,4.7,98,0.00,,,0.00,0.00,VWS V14.01,2013-07-28 07:54:00,
2013-07-28 03:55:00,50.6,49.9,29.86,WSW,246,5.9,5.9,98,0.00,,,0.00,0.43,VWS V14.01,2013-07-28 07:55:00,
2013-07-28 03:57:00,50.2,49.6,29.86,WSW,242,4.0,4.0,98,0.00,,,0.00,0.00,VWS V14.01,2013-07-28 07:57:00,
2013-07-28 03:58:00,50.2,49.5,29.87,WSW,253,5.6,5.6,98,0.00,,,0.00,0.00,VWS V14.01,2013-07-28 07:58:00,
2013-07-28 03:59:00,50.2,49.5,29.86,SW,225,5.7,5.7,98,0.00,,,0.00,0.00,VWS V14.01,2013-07-28 07:59:00,
2013-07-28 04:00:00,50.7,50.0,29.85,West,259,3.9,4.9,98,0.00,,,0.00,0.00,VWS V14.01,2013-07-28 08:00:00,
2013-07-28 04:01:00,50.2,49.6,29.87,WSW,239,4.4,4.9,98,0.00,,,0.00,0.00,VWS V14.01,2013-07-28 08:01:00,
2013-07-28 04:02:00,50.3,49.7,29.86,SW,225,5.7,5.7,98,0.00,,,0.00,0.00,VWS V14.01,2013-07-28 08:02:00,
2013-07-28 04:03:00,49.9,49.3,29.87,WSW,238,3.9,5.2,98,0.00,,,0.00,0.00,VWS V14.01,2013-07-28 08:03:00,
2013-07-28 04:04:00,50.1,49.5,29.87,WSW,240,4.7,4.7,98,0.00,,,0.00,0.00,VWS V14.01,2013-07-28 08:04:00,
2013-07-28 04:05:00,50.5,49.8,29.88,WSW,250,4.2,4.2,97,0.00,,,0.00,0.00,VWS V14.01,2013-07-28 08:05:00,
2013-07-28 04:06:00,50.5,49.8,29.86,WSW,242,4.4,4.4,97,0.00,,,0.00,0.06,VWS V14.01,2013-07-28 08:06:00,
2013-07-28 04:07:00,50.6,49.9,29.86,WSW,255,4.0,4.7,97,0.00,,,0.00,0.00,VWS V14.01,2013-07-28 08:07:00,
2013-07-28 04:08:00,50.1,47.9,29.86,WSW,249,3.9,5.1,92,0.00,,,0.00,0.00,VWS V14.01,2013-07-28 08:08:00,
2013-07-28 04:09:00,50.2,49.6,29.86,WSW,250,4.4,6.1,98,0.00,,,0.00,0.00,VWS V14.01,2013-07-28 08:09:00,
2013-07-28 04:10:00,50.6,49.8,29.86,WSW,244,4.2,4.2,97,0.00,,,0.00,0.00,VWS V14.01,2013-07-28 08:10:00,
2013-07-28 04:11:00,50.5,49.7,29.86,WSW,247,3.4,4.2,97,0.00,,,0.00,0.00,VWS V14.01,2013-07-28 08:11:00,
2013-07-28 04:12:00,50.5,49.7,29.87,WSW,253,2.8,3.9,97,0.00,,,0.00,0.00,VWS V14.01,2013-07-28 08:12:00,
2013-07-28 04:13:00,50.4,49.8,29.86,WSW,239,5.4,5.4,98,0.00,,,0.00,0.00,VWS V14.01,2013-07-28 08:13:00,
2013-07-28 04:14:00,50.3,49.7,29.87,WSW,243,5.4,5.4,98,0.00,,,0.00,0.00,VWS V14.01,2013-07-28 08:14:00,
2013-07-28 04:15:00,50.2,49.5,29.86,WSW,244,4.9,4.9,97,0.00,,,0.00,0.00,VWS V14.01,2013-07-28 08:15:00,
2013-07-28 04:16:00,50.8,50.0,29.85,WSW,251,4.0,6.1,97,0.00,,,0.00,0.43,VWS V14.01,2013-07-28 08:16:00,
2013-07-28 04:17:00,50.0,49.3,29.86,WSW,239,3.9,4.4,97,0.00,,,0.00,0.00,VWS V14.01,2013-07-28 08:17:00,
2013-07-28 04:18:00,50.5,49.6,29.85,WSW,255,4.0,4.0,97,0.00,,,0.00,0.00,VWS V14.01,2013-07-28 08:18:00,
2013-07-28 04:19:00,50.0,49.4,29.86,SW,235,4.9,4.9,97,0.00,,,0.00,0.00,VWS V14.01,2013-07-28 08:19:00,
2013-07-28 04:20:00,50.2,49.5,29.85,SW,230,5.6,5.6,97,0.00,,,0.00,0.00,VWS V14.01,2013-07-28 08:20:00,
2013-07-28 04:21:00,50.3,49.6,29.86,SW,220,6.1,6.1,98,0.00,,,0.00,0.00,VWS V14.01,2013-07-28 08:21:00,
2013-07-28 04:22:00,50.1,49.4,29.86,SW,224,4.9,4.9,97,0.00,,,0.00,0.00,VWS V14.01,2013-07-28 08:22:00,
2013-07-28 04:23:00,50.2,49.3,29.85,WSW,256,3.2,3.5,97,0.00,,,0.00,0.00,VWS V14.01,2013-07-28 08:23:00,
2013-07-28 04:24:00,50.0,49.3,29.86,SW,221,4.9,5.2,97,0.00,,,0.00,0.00,VWS V14.01,2013-07-28 08:24:00,
2013-07-28 04:25:00,50.2,49.5,29.86,SW,236,4.9,5.9,97,0.00,,,0.00,0.00,VWS V14.01,2013-07-28 08:25:00,
2013-07-28 04:26:00,50.0,49.2,29.86,WSW,247,2.8,3.7,97,0.00,,,0.00,0.00,VWS V14.01,2013-07-28 08:26:00,
2013-07-28 04:27:00,50.0,49.2,29.85,SW,219,4.5,5.4,97,0.00,,,0.00,0.00,VWS V14.01,2013-07-28 08:27:00,
2013-07-28 04:28:00,49.9,49.1,29.86,SW,226,4.5,4.5,97,0.00,,,0.00,0.00,VWS V14.01,2013-07-28 08:28:00,
2013-07-28 04:29:00,50.5,49.7,29.86,WSW,251,4.0,4.2,97,0.00,,,0.00,0.00,VWS V14.01,2013-07-28 08:29:00,
2013-07-28 04:30:00,49.9,49.2,29.85,SW,234,3.7,4.5,97,0.00,,,0.00,0.00,VWS V14.01,2013-07-28 08:30:00,
2013-07-28 04:31:00,50.3,49.5,29.86,WSW,242,3.5,4.2,97,0.00,,,0.00,0.00,VWS V14.01,2013-07-28 08:31:00,
2013-07-28 04:32:00,50.2,49.4,29.90,WSW,238,3.2,3.5,97,0.00,,,0.00,0.00,VWS V14.01,2013-07-28 08:32:00,
2013-07-28 04:33:00,50.0,49.2,29.85,SW,222,4.0,5.4,97,0.00,,,0.00,0.43,VWS V14.01,2013-07-28 08:33:00,
2013-07-28 04:34:00,50.5,49.8,29.86,WSW,242,3.9,5.1,97,0.00,,,0.00,0.12,VWS V14.01,2013-07-28 08:34:00,
2013-07-28 04:35:00,49.6,48.8,29.86,SSW,202,4.2,5.1,97,0.00,,,0.00,0.00,VWS V14.01,2013-07-28 08:35:00,
2013-07-28 04:36:00,49.4,48.5,29.89,SSW,207,5.2,5.2,97,0.00,,,0.00,0.00,VWS V14.01,2013-07-28 08:36:00,
2013-07-28 04:37:00,50.2,49.5,29.84,West,259,4.0,5.6,97,0.00,,,0.00,0.00,VWS V14.01,2013-07-28 08:37:00,
2013-07-28 04:38:00,49.2,48.4,29.86,SSW,205,4.9,5.4,97,0.00,,,0.00,0.00,VWS V14.01,2013-07-28 08:38:00,
2013-07-28 04:39:00,50.3,49.6,29.86,WSW,246,4.0,4.9,97,0.00,,,0.00,0.00,VWS V14.01,2013-07-28 08:39:00,
2013-07-28 04:40:00,50.3,49.5,29.85,WSW,249,4.0,4.0,97,0.00,,,0.00,0.73,VWS V14.01,2013-07-28 08:40:00,
2013-07-28 04:41:00,49.3,48.7,29.86,SW,222,3.9,5.9,98,0.00,,,0.00,0.00,VWS V14.01,2013-07-28 08:41:00,
2013-07-28 04:42:00,49.6,49.0,29.85,SSW,207,4.4,6.4,98,0.00,,,0.00,0.00,VWS V14.01,2013-07-28 08:42:00,
2013-07-28 04:43:00,49.6,49.0,29.86,SW,216,5.6,5.6,98,0.00,,,0.00,0.00,VWS V14.01,2013-07-28 08:43:00,
2013-07-28 04:44:00,49.4,48.8,29.85,SW,223,3.4,4.2,98,0.00,,,0.00,0.00,VWS V14.01,2013-07-28 08:44:00,
2013-07-28 04:45:00,50.6,49.9,29.86,WSW,257,4.9,4.9,97,0.00,,,0.00,0.00,VWS V14.01,2013-07-28 08:45:00,
2013-07-28 04:46:00,49.5,49.0,29.86,SW,229,4.7,4.7,98,0.00,,,0.00,0.73,VWS V14.01,2013-07-28 08:46:00,
2013-07-28 04:47:00,50.2,49.4,29.86,SW,236,4.0,5.7,97,0.00,,,0.00,0.43,VWS V14.01,2013-07-28 08:47:00,
2013-07-28 04:48:00,49.6,49.2,29.86,SW,218,3.7,4.2,98,0.00,,,0.00,0.12,VWS V14.01,2013-07-28 08:48:00,
2013-07-28 04:49:00,49.5,49.0,29.86,SW,218,4.4,4.4,98,0.00,,,0.00,0.43,VWS V14.01,2013-07-28 08:49:00,
2013-07-28 04:50:00,49.8,49.3,29.85,SW,214,6.1,6.1,98,0.00,,,0.00,0.00,VWS V14.01,2013-07-28 08:50:00,
2013-07-28 04:51:00,49.5,49.0,29.84,SW,220,4.0,5.2,98,0.00,,,0.00,0.00,VWS V14.01,2013-07-28 08:51:00,
2013-07-28 04:52:00,49.4,48.9,29.86,SW,216,3.4,4.0,98,0.00,,,0.00,0.73,VWS V14.01,2013-07-28 08:52:00,
2013-07-28 04:53:00,50.2,49.5,29.87,WSW,241,4.7,4.7,98,0.00,,,0.00,0.00,VWS V14.01,2013-07-28 08:53:00,
2013-07-28 04:54:00,49.3,48.8,29.86,SW,222,3.5,4.2,98,0.00,,,0.00,0.00,VWS V14.01,2013-07-28 08:54:00,
2013-07-28 04:55:00,49.5,49.0,29.86,SW,216,4.9,4.9,98,0.00,,,0.00,0.00,VWS V14.01,2013-07-28 08:55:00,
2013-07-28 04:56:00,49.4,49.0,29.85,SSW,195,3.9,4.9,98,0.00,,,0.00,0.00,VWS V14.01,2013-07-28 08:56:00,
2013-07-28 04:57:00,50.2,49.5,29.87,WSW,253,5.6,5.6,98,0.00,,,0.00,0.00,VWS V14.01,2013-07-28 08:57:00,
2013-07-28 04:58:00,49.5,49.0,29.86,SSW,211,4.5,4.5,98,0.00,,,0.00,0.43,VWS V14.01,2013-07-28 08:58:00,
2013-07-28 04:59:00,49.4,49.0,29.89,SSW,208,3.4,4.5,98,0.00,,,0.00,0.00,VWS V14.01,2013-07-28 08:59:00,
2013-07-28 05:00:00,49.5,49.0,29.87,SW,218,4.0,4.0,98,0.00,,,0.00,0.00,VWS V14.01,2013-07-28 09:00:00,
2013-07-28 05:01:00,50.1,49.4,29.87,WSW,254,4.0,4.4,98,0.00,,,0.00,0.00,VWS V14.01,2013-07-28 09:01:00,
2013-07-28 05:02:00,49.4,49.0,29.85,SW,221,3.9,5.6,98,0.00,,,0.00,0.00,VWS V14.01,2013-07-28 09:02:00,
2013-07-28 05:03:00,49.6,49.1,29.86,SW,235,4.4,5.6,98,0.00,,,0.00,0.00,VWS V14.01,2013-07-28 09:03:00,
2013-07-28 05:04:00,49.5,49.0,29.85,SW,225,5.1,5.6,98,0.00,,,0.00,0.00,VWS V14.01,2013-07-28 09:04:00,
2013-07-28 05:05:00,50.2,49.6,29.86,WSW,242,4.0,5.2,98,0.00,,,0.00,0.00,VWS V14.01,2013-07-28 09:05:00,
2013-07-28 05:06:00,49.4,48.9,29.86,SW,218,5.1,5.6,98,0.00,,,0.00,0.00,VWS V14.01,2013-07-28 09:06:00,
2013-07-28 05:07:00,49.4,48.9,29.86,SW,216,4.5,5.6,98,0.00,,,0.00,0.00,VWS V14.01,2013-07-28 09:07:00,
2013-07-28 05:08:00,50.3,49.7,29.87,WSW,237,6.1,6.1,98,0.00,,,0.00,0.00,VWS V14.01,2013-07-28 09:08:00,
2013-07-28 05:09:00,50.2,49.6,29.86,SW,236,4.5,6.1,98,0.00,,,0.00,0.00,VWS V14.01,2013-07-28 09:09:00,
2013-07-28 05:10:00,49.5,49.0,29.85,WSW,240,5.2,7.3,98,0.00,,,0.00,0.00,VWS V14.01,2013-07-28 09:10:00,
2013-07-28 05:11:00,49.5,49.0,29.85,WSW,240,5.2,7.3,98,0.00,,,0.00,0.00,VWS V14.01,2013-07-28 09:11:00,
2013-07-28 05:12:00,49.6,49.1,29.86,SW,232,6.6,7.3,98,0.00,,,0.00,0.00,VWS V14.01,2013-07-28 09:12:00,
2013-07-28 05:13:00,49.6,49.1,29.85,SW,232,6.8,7.3,98,0.00,,,0.00,0.00,VWS V14.01,2013-07-28 09:13:00,
2013-07-28 05:14:00,50.1,49.4,29.87,WSW,253,4.5,5.4,98,0.00,,,0.00,0.00,VWS V14.01,2013-07-28 09:14:00,
2013-07-28 05:15:00,50.2,49.5,29.86,SW,234,4.5,4.9,97,0.00,,,0.00,0.00,VWS V14.01,2013-07-28 09:15:00,
2013-07-28 05:16:00,49.8,49.2,29.86,SW,228,6.8,7.5,98,0.00,,,0.00,0.00,VWS V14.01,2013-07-28 09:16:00,
2013-07-28 05:17:00,49.8,49.1,29.86,SW,226,6.1,7.5,98,0.00,,,0.00,0.00,VWS V14.01,2013-07-28 09:17:00,
2013-07-28 05:18:00,49.7,49.1,29.86,SW,227,4.2,7.5,98,0.00,,,0.00,0.00,VWS V14.01,2013-07-28 09:18:00,
2013-07-28 05:19:00,49.8,49.1,29.90,SW,224,4.5,7.5,98,0.00,,,0.00,0.00,VWS V14.01,2013-07-28 09:19:00,
2013-07-28 05:20:00,50.3,49.6,29.85,SW,236,4.9,5.6,98,0.00,,,0.00,0.00,VWS V14.01,2013-07-28 09:20:00,
2013-07-28 05:21:00,50.0,49.4,29.85,SW,231,4.0,6.1,98,0.00,,,0.00,0.00,VWS V14.01,2013-07-28 09:21:00,
2013-07-28 05:22:00,50.5,49.9,29.85,SW,227,7.6,7.6,98,0.00,,,0.00,0.00,VWS V14.01,2013-07-28 09:22:00,
2013-07-28 05:23:00,50.6,49.9,29.85,SW,236,7.3,7.6,97,0.00,,,0.00,0.12,VWS V14.01,2013-07-28 09:23:00,
2013-07-28 05:24:00,50.5,49.7,29.85,SW,231,6.6,7.6,97,0.00,,,0.00,0.00,VWS V14.01,2013-07-28 09:24:00,
2013-07-28 05:25:00,50.2,49.5,29.86,SW,236,4.9,5.9,97,0.00,,,0.00,0.00,VWS V14.01,2013-07-28 09:25:00,
2013-07-28 05:26:00,50.2,49.5,29.86,SW,220,5.1,5.1,97,0.00,,,0.00,0.00,VWS V14.01,2013-07-28 09:26:00,
2013-07-28 05:27:00,50.6,49.7,29.86,WSW,238,4.9,8.7,97,0.00,,,0.00,0.00,VWS V14.01,2013-07-28 09:27:00,
2013-07-28 05:28:00,49.9,49.1,29.86,SW,226,4.5,4.5,97,0.00,,,0.00,0.00,VWS V14.01,2013-07-28 09:28:00,
2013-07-28 05:29:00,50.6,49.5,29.86,SW,230,5.1,8.7,96,0.00,,,0.00,0.00,VWS V14.01,2013-07-28 09:29:00,
2013-07-28 05:30:00,50.7,49.6,29.86,SW,227,6.9,8.7,96,0.00,,,0.00,0.00,VWS V14.01,2013-07-28 09:30:00,
2013-07-28 05:31:00,50.3,49.6,29.85,SW,217,5.4,5.4,97,0.00,,,0.00,0.00,VWS V14.01,2013-07-28 09:31:00,
2013-07-28 05:32:00,50.0,49.2,29.85,SW,222,4.0,5.4,97,0.00,,,0.00,0.43,VWS V14.01,2013-07-28 09:32:00,
2013-07-28 05:33:00,50.8,47.3,29.86,SW,231,6.9,8.7,88,0.00,,,0.00,0.00,VWS V14.01,2013-07-28 09:33:00,
2013-07-28 05:34:00,50.5,49.2,29.86,SW,225,5.9,8.7,95,0.00,,,0.00,0.00,VWS V14.01,2013-07-28 09:34:00,
2013-07-28 05:35:00,50.5,49.2,29.86,SW,222,6.1,8.7,95,0.00,,,0.00,0.00,VWS V14.01,2013-07-28 09:35:00,
2013-07-28 05:36:00,50.5,49.1,29.86,SW,228,6.6,8.7,95,0.00,,,0.00,0.43,VWS V14.01,2013-07-28 09:36:00,
2013-07-28 05:37:00,49.3,48.4,29.87,SSW,199,5.4,5.4,97,0.00,,,0.00,0.00,VWS V14.01,2013-07-28 09:37:00,
2013-07-28 05:38:00,50.4,49.0,29.87,WSW,244,6.9,8.7,95,0.00,,,0.00,0.00,VWS V14.01,2013-07-28 09:38:00,
2013-07-28 05:39:00,50.1,48.6,29.86,SW,228,5.4,8.7,95,0.00,,,0.00,0.00,VWS V14.01,2013-07-28 09:39:00,
2013-07-28 05:40:00,50.2,48.8,29.86,SW,230,5.9,8.7,95,0.00,,,0.00,0.18,VWS V14.01,2013-07-28 09:40:00,
2013-07-28 05:41:00,50.3,48.9,29.85,SW,219,5.9,8.7,95,0.00,,,0.00,0.00,VWS V14.01,2013-07-28 09:41:00,
2013-07-28 05:42:00,50.1,48.7,29.85,SW,218,4.5,8.7,95,0.00,,,0.00,0.00,VWS V14.01,2013-07-28 09:42:00,
2013-07-28 05:43:00,50.2,48.9,29.85,SW,214,7.3,8.7,95,0.00,,,0.00,0.00,VWS V14.01,2013-07-28 09:43:00,
2013-07-28 05:44:00,49.4,48.9,29.85,SSW,205,4.9,4.9,98,0.00,,,0.00,0.00,VWS V14.01,2013-07-28 09:44:00,
2013-07-28 05:45:00,49.3,48.7,29.86,SSW,206,4.0,4.9,98,0.00,,,0.00,0.00,VWS V14.01,2013-07-28 09:45:00,
2013-07-28 05:46:00,50.3,49.1,29.87,SW,226,7.3,8.7,96,0.00,,,0.00,0.00,VWS V14.01,2013-07-28 09:46:00,
2013-07-28 05:47:00,50.0,48.8,29.86,WSW,237,4.7,8.7,95,0.00,,,0.00,0.00,VWS V14.01,2013-07-28 09:47:00,
2013-07-28 05:48:00,50.2,48.9,29.86,SW,225,5.7,8.7,96,0.00,,,0.00,0.00,VWS V14.01,2013-07-28 09:48:00,
2013-07-28 05:49:00,50.2,49.0,29.86,SW,228,6.3,8.7,96,0.00,,,0.00,0.00,VWS V14.01,2013-07-28 09:49:00,
2013-07-28 05:50:00,49.5,49.1,29.84,SSW,198,5.2,6.1,98,0.00,,,0.00,0.00,VWS V14.01,2013-07-28 09:50:00,
2013-07-28 05:51:00,49.5,49.0,29.84,SW,220,4.0,5.2,98,0.00,,,0.00,0.00,VWS V14.01,2013-07-28 09:51:00,
2013-07-28 05:52:00,49.4,48.9,29.86,SW,216,3.4,4.0,98,0.00,,,0.00,0.73,VWS V14.01,2013-07-28 09:52:00,
2013-07-28 05:53:00,50.1,48.9,29.87,SW,229,6.3,8.7,96,0.00,,,0.00,0.00,VWS V14.01,2013-07-28 09:53:00,
2013-07-28 05:54:00,50.1,49.0,29.85,SW,235,7.6,8.7,96,0.00,,,0.00,0.00,VWS V14.01,2013-07-28 09:54:00,
2013-07-28 05:55:00,50.0,48.9,29.85,SW,224,6.3,8.7,96,0.00,,,0.00,0.00,VWS V14.01,2013-07-28 09:55:00,
2013-07-28 05:56:00,49.4,49.0,29.85,SW,228,4.0,4.0,98,0.00,,,0.00,0.00,VWS V14.01,2013-07-28 09:56:00,
2013-07-28 05:57:00,49.2,48.8,29.86,SSW,207,4.0,4.0,98,0.00,,,0.00,0.00,VWS V14.01,2013-07-28 09:57:00,
2013-07-28 05:58:00,49.5,49.0,29.86,SSW,213,4.5,4.5,98,0.00,,,0.00,0.00,VWS V14.01,2013-07-28 09:58:00,
2013-07-28 05:59:00,49.9,48.8,29.86,SW,217,4.9,8.7,96,0.00,,,0.00,0.12,VWS V14.01,2013-07-28 09:59:00,
2013-07-28 06:00:00,49.8,49.3,29.85,WSW,239,5.6,5.6,98,0.00,,,0.00,0.00,VWS V14.01,2013-07-28 10:00:00,
2013-07-28 06:01:00,50.0,49.0,29.86,SW,223,6.1,8.7,96,0.00,,,0.00,0.00,VWS V14.01,2013-07-28 10:01:00,
2013-07-28 06:02:00,50.2,49.2,29.86,SW,216,8.5,8.5,96,0.00,,,0.00,0.00,VWS V14.01,2013-07-28 10:02:00,
2013-07-28 06:03:00,49.8,48.8,29.86,SW,223,5.7,7.6,96,0.00,,,0.00,0.00,VWS V14.01,2013-07-28 10:03:00,
2013-07-28 06:04:00,49.9,48.9,29.86,SW,214,5.6,6.6,96,0.00,,,0.00,0.00,VWS V14.01,2013-07-28 10:04:00,
2013-07-28 06:05:00,50.2,49.2,29.86,SW,227,7.5,7.5,96,0.00,,,0.00,0.00,VWS V14.01,2013-07-28 10:05:00,
2013-07-28 06:06:00,49.7,48.7,29.86,SSW,210,3.9,5.6,96,0.00,,,0.00,0.00,VWS V14.01,2013-07-28 10:06:00,
2013-07-28 06:07:00,49.7,48.8,29.86,SW,215,5.9,5.9,96,0.00,,,0.00,0.00,VWS V14.01,2013-07-28 10:07:00,
2013-07-28 06:08:00,49.5,48.6,29.85,SW,224,6.1,6.1,96,0.00,,,0.00,0.00,VWS V14.01,2013-07-28 10:08:00,
2013-07-28 06:09:00,49.5,48.5,29.85,SSW,213,5.2,6.1,97,0.00,,,0.00,0.00,VWS V14.01,2013-07-28 10:09:00,
2013-07-28 06:10:00,49.7,48.8,29.85,SW,232,4.4,6.8,97,0.00,,,0.00,0.00,VWS V14.01,2013-07-28 10:10:00,
2013-07-28 06:11:00,49.6,48.8,29.85,SW,232,4.7,5.9,97,0.00,,,0.00,0.00,VWS V14.01,2013-07-28 10:11:00,
2013-07-28 06:12:00,49.6,48.8,29.85,WSW,239,4.2,4.7,97,0.00,,,0.00,0.67,VWS V14.01,2013-07-28 10:12:00,
2013-07-28 06:13:00,49.6,48.8,29.85,SW,223,4.4,4.7,97,0.00,,,0.00,0.00,VWS V14.01,2013-07-28 10:13:00,
2013-07-28 06:14:00,49.7,48.9,29.85,SW,220,5.1,5.1,97,0.00,,,0.00,0.00,VWS V14.01,2013-07-28 10:14:00,
2013-07-28 06:15:00,49.5,48.8,29.86,SW,230,5.4,6.4,97,0.00,,,0.00,0.06,VWS V14.01,2013-07-28 10:15:00,
2013-07-28 06:16:00,49.5,48.7,29.86,SW,227,3.7,5.4,97,0.00,,,0.00,0.00,VWS V14.01,2013-07-28 10:16:00,
2013-07-28 06:17:00,49.8,49.0,29.86,SW,227,6.4,6.4,97,0.00,,,0.00,0.37,VWS V14.01,2013-07-28 10:17:00,
2013-07-28 06:18:00,49.7,48.9,29.86,SW,214,4.7,4.7,97,0.00,,,0.00,0.06,VWS V14.01,2013-07-28 10:18:00,
2013-07-28 06:19:00,49.5,48.8,29.86,SW,233,4.9,5.9,97,0.00,,,0.00,2.38,VWS V14.01,2013-07-28 10:19:00,
2013-07-28 06:20:00,49.5,48.8,29.87,SW,214,4.9,4.9,97,0.00,,,0.00,2.02,VWS V14.01,2013-07-28 10:20:00,
2013-07-28 06:21:00,49.5,48.8,29.86,SW,228,5.1,7.1,97,0.00,,,0.00,2.26,VWS V14.01,2013-07-28 10:21:00,
2013-07-28 06:22:00,49.5,48.7,29.86,SW,231,5.4,5.4,97,0.00,,,0.00,2.56,VWS V14.01,2013-07-28 10:22:00,
2013-07-28 06:23:00,49.4,48.7,29.87,SW,232,4.9,5.4,97,0.00,,,0.00,2.26,VWS V14.01,2013-07-28 10:23:00,
2013-07-28 06:24:00,49.4,48.7,29.87,WSW,253,5.7,5.7,97,0.00,,,0.00,0.00,VWS V14.01,2013-07-28 10:24:00,
2013-07-28 06:25:00,49.5,48.8,29.87,SW,234,4.7,5.7,97,0.00,,,0.00,2.20,VWS V14.01,2013-07-28 10:25:00,
2013-07-28 06:26:00,49.6,48.9,29.86,SW,223,5.9,6.1,97,0.00,,,0.00,2.44,VWS V14.01,2013-07-28 10:26:00,
2013-07-28 06:27:00,49.5,48.8,29.86,SW,227,3.9,5.9,97,0.00,,,0.00,2.75,VWS V14.01,2013-07-28 10:27:00,
2013-07-28 06:28:00,49.8,49.1,29.86,SW,229,6.1,6.1,97,0.00,,,0.00,2.93,VWS V14.01,2013-07-28 10:28:00,
2013-07-28 06:29:00,49.6,48.9,29.87,SW,229,4.9,6.1,97,0.00,,,0.00,0.00,VWS V14.01,2013-07-28 10:29:00,
2013-07-28 06:30:00,49.9,49.2,29.91,SSW,213,6.6,6.6,97,0.00,,,0.00,5.37,VWS V14.01,2013-07-28 10:30:00,
2013-07-28 06:31:00,49.8,49.1,29.87,WSW,240,5.2,6.6,97,0.00,,,0.00,4.15,VWS V14.01,2013-07-28 10:31:00,
2013-07-28 06:32:00,50.0,49.3,29.87,WSW,242,6.9,6.9,97,0.00,,,0.00,4.70,VWS V14.01,2013-07-28 10:32:00,
2013-07-28 06:33:00,49.9,49.1,29.87,WSW,249,5.1,5.6,97,0.00,,,0.00,5.56,VWS V14.01,2013-07-28 10:33:00,
2013-07-28 06:34:00,50.1,49.3,29.87,WSW,241,7.5,7.5,97,0.00,,,0.00,4.40,VWS V14.01,2013-07-28 10:34:00,
2013-07-28 06:35:00,50.2,48.6,29.87,WSW,249,6.9,7.1,94,0.00,,,0.00,6.35,VWS V14.01,2013-07-28 10:35:00,
2013-07-28 06:36:00,50.0,49.1,29.87,SW,235,5.7,6.9,97,0.00,,,0.00,7.75,VWS V14.01,2013-07-28 10:36:00,
2013-07-28 06:37:00,50.1,49.1,29.87,SW,225,5.7,5.7,96,0.00,,,0.00,7.75,VWS V14.01,2013-07-28 10:37:00,
2013-07-28 06:38:00,50.2,49.2,29.87,SW,232,6.8,7.1,96,0.00,,,0.00,6.84,VWS V14.01,2013-07-28 10:38:00,
2013-07-28 06:39:00,50.2,49.1,29.87,WSW,238,7.5,7.5,96,0.00,,,0.00,7.63,VWS V14.01,2013-07-28 10:39:00,
2013-07-28 06:40:00,50.3,49.2,29.86,SW,224,6.6,7.5,96,0.00,,,0.00,9.58,VWS V14.01,2013-07-28 10:40:00,
2013-07-28 06:41:00,50.1,48.8,29.87,SW,225,5.6,6.6,95,0.00,,,0.00,10.20,VWS V14.01,2013-07-28 10:41:00,
2013-07-28 06:42:00,50.3,49.0,29.87,SW,231,5.9,7.1,95,0.00,,,0.00,9.28,VWS V14.01,2013-07-28 10:42:00,
2013-07-28 06:43:00,50.0,48.7,29.86,WSW,239,6.1,6.4,95,0.00,,,0.00,9.28,VWS V14.01,2013-07-28 10:43:00,
2013-07-28 06:44:00,50.0,48.7,29.86,WSW,239,6.1,6.4,95,0.00,,,0.00,9.28,VWS V14.01,2013-07-28 10:44:00,
2013-07-28 06:45:00,50.2,48.9,29.86,WSW,241,7.6,7.6,95,0.00,,,0.00,10.68,VWS V14.01,2013-07-28 10:45:00,
2013-07-28 06:46:00,50.2,48.8,29.86,WSW,240,6.4,7.6,95,0.00,,,0.00,10.07,VWS V14.01,2013-07-28 10:46:00,
2013-07-28 06:47:00,50.2,48.9,29.86,WSW,241,5.7,7.6,95,0.00,,,0.00,11.78,VWS V14.01,2013-07-28 10:47:00,
2013-07-28 06:48:00,50.0,48.6,29.88,WSW,249,4.2,6.4,95,0.00,,,0.00,21.31,VWS V14.01,2013-07-28 10:48:00,
2013-07-28 06:49:00,50.2,48.8,29.87,WSW,238,5.2,5.2,95,0.00,,,0.00,26.68,VWS V14.01,2013-07-28 10:49:00,
2013-07-28 06:50:00,50.7,49.2,29.87,WSW,250,7.1,7.1,95,0.00,,,0.00,37.91,VWS V14.01,2013-07-28 10:50:00,
2013-07-28 06:51:00,50.7,48.9,29.87,West,264,6.8,7.3,93,0.00,,,0.00,41.58,VWS V14.01,2013-07-28 10:51:00,
2013-07-28 06:52:00,50.9,49.3,29.87,WSW,252,7.3,7.3,94,0.00,,,0.00,39.68,VWS V14.01,2013-07-28 10:52:00,
2013-07-28 06:53:00,50.6,48.5,29.87,WSW,257,5.1,5.9,92,0.00,,,0.00,45.48,VWS V14.01,2013-07-28 10:53:00,
2013-07-28 06:54:00,50.6,48.4,29.88,WSW,249,5.9,5.9,92,0.00,,,0.00,45.12,VWS V14.01,2013-07-28 10:54:00,
2013-07-28 06:55:00,50.7,48.4,29.88,WSW,256,6.6,6.6,92,0.00,,,0.00,48.35,VWS V14.01,2013-07-28 10:55:00,
2013-07-28 06:56:00,50.9,48.5,29.88,WSW,242,5.1,6.6,91,0.00,,,0.00,49.88,VWS V14.01,2013-07-28 10:56:00,
2013-07-28 06:57:00,50.6,48.1,29.87,WSW,246,5.1,5.1,91,0.00,,,0.00,51.10,VWS V14.01,2013-07-28 10:57:00,
2013-07-28 06:58:00,50.9,48.3,29.86,WSW,254,5.4,6.1,91,0.00,,,0.00,53.54,VWS V14.01,2013-07-28 10:58:00,
2013-07-28 06:59:00,51.2,48.5,29.87,WSW,251,8.0,8.1,90,0.00,,,0.00,55.98,VWS V14.01,2013-07-28 10:59:00,
2013-07-28 07:00:00,51.2,48.3,29.88,WSW,238,8.7,8.7,90,0.00,,,0.00,58.18,VWS V14.01,2013-07-28 11:00:00,
2013-07-28 07:01:00,51.2,48.3,29.88,WSW,238,8.7,8.7,90,0.00,,,0.00,58.18,VWS V14.01,2013-07-28 11:01:00,
2013-07-28 07:02:00,51.4,48.2,29.87,SW,221,6.9,8.7,89,0.00,,,0.00,60.87,VWS V14.01,2013-07-28 11:02:00,
2013-07-28 07:03:00,51.4,48.2,29.87,SW,221,6.9,8.7,89,0.00,,,0.00,60.87,VWS V14.01,2013-07-28 11:03:00,
2013-07-28 07:04:00,51.6,48.2,29.86,WSW,238,7.5,8.3,88,0.00,,,0.00,65.45,VWS V14.01,2013-07-28 11:04:00,
2013-07-28 07:05:00,51.3,47.9,29.88,WSW,256,6.1,7.5,88,0.00,,,0.00,67.95,VWS V14.01,2013-07-28 11:05:00,
2013-07-28 07:06:00,51.4,47.9,29.88,WSW,248,4.5,6.1,88,0.00,,,0.00,68.19,VWS V14.01,2013-07-28 11:06:00,
2013-07-28 07:07:00,51.7,48.2,29.87,West,266,5.2,6.8,88,0.00,,,0.00,70.39,VWS V14.01,2013-07-28 11:07:00,
2013-07-28 07:08:00,51.6,46.4,29.87,WSW,256,4.2,7.1,82,0.00,,,0.00,72.47,VWS V14.01,2013-07-28 11:08:00,
2013-07-28 07:09:00,51.5,48.0,29.87,WSW,255,5.1,5.1,88,0.00,,,0.00,73.38,VWS V14.01,2013-07-28 11:09:00,
2013-07-28 07:10:00,52.0,48.2,29.88,WSW,251,6.9,8.0,87,0.00,,,0.00,75.82,VWS V14.01,2013-07-28 11:10:00,
2013-07-28 07:11:00,51.9,48.2,29.88,West,270,5.7,6.9,87,0.00,,,0.00,77.96,VWS V14.01,2013-07-28 11:11:00,
2013-07-28 07:12:00,51.8,47.9,29.88,West,263,5.4,6.4,87,0.00,,,0.00,76.37,VWS V14.01,2013-07-28 11:12:00,
2013-07-28 07:13:00,51.8,47.9,29.88,West,263,5.4,6.4,87,0.00,,,0.00,76.37,VWS V14.01,2013-07-28 11:13:00,
2013-07-28 07:14:00,52.5,48.7,29.88,WSW,242,5.4,5.4,87,0.00,,,0.00,80.40,VWS V14.01,2013-07-28 11:14:00,
2013-07-28 07:15:00,52.8,48.8,29.89,WSW,243,8.0,8.0,86,0.00,,,0.00,80.89,VWS V14.01,2013-07-28 11:15:00,
2013-07-28 07:16:00,52.1,47.9,29.89,WSW,255,5.4,8.0,86,0.00,,,0.00,85.59,VWS V14.01,2013-07-28 11:16:00,
2013-07-28 07:17:00,52.4,48.2,29.88,WSW,258,6.8,6.8,86,0.00,,,0.00,87.73,VWS V14.01,2013-07-28 11:17:00,
2013-07-28 07:18:00,52.5,48.2,29.89,WSW,244,6.4,6.8,85,0.00,,,0.00,87.97,VWS V14.01,2013-07-28 11:18:00,
2013-07-28 07:19:00,52.5,47.7,29.88,West,267,7.6,8.7,83,0.00,,,0.00,92.12,VWS V14.01,2013-07-28 11:19:00,
2013-07-28 07:20:00,52.5,47.7,29.88,West,267,7.6,8.7,83,0.00,,,0.00,92.12,VWS V14.01,2013-07-28 11:20:00,
2013-07-28 07:21:00,52.4,47.6,29.89,West,265,6.3,6.3,84,0.00,,,0.00,92.86,VWS V14.01,2013-07-28 11:21:00,
2013-07-28 07:22:00,52.5,47.5,29.88,West,264,8.1,8.1,83,0.00,,,0.00,97.01,VWS V14.01,2013-07-28 11:22:00,
2013-07-28 07:23:00,52.3,47.3,29.88,West,266,8.3,8.3,83,0.00,,,0.00,97.50,VWS V14.01,2013-07-28 11:23:00,
2013-07-28 07:24:00,52.8,47.9,29.89,West,260,8.5,8.5,83,0.00,,,0.00,100.37,VWS V14.01,2013-07-28 11:24:00,
2013-07-28 07:25:00,52.4,47.2,29.89,West,269,9.0,9.0,82,0.00,,,0.00,99.94,VWS V14.01,2013-07-28 11:25:00,
2013-07-28 07:26:00,52.3,47.1,29.88,West,266,9.5,9.7,82,0.00,,,0.00,100.67,VWS V14.01,2013-07-28 11:26:00,
2013-07-28 07:27:00,52.3,47.2,29.89,West,274,7.3,7.5,83,0.00,,,0.00,103.30,VWS V14.01,2013-07-28 11:27:00,
2013-07-28 07:28:00,52.3,47.2,29.88,West,263,9.3,9.3,83,0.00,,,0.00,106.65,VWS V14.01,2013-07-28 11:28:00,
2013-07-28 07:29:00,52.5,46.9,29.89,WSW,257,6.3,9.3,81,0.00,,,0.00,110.32,VWS V14.01,2013-07-28 11:29:00,
2013-07-28 07:30:00,52.4,46.8,29.89,West,260,8.7,9.2,81,0.00,,,0.00,111.90,VWS V14.01,2013-07-28 11:30:00,
2013-07-28 07:31:00,52.4,46.8,29.89,West,260,8.7,9.2,81,0.00,,,0.00,111.90,VWS V14.01,2013-07-28 11:31:00,
2013-07-28 07:32:00,52.5,47.2,29.88,West,266,8.3,8.3,82,0.00,,,0.00,114.59,VWS V14.01,2013-07-28 11:32:00,
2013-07-28 07:33:00,52.8,47.2,29.88,SW,234,6.4,8.3,81,0.00,,,0.00,117.28,VWS V14.01,2013-07-28 11:33:00,
2013-07-28 07:34:00,52.8,47.2,29.88,SW,234,6.4,8.3,81,0.00,,,0.00,117.28,VWS V14.01,2013-07-28 11:34:00,
2013-07-28 07:35:00,52.6,46.6,29.87,West,265,7.1,8.5,80,0.00,,,0.00,121.49,VWS V14.01,2013-07-28 11:35:00,
2013-07-28 07:36:00,52.4,46.3,29.87,West,261,9.3,9.9,80,0.00,,,0.00,121.92,VWS V14.01,2013-07-28 11:36:00,
2013-07-28 07:37:00,52.7,47.0,29.88,WSW,257,6.8,9.3,81,0.00,,,0.00,124.18,VWS V14.01,2013-07-28 11:37:00,
2013-07-28 07:38:00,53.0,47.1,29.89,SW,236,7.8,8.7,80,0.00,,,0.00,126.80,VWS V14.01,2013-07-28 11:38:00,
2013-07-28 07:39:00,52.6,46.7,29.89,WSW,250,8.5,8.5,80,0.00,,,0.00,127.29,VWS V14.01,2013-07-28 11:39:00,
2013-07-28 07:40:00,52.6,46.5,29.87,WSW,257,6.3,10.0,80,0.00,,,0.00,129.24,VWS V14.01,2013-07-28 11:40:00,
2013-07-28 07:41:00,53.0,46.6,29.87,WSW,249,9.5,9.5,79,0.00,,,0.00,129.73,VWS V14.01,2013-07-28 11:41:00,
2013-07-28 07:42:00,52.7,46.2,29.87,WSW,251,9.2,9.5,78,0.00,,,0.00,131.69,VWS V14.01,2013-07-28 11:42:00,
2013-07-28 07:43:00,52.7,46.2,29.89,West,260,9.3,9.3,79,0.00,,,0.00,133.58,VWS V14.01,2013-07-28 11:43:00,
2013-07-28 07:44:00,52.8,44.4,29.88,WSW,250,7.1,9.3,73,0.00,,,0.00,136.08,VWS V14.01,2013-07-28 11:44:00,
2013-07-28 07:45:00,52.8,46.0,29.89,West,261,9.0,12.1,77,0.00,,,0.00,139.38,VWS V14.01,2013-07-28 11:45:00,
2013-07-28 07:46:00,53.0,43.8,29.88,West,265,9.7,9.7,71,0.00,,,0.00,141.45,VWS V14.01,2013-07-28 11:46:00,
2013-07-28 07:47:00,53.2,46.5,29.89,WSW,240,8.8,9.7,78,0.00,,,0.00,143.90,VWS V14.01,2013-07-28 11:47:00,
2013-07-28 07:48:00,53.5,47.0,29.89,WSW,242,7.8,8.8,78,0.00,,,0.00,144.14,VWS V14.01,2013-07-28 11:48:00,
2013-07-28 07:49:00,53.5,45.6,29.88,WSW,248,5.1,8.7,74,0.00,,,0.00,147.07,VWS V14.01,2013-07-28 11:49:00,
2013-07-28 07:50:00,53.2,46.7,29.89,SW,234,8.7,8.7,78,0.00,,,0.00,148.78,VWS V14.01,2013-07-28 11:50:00,
2013-07-28 07:51:00,54.1,47.3,29.88,WSW,242,5.6,10.9,78,0.00,,,0.00,156.72,VWS V14.01,2013-07-28 11:51:00,
2013-07-28 07:52:00,54.1,47.3,29.88,WSW,242,5.6,10.9,78,0.00,,,0.00,156.72,VWS V14.01,2013-07-28 11:52:00,
2013-07-28 07:53:00,54.1,46.7,29.88,SW,235,9.2,9.7,76,0.00,,,0.00,160.99,VWS V14.01,2013-07-28 11:53:00,
2013-07-28 07:54:00,54.3,46.7,29.88,WSW,244,6.8,9.2,76,0.00,,,0.00,163.13,VWS V14.01,2013-07-28 11:54:00,
2013-07-28 07:55:00,55.0,48.0,29.88,WSW,251,5.6,7.1,77,0.00,,,0.00,168.38,VWS V14.01,2013-07-28 11:55:00,
2013-07-28 07:56:00,53.9,46.5,29.89,WSW,245,9.0,9.0,76,0.00,,,0.00,170.51,VWS V14.01,2013-07-28 11:56:00,
2013-07-28 07:57:00,54.2,46.9,29.88,WSW,255,7.5,8.0,76,0.00,,,0.00,176.50,VWS V14.01,2013-07-28 11:57:00,
2013-07-28 07:58:00,55.0,47.5,29.89,SW,223,4.9,7.5,76,0.00,,,0.00,156.11,VWS V14.01,2013-07-28 11:58:00,
2013-07-28 07:59:00,55.0,47.7,29.89,SW,227,7.8,7.8,76,0.00,,,0.00,153.97,VWS V14.01,2013-07-28 11:59:00,
2013-07-28 08:00:00,53.8,46.3,29.89,WSW,241,6.1,7.8,76,0.00,,,0.00,103.54,VWS V14.01,2013-07-28 12:00:00,
2013-07-28 08:01:00,53.5,46.2,29.87,SW,218,8.7,8.7,76,0.00,,,0.00,73.69,VWS V14.01,2013-07-28 12:01:00,
2013-07-28 08:02:00,53.2,46.0,29.89,SW,229,6.6,8.7,76,0.00,,,0.00,55.74,VWS V14.01,2013-07-28 12:02:00,
2013-07-28 08:03:00,53.0,45.9,29.88,SW,234,9.9,11.1,77,0.00,,,0.00,45.91,VWS V14.01,2013-07-28 12:03:00,
2013-07-28 08:04:00,52.7,45.9,29.88,WSW,246,8.7,9.9,78,0.00,,,0.00,47.13,VWS V14.01,2013-07-28 12:04:00,
2013-07-28 08:05:00,53.6,47.5,29.88,WSW,246,6.6,7.6,80,0.00,,,0.00,143.90,VWS V14.01,2013-07-28 12:05:00,
2013-07-28 08:06:00,53.6,47.5,29.88,WSW,246,6.6,7.6,80,0.00,,,0.00,143.90,VWS V14.01,2013-07-28 12:06:00,
2013-07-28 08:07:00,55.8,49.5,29.88,SW,235,5.1,7.5,79,0.00,,,0.00,200.06,VWS V14.01,2013-07-28 12:07:00,
2013-07-28 08:08:00,55.4,48.2,29.89,WSW,241,8.0,8.0,77,0.00,,,0.00,200.98,VWS V14.01,2013-07-28 12:08:00,
2013-07-28 08:09:00,56.0,47.8,29.88,WSW,249,8.5,8.5,74,0.00,,,0.00,202.75,VWS V14.01,2013-07-28 12:09:00,
2013-07-28 08:10:00,55.7,47.9,29.89,SW,227,6.1,8.5,75,0.00,,,0.00,204.70,VWS V14.01,2013-07-28 12:10:00,
2013-07-28 08:11:00,56.6,49.0,29.89,WSW,239,5.4,8.8,76,0.00,,,0.00,209.34,VWS V14.01,2013-07-28 12:11:00,
2013-07-28 08:12:00,55.5,46.1,29.88,SW,232,10.9,10.9,71,0.00,,,0.00,214.41,VWS V14.01,2013-07-28 12:12:00,
2013-07-28 08:13:00,55.5,46.0,29.88,WSW,241,7.3,10.9,70,0.00,,,0.00,219.72,VWS V14.01,2013-07-28 12:13:00,
2013-07-28 08:14:00,55.1,46.3,29.89,West,261,7.1,7.1,72,0.00,,,0.00,227.41,VWS V14.01,2013-07-28 12:14:00,
2013-07-28 08:15:00,56.1,47.8,29.89,WSW,237,6.8,6.8,74,0.00,,,0.00,249.21,VWS V14.01,2013-07-28 12:15:00,
2013-07-28 08:16:00,54.5,46.6,29.89,WSW,255,7.6,7.6,75,0.00,,,0.00,245.12,VWS V14.01,2013-07-28 12:16:00,
2013-07-28 08:17:00,55.6,46.9,29.90,SW,234,7.8,8.3,72,0.00,,,0.00,233.82,VWS V14.01,2013-07-28 12:17:00,
2013-07-28 08:18:00,54.9,45.7,29.89,WSW,245,12.3,12.3,71,0.00,,,0.00,263.55,VWS V14.01,2013-07-28 12:18:00,
2013-07-28 08:19:00,55.6,45.3,29.89,SW,231,10.5,12.3,68,0.00,,,0.00,263.49,VWS V14.01,2013-07-28 12:19:00,
2013-07-28 08:20:00,56.7,48.2,29.88,SW,216,7.5,9.2,73,0.00,,,0.00,265.87,VWS V14.01,2013-07-28 12:20:00,
2013-07-28 08:21:00,56.9,48.0,29.89,SW,221,5.9,9.2,72,0.00,,,0.00,250.73,VWS V14.01,2013-07-28 12:21:00,
2013-07-28 08:22:00,55.2,45.3,29.89,WSW,239,9.7,9.7,69,0.00,,,0.00,189.80,VWS V14.01,2013-07-28 12:22:00,
2013-07-28 08:23:00,54.8,45.8,29.89,West,264,9.2,9.2,72,0.00,,,0.00,176.25,VWS V14.01,2013-07-28 12:23:00,
2013-07-28 08:24:00,54.8,45.8,29.89,West,264,9.2,9.2,72,0.00,,,0.00,176.25,VWS V14.01,2013-07-28 12:24:00,
2013-07-28 08:25:00,55.1,46.8,29.89,WSW,241,6.8,11.7,73,0.00,,,0.00,170.45,VWS V14.01,2013-07-28 12:25:00,
2013-07-28 08:26:00,54.9,46.3,29.89,WSW,246,8.3,8.3,73,0.00,,,0.00,177.29,VWS V14.01,2013-07-28 12:26:00,
2013-07-28 08:27:00,54.9,46.6,29.91,WSW,248,8.3,12.1,74,0.00,,,0.00,168.32,VWS V14.01,2013-07-28 12:27:00,
2013-07-28 08:28:00,54.2,45.1,29.88,WSW,248,14.6,14.6,71,0.00,,,0.00,167.46,VWS V14.01,2013-07-28 12:28:00,
2013-07-28 08:29:00,54.0,45.1,29.88,WSW,254,8.8,14.6,72,0.00,,,0.00,170.76,VWS V14.01,2013-07-28 12:29:00,
2013-07-28 08:30:00,54.8,46.8,29.88,WSW,253,7.6,9.2,75,0.00,,,0.00,192.74,VWS V14.01,2013-07-28 12:30:00,
2013-07-28 08:31:00,54.3,45.6,29.89,West,281,9.7,9.7,72,0.00,,,0.00,208.12,VWS V14.01,2013-07-28 12:31:00,
2013-07-28 08:32:00,55.0,46.3,29.92,WSW,241,8.1,9.7,72,0.00,,,0.00,231.50,VWS V14.01,2013-07-28 12:32:00,
2013-07-28 08:33:00,55.5,47.7,29.89,WSW,239,5.4,8.1,75,0.00,,,0.00,217.16,VWS V14.01,2013-07-28 12:33:00,
2013-07-28 08:34:00,55.2,46.4,29.89,SW,236,8.8,14.0,72,0.00,,,0.00,203.11,VWS V14.01,2013-07-28 12:34:00,
2013-07-28 08:35:00,56.0,47.4,29.90,SW,222,7.6,8.8,73,0.00,,,0.00,225.70,VWS V14.01,2013-07-28 12:35:00,
2013-07-28 08:36:00,54.6,44.7,29.90,WSW,258,10.9,10.9,69,0.00,,,0.00,249.51,VWS V14.01,2013-07-28 12:36:00,
2013-07-28 08:37:00,55.6,46.6,29.89,SW,221,10.7,10.9,71,0.00,,,0.00,253.48,VWS V14.01,2013-07-28 12:37:00,
2013-07-28 08:38:00,55.1,45.7,29.89,WSW,251,10.0,10.7,71,0.00,,,0.00,319.17,VWS V14.01,2013-07-28 12:38:00,
2013-07-28 08:39:00,55.4,45.5,29.89,WSW,258,10.2,10.2,69,0.00,,,0.00,339.26,VWS V14.01,2013-07-28 12:39:00,
2013-07-28 08:40:00,55.5,46.1,29.89,SW,224,6.9,10.2,71,0.00,,,0.00,280.65,VWS V14.01,2013-07-28 12:40:00,
2013-07-28 08:41:00,57.5,48.5,29.89,WSW,258,6.9,10.2,72,0.00,,,0.00,383.46,VWS V14.01,2013-07-28 12:41:00,
2013-07-28 08:42:00,57.4,46.9,29.88,SW,220,10.0,10.5,68,0.00,,,0.00,400.31,VWS V14.01,2013-07-28 12:42:00,
2013-07-28 08:43:00,56.9,45.7,29.88,WSW,240,9.7,11.9,66,0.00,,,0.00,346.83,VWS V14.01,2013-07-28 12:43:00,
2013-07-28 08:44:00,57.3,46.6,29.88,WSW,238,9.0,9.7,67,0.00,,,0.00,334.43,VWS V14.01,2013-07-28 12:44:00,
2013-07-28 08:45:00,56.5,45.0,29.87,WSW,238,9.0,9.0,65,0.00,,,0.00,263.25,VWS V14.01,2013-07-28 12:45:00,
2013-07-28 08:46:00,55.8,45.0,29.87,West,260,7.6,9.0,67,0.00,,,0.00,253.79,VWS V14.01,2013-07-28 12:46:00,
2013-07-28 08:47:00,55.6,45.0,29.88,West,271,9.2,9.7,67,0.00,,,0.00,278.21,VWS V14.01,2013-07-28 12:47:00,
2013-07-28 08:48:00,55.8,45.5,29.88,WSW,250,9.3,9.3,68,0.00,,,0.00,341.21,VWS V14.01,2013-07-28 12:48:00,
2013-07-28 08:49:00,56.6,46.6,29.87,WSW,242,8.7,9.3,69,0.00,,,0.00,322.16,VWS V14.01,2013-07-28 12:49:00,
2013-07-28 08:50:00,56.1,44.4,29.89,SW,224,10.5,10.5,65,0.00,,,0.00,248.90,VWS V14.01,2013-07-28 12:50:00,
2013-07-28 08:51:00,56.5,45.0,29.88,WSW,249,10.4,10.5,65,0.00,,,0.00,471.67,VWS V14.01,2013-07-28 12:51:00,
2013-07-28 08:52:00,56.1,44.4,29.88,SW,228,9.0,10.4,65,0.00,,,0.00,244.02,VWS V14.01,2013-07-28 12:52:00,
2013-07-28 08:53:00,56.1,44.4,29.88,SW,228,9.0,10.4,65,0.00,,,0.00,244.02,VWS V14.01,2013-07-28 12:53:00,
2013-07-28 08:54:00,57.9,46.1,29.88,SW,230,9.0,10.2,65,0.00,,,0.00,454.64,VWS V14.01,2013-07-28 12:54:00,
2013-07-28 08:55:00,57.3,46.4,29.89,West,265,6.3,9.0,67,0.00,,,0.00,290.35,VWS V14.01,2013-07-28 12:55:00,
2013-07-28 08:56:00,56.7,44.1,29.89,WSW,237,9.7,10.4,63,0.00,,,0.00,277.96,VWS V14.01,2013-07-28 12:56:00,
2013-07-28 08:57:00,56.7,44.0,29.88,SW,236,8.8,9.7,62,0.00,,,0.00,232.05,VWS V14.01,2013-07-28 12:57:00,
2013-07-28 08:58:00,56.2,43.8,29.88,WSW,250,10.5,10.5,63,0.00,,,0.00,226.68,VWS V14.01,2013-07-28 12:58:00,
2013-07-28 08:59:00,56.6,43.7,29.88,West,272,8.7,9.0,62,0.00,,,0.00,334.13,VWS V14.01,2013-07-28 12:59:00,
2013-07-28 09:00:00,57.4,46.8,29.92,WSW,244,6.6,7.6,68,0.00,,,0.00,352.93,VWS V14.01,2013-07-28 13:00:00,
2013-07-28 09:01:00,59.2,46.7,29.89,SW,231,8.7,8.7,63,0.00,,,0.00,549.27,VWS V14.01,2013-07-28 13:01:00,
2013-07-28 09:02:00,57.0,41.8,29.87,SW,229,7.6,8.3,57,0.00,,,0.00,251.34,VWS V14.01,2013-07-28 13:02:00,
2013-07-28 09:03:00,58.1,44.0,29.87,SW,233,11.6,11.6,59,0.00,,,0.00,407.63,VWS V14.01,2013-07-28 13:03:00,
2013-07-28 09:04:00,56.5,40.6,29.87,WSW,240,11.9,11.9,55,0.00,,,0.00,265.08,VWS V14.01,2013-07-28 13:04:00,
2013-07-28 09:05:00,56.5,40.6,29.87,WSW,240,11.9,11.9,55,0.00,,,0.00,265.08,VWS V14.01,2013-07-28 13:05:00,
2013-07-28 09:06:00,56.9,41.2,29.88,West,259,9.2,9.2,56,0.00,,,0.00,360.01,VWS V14.01,2013-07-28 13:06:00,
2013-07-28 09:07:00,58.0,41.8,29.88,SW,234,11.4,11.4,55,0.00,,,0.00,517.70,VWS V14.01,2013-07-28 13:07:00,
2013-07-28 09:08:00,59.8,46.7,29.90,WSW,237,5.7,11.4,62,0.00,,,0.00,540.11,VWS V14.01,2013-07-28 13:08:00,
2013-07-28 09:09:00,57.5,40.8,29.88,WSW,254,9.2,12.4,54,0.00,,,0.00,306.29,VWS V14.01,2013-07-28 13:09:00,
2013-07-28 09:10:00,58.0,44.1,29.88,WSW,244,5.9,9.5,60,0.00,,,0.00,358.18,VWS V14.01,2013-07-28 13:10:00,
2013-07-28 09:11:00,57.5,40.5,29.88,WSW,245,12.9,12.9,53,0.00,,,0.00,536.57,VWS V14.01,2013-07-28 13:11:00,
2013-07-28 09:12:00,57.7,41.8,29.89,WSW,249,9.2,12.9,55,0.00,,,0.00,319.72,VWS V14.01,2013-07-28 13:12:00,
2013-07-28 09:13:00,57.0,40.0,29.88,WSW,250,8.3,9.2,53,0.00,,,0.00,298.72,VWS V14.01,2013-07-28 13:13:00,
2013-07-28 09:14:00,57.0,40.0,29.88,WSW,250,8.3,9.2,53,0.00,,,0.00,298.72,VWS V14.01,2013-07-28 13:14:00,
2013-07-28 09:15:00,57.8,43.0,29.88,West,277,11.1,11.1,58,0.00,,,0.00,502.63,VWS V14.01,2013-07-28 13:15:00,
2013-07-28 09:16:00,57.6,42.4,29.88,West,277,10.2,11.1,57,0.00,,,0.00,508.36,VWS V14.01,2013-07-28 13:16:00,
2013-07-28 09:17:00,58.2,43.5,29.91,WSW,251,7.8,10.2,58,0.00,,,0.00,344.14,VWS V14.01,2013-07-28 13:17:00,
2013-07-28 09:18:00,58.1,43.2,29.88,West,275,6.8,9.9,58,0.00,,,0.00,320.02,VWS V14.01,2013-07-28 13:18:00,
2013-07-28 09:19:00,56.5,37.2,29.88,West,274,11.6,11.6,48,0.00,,,0.00,361.84,VWS V14.01,2013-07-28 13:19:00,
2013-07-28 09:20:00,57.0,41.0,29.89,WSW,245,8.8,11.6,55,0.00,,,0.00,275.76,VWS V14.01,2013-07-28 13:20:00,
2013-07-28 09:21:00,57.0,42.0,29.89,WSW,254,7.5,8.8,57,0.00,,,0.00,280.89,VWS V14.01,2013-07-28 13:21:00,
2013-07-28 09:22:00,57.2,41.4,29.88,WSW,249,10.2,10.2,55,0.00,,,0.00,261.11,VWS V14.01,2013-07-28 13:22:00,
2013-07-28 09:23:00,56.6,40.5,29.88,WSW,256,10.9,10.9,55,0.00,,,0.00,258.67,VWS V14.01,2013-07-28 13:23:00,
2013-07-28 09:24:00,56.7,41.0,29.88,SW,220,14.0,14.0,56,0.00,,,0.00,209.83,VWS V14.01,2013-07-28 13:24:00,
2013-07-28 09:25:00,56.5,41.8,29.88,WSW,251,10.5,14.0,58,0.00,,,0.00,200.67,VWS V14.01,2013-07-28 13:25:00,
2013-07-28 09:26:00,56.0,40.7,29.87,WSW,252,10.4,10.5,56,0.00,,,0.00,193.47,VWS V14.01,2013-07-28 13:26:00,
2013-07-28 09:27:00,56.3,41.2,29.87,WSW,239,12.3,12.3,57,0.00,,,0.00,191.45,VWS V14.01,2013-07-28 13:27:00,
2013-07-28 09:28:00,55.8,40.5,29.88,WSW,243,11.9,14.3,56,0.00,,,0.00,180.52,VWS V14.01,2013-07-28 13:28:00,
2013-07-28 09:29:00,55.9,40.8,29.88,WSW,246,10.9,11.9,57,0.00,,,0.00,178.33,VWS V14.01,2013-07-28 13:29:00,
2013-07-28 09:30:00,55.8,40.4,29.88,WSW,250,14.1,14.1,56,0.00,,,0.00,178.08,VWS V14.01,2013-07-28 13:30:00,
2013-07-28 09:31:00,55.7,40.6,29.88,WSW,250,11.2,14.1,57,0.00,,,0.00,175.34,VWS V14.01,2013-07-28 13:31:00,
2013-07-28 09:32:00,55.7,40.5,29.89,WSW,241,13.1,13.1,57,0.00,,,0.00,175.34,VWS V14.01,2013-07-28 13:32:00,
2013-07-28 09:33:00,55.4,41.0,29.88,West,265,10.0,14.6,58,0.00,,,0.00,178.02,VWS V14.01,2013-07-28 13:33:00,
2013-07-28 09:34:00,55.6,40.7,29.88,WSW,257,13.4,13.4,57,0.00,,,0.00,183.88,VWS V14.01,2013-07-28 13:34:00,
2013-07-28 09:35:00,55.5,41.6,29.89,West,275,10.7,13.4,59,0.00,,,0.00,185.41,VWS V14.01,2013-07-28 13:35:00,
2013-07-28 09:36:00,55.4,41.9,29.88,West,270,9.2,10.7,60,0.00,,,0.00,188.40,VWS V14.01,2013-07-28 13:36:00,
2013-07-28 09:37:00,55.8,41.9,29.88,WSW,243,10.2,10.2,59,0.00,,,0.00,189.99,VWS V14.01,2013-07-28 13:37:00,
2013-07-28 09:38:00,55.5,41.0,29.88,West,268,10.5,13.5,58,0.00,,,0.00,191.64,VWS V14.01,2013-07-28 13:38:00,
2013-07-28 09:39:00,55.9,43.0,29.88,SW,231,7.5,9.2,62,0.00,,,0.00,192.74,VWS V14.01,2013-07-28 13:39:00,
2013-07-28 09:40:00,55.9,43.2,29.88,SW,216,9.2,9.2,62,0.00,,,0.00,195.54,VWS V14.01,2013-07-28 13:40:00,
2013-07-28 09:41:00,56.1,44.2,29.87,WSW,239,7.1,9.2,64,0.00,,,0.00,196.58,VWS V14.01,2013-07-28 13:41:00,
2013-07-28 09:42:00,56.0,43.9,29.91,WSW,237,7.5,7.8,64,0.00,,,0.00,200.31,VWS V14.01,2013-07-28 13:42:00,
2013-07-28 09:43:00,55.9,44.1,29.89,WSW,258,7.5,7.5,64,0.00,,,0.00,202.01,VWS V14.01,2013-07-28 13:43:00,
2013-07-28 09:44:00,55.7,42.7,29.88,WSW,247,13.6,13.6,61,0.00,,,0.00,201.59,VWS V14.01,2013-07-28 13:44:00,
2013-07-28 09:45:00,55.5,41.2,29.89,WSW,240,11.4,13.3,59,0.00,,,0.00,210.50,VWS V14.01,2013-07-28 13:45:00,
2013-07-28 09:46:00,55.6,42.5,29.89,WSW,241,11.1,12.1,61,0.00,,,0.00,212.45,VWS V14.01,2013-07-28 13:46:00,
2013-07-28 09:47:00,55.7,43.1,29.89,SW,230,8.3,11.1,63,0.00,,,0.00,214.71,VWS V14.01,2013-07-28 13:47:00,
2013-07-28 09:48:00,55.6,40.7,29.89,WSW,247,11.9,11.9,57,0.00,,,0.00,216.85,VWS V14.01,2013-07-28 13:48:00,
2013-07-28 09:49:00,55.8,43.8,29.89,WSW,255,6.6,8.5,64,0.00,,,0.00,219.29,VWS V14.01,2013-07-28 13:49:00,
2013-07-28 09:50:00,55.7,40.4,29.88,WSW,245,12.3,12.3,56,0.00,,,0.00,219.90,VWS V14.01,2013-07-28 13:50:00,
2013-07-28 09:51:00,55.9,43.1,29.89,WSW,244,7.8,12.3,62,0.00,,,0.00,216.85,VWS V14.01,2013-07-28 13:51:00,
2013-07-28 09:52:00,55.6,42.6,29.89,West,259,12.6,12.6,61,0.00,,,0.00,215.93,VWS V14.01,2013-07-28 13:52:00,
2013-07-28 09:53:00,55.2,42.3,29.89,West,268,11.7,12.6,62,0.00,,,0.00,214.96,VWS V14.01,2013-07-28 13:53:00,
2013-07-28 09:54:00,55.2,42.3,29.89,West,268,11.7,12.6,62,0.00,,,0.00,214.96,VWS V14.01,2013-07-28 13:54:00,
2013-07-28 09:55:00,55.7,43.8,29.89,WSW,251,8.0,11.7,64,0.00,,,0.00,222.04,VWS V14.01,2013-07-28 13:55:00,
2013-07-28 09:56:00,55.7,43.8,29.89,WSW,251,8.0,11.7,64,0.00,,,0.00,222.04,VWS V14.01,2013-07-28 13:56:00,
2013-07-28 09:57:00,55.9,43.6,29.89,West,277,7.3,7.8,63,0.00,,,0.00,227.41,VWS V14.01,2013-07-28 13:57:00,
2013-07-28 09:58:00,56.4,44.9,29.90,WSW,243,7.8,8.1,65,0.00,,,0.00,234.55,VWS V14.01,2013-07-28 13:58:00,
2013-07-28 09:59:00,56.0,41.2,29.89,WSW,254,8.5,8.5,58,0.00,,,0.00,237.61,VWS V14.01,2013-07-28 13:59:00,
2013-07-28 10:00:00,56.2,43.2,29.89,WSW,239,14.3,14.3,62,0.00,,,0.00,241.58,VWS V14.01,2013-07-28 14:00:00,
2013-07-28 10:01:00,55.8,43.1,29.89,WSW,250,11.2,11.2,62,0.00,,,0.00,251.34,VWS V14.01,2013-07-28 14:01:00,
2013-07-28 10:02:00,56.5,43.3,29.89,West,281,6.9,11.2,61,0.00,,,0.00,256.47,VWS V14.01,2013-07-28 14:02:00,
2013-07-28 10:03:00,56.5,44.6,29.89,SW,234,7.6,8.3,64,0.00,,,0.00,273.26,VWS V14.01,2013-07-28 14:03:00,
2013-07-28 10:04:00,56.4,44.0,29.89,SW,222,9.3,9.3,63,0.00,,,0.00,281.81,VWS V14.01,2013-07-28 14:04:00,
2013-07-28 10:05:00,56.6,43.9,29.89,SW,227,8.5,9.3,62,0.00,,,0.00,300.67,VWS V14.01,2013-07-28 14:05:00,
2013-07-28 10:06:00,57.2,46.0,29.89,WSW,256,4.7,8.5,66,0.00,,,0.00,314.04,VWS V14.01,2013-07-28 14:06:00,
2013-07-28 10:07:00,56.8,42.8,29.88,WSW,248,8.8,9.5,59,0.00,,,0.00,317.58,VWS V14.01,2013-07-28 14:07:00,
2013-07-28 10:08:00,56.8,42.8,29.88,WSW,248,8.8,9.5,59,0.00,,,0.00,317.58,VWS V14.01,2013-07-28 14:08:00,
2013-07-28 10:09:00,57.0,43.6,29.89,SW,234,8.5,9.5,61,0.00,,,0.00,294.02,VWS V14.01,2013-07-28 14:09:00,
2013-07-28 10:10:00,56.3,42.5,29.89,West,270,10.5,10.5,60,0.00,,,0.00,290.42,VWS V14.01,2013-07-28 14:10:00,
2013-07-28 10:11:00,56.1,44.2,29.89,West,267,5.7,8.1,64,0.00,,,0.00,283.33,VWS V14.01,2013-07-28 14:11:00,
2013-07-28 10:12:00,56.1,44.2,29.89,West,267,5.7,8.1,64,0.00,,,0.00,283.33,VWS V14.01,2013-07-28 14:12:00,
2013-07-28 10:13:00,57.3,43.4,29.88,SW,230,11.2,11.2,60,0.00,,,0.00,265.99,VWS V14.01,2013-07-28 14:13:00,
2013-07-28 10:14:00,56.8,43.1,29.88,WSW,243,8.0,11.2,60,0.00,,,0.00,265.87,VWS V14.01,2013-07-28 14:14:00,
2013-07-28 10:15:00,57.0,43.3,29.88,WSW,239,10.0,10.0,60,0.00,,,0.00,266.30,VWS V14.01,2013-07-28 14:15:00,
2013-07-28 10:16:00,56.4,41.8,29.88,WSW,239,12.6,12.6,58,0.00,,,0.00,275.15,VWS V14.01,2013-07-28 14:16:00,
2013-07-28 10:17:00,56.9,42.7,29.88,WSW,248,12.4,12.6,59,0.00,,,0.00,275.76,VWS V14.01,2013-07-28 14:17:00,
2013-07-28 10:18:00,56.4,41.8,29.89,West,261,11.7,11.7,58,0.00,,,0.00,288.46,VWS V14.01,2013-07-28 14:18:00,
2013-07-28 10:19:00,56.9,43.5,29.89,WSW,245,11.4,11.7,61,0.00,,,0.00,287.91,VWS V14.01,2013-07-28 14:19:00,
2013-07-28 10:20:00,57.0,42.6,29.89,SW,233,11.4,11.4,58,0.00,,,0.00,288.58,VWS V14.01,2013-07-28 14:20:00,
2013-07-28 10:21:00,57.0,43.7,29.88,WSW,258,10.0,13.3,61,0.00,,,0.00,287.97,VWS V14.01,2013-07-28 14:21:00,
2013-07-28 10:22:00,57.0,43.7,29.88,WSW,258,10.0,13.3,61,0.00,,,0.00,287.97,VWS V14.01,2013-07-28 14:22:00,
2013-07-28 10:23:00,56.7,42.1,29.89,West,260,10.2,10.2,58,0.00,,,0.00,292.86,VWS V14.01,2013-07-28 14:23:00,
2013-07-28 10:24:00,57.7,44.3,29.88,SW,234,9.0,10.7,61,0.00,,,0.00,296.28,VWS V14.01,2013-07-28 14:24:00,
2013-07-28 10:25:00,56.9,42.8,29.88,West,264,10.4,12.3,59,0.00,,,0.00,292.86,VWS V14.01,2013-07-28 14:25:00,
2013-07-28 10:26:00,56.7,42.3,29.89,WSW,254,9.9,10.4,58,0.00,,,0.00,298.66,VWS V14.01,2013-07-28 14:26:00,
2013-07-28 10:27:00,57.5,42.8,29.89,West,269,8.8,9.9,58,0.00,,,0.00,309.95,VWS V14.01,2013-07-28 14:27:00,
2013-07-28 10:28:00,57.8,44.1,29.88,WSW,240,5.7,8.8,60,0.00,,,0.00,322.89,VWS V14.01,2013-07-28 14:28:00,
2013-07-28 10:29:00,57.1,41.6,29.88,WSW,243,13.3,13.3,56,0.00,,,0.00,385.96,VWS V14.01,2013-07-28 14:29:00,
2013-07-28 10:30:00,57.8,43.1,29.88,West,266,11.1,11.1,58,0.00,,,0.00,444.87,VWS V14.01,2013-07-28 14:30:00,
2013-07-28 10:31:00,57.7,42.0,29.87,WSW,249,9.0,9.0,56,0.00,,,0.00,484.80,VWS V14.01,2013-07-28 14:31:00,
2013-07-28 10:32:00,58.8,44.5,29.87,West,271,9.7,9.7,59,0.00,,,0.00,453.72,VWS V14.01,2013-07-28 14:32:00,
2013-07-28 10:33:00,58.9,45.2,29.88,WSW,255,7.6,9.7,60,0.00,,,0.00,443.47,VWS V14.01,2013-07-28 14:33:00,
2013-07-28 10:34:00,57.7,42.1,29.89,WSW,248,9.7,9.7,56,0.00,,,0.00,422.53,VWS V14.01,2013-07-28 14:34:00,
2013-07-28 10:35:00,57.7,42.0,29.89,WSW,257,8.3,9.7,56,0.00,,,0.00,420.15,VWS V14.01,2013-07-28 14:35:00,
2013-07-28 10:36:00,58.5,43.7,29.89,West,275,8.5,8.5,58,0.00,,,0.00,417.40,VWS V14.01,2013-07-28 14:36:00,
2013-07-28 10:37:00,58.6,42.3,29.89,SW,214,9.3,11.6,55,0.00,,,0.00,390.54,VWS V14.01,2013-07-28 14:37:00,
2013-07-28 10:38:00,58.5,42.0,29.89,WSW,249,11.2,11.2,54,0.00,,,0.00,391.03,VWS V14.01,2013-07-28 14:38:00,
2013-07-28 10:39:00,58.0,40.5,29.89,West,274,13.8,13.8,52,0.00,,,0.00,402.44,VWS V14.01,2013-07-28 14:39:00,
2013-07-28 10:40:00,58.9,43.5,29.89,West,261,8.3,11.6,57,0.00,,,0.00,412.82,VWS V14.01,2013-07-28 14:40:00,
2013-07-28 10:41:00,59.0,43.4,29.89,SW,226,6.4,8.3,56,0.00,,,0.00,410.56,VWS V14.01,2013-07-28 14:41:00,
2013-07-28 10:42:00,58.8,41.4,29.89,WSW,258,11.7,11.7,52,0.00,,,0.00,429.61,VWS V14.01,2013-07-28 14:42:00,
2013-07-28 10:43:00,58.8,42.2,29.88,WSW,255,8.5,11.7,54,0.00,,,0.00,417.83,VWS V14.01,2013-07-28 14:43:00,
2013-07-28 10:44:00,58.4,40.2,29.89,SW,235,13.6,13.6,51,0.00,,,0.00,414.47,VWS V14.01,2013-07-28 14:44:00,
2013-07-28 10:45:00,58.6,41.4,29.88,WSW,255,10.5,14.5,53,0.00,,,0.00,417.77,VWS V14.01,2013-07-28 14:45:00,
2013-07-28 10:46:00,58.1,40.1,29.88,WSW,251,12.9,12.9,51,0.00,,,0.00,412.76,VWS V14.01,2013-07-28 14:46:00,
2013-07-28 10:48:00,58.3,40.3,29.89,West,260,12.1,12.1,51,0.00,,,0.00,400.31,VWS V14.01,2013-07-28 14:48:00,
2013-07-28 10:49:00,58.6,40.7,29.88,West,266,10.9,12.1,51,0.00,,,0.00,402.50,VWS V14.01,2013-07-28 14:49:00,
2013-07-28 10:50:00,58.6,40.8,29.89,West,266,12.4,12.4,51,0.00,,,0.00,403.97,VWS V14.01,2013-07-28 14:50:00,
2013-07-28 10:51:00,59.4,42.6,29.88,WNW,284,10.0,13.1,54,0.00,,,0.00,402.44,VWS V14.01,2013-07-28 14:51:00,
2013-07-28 10:52:00,59.5,42.4,29.87,NW,311,7.6,10.0,53,0.00,,,0.00,390.23,VWS V14.01,2013-07-28 14:52:00,
2013-07-28 10:53:00,59.4,42.2,29.87,West,263,8.5,9.2,53,0.00,,,0.00,387.61,VWS V14.01,2013-07-28 14:53:00,
2013-07-28 10:54:00,59.3,42.1,29.87,West,261,10.9,10.9,53,0.00,,,0.00,383.52,VWS V14.01,2013-07-28 14:54:00,
2013-07-28 10:55:00,59.5,41.9,29.88,WSW,250,10.9,10.9,52,0.00,,,0.00,386.57,VWS V14.01,2013-07-28 14:55:00,
2013-07-28 10:56:00,59.4,40.4,29.88,West,268,13.4,13.4,49,0.00,,,0.00,381.08,VWS V14.01,2013-07-28 14:56:00,
2013-07-28 10:57:00,59.8,42.5,29.88,WSW,257,6.6,13.5,53,0.00,,,0.00,378.33,VWS V14.01,2013-07-28 14:57:00,
2013-07-28 10:58:00,59.6,40.4,29.88,West,263,6.9,6.9,49,0.00,,,0.00,373.75,VWS V14.01,2013-07-28 14:58:00,
2013-07-28 10:59:00,60.2,42.4,29.91,West,270,7.5,10.4,52,0.00,,,0.00,368.19,VWS V14.01,2013-07-28 14:59:00,
2013-07-28 11:00:00,59.5,39.7,29.89,WSW,252,13.4,13.4,48,0.00,,,0.00,381.38,VWS V14.01,2013-07-28 15:00:00,
2013-07-28 11:01:00,59.7,40.0,29.88,WSW,253,0.0,13.5,48,0.00,,,0.00,366.12,VWS V14.01,2013-07-28 15:01:00,
2013-07-28 11:02:00,59.1,37.9,29.88,West,261,9.0,9.2,45,0.00,,,0.00,297.01,VWS V14.01,2013-07-28 15:02:00,
2013-07-28 11:03:00,59.1,39.0,29.88,WSW,256,14.3,14.3,47,0.00,,,0.00,337.79,VWS V14.01,2013-07-28 15:03:00,
2013-07-28 11:04:00,59.0,39.2,29.88,West,259,10.7,14.3,48,0.00,,,0.00,374.42,VWS V14.01,2013-07-28 15:04:00,
2013-07-28 11:05:00,59.1,39.4,29.88,WSW,238,10.2,10.7,48,0.00,,,0.00,350.24,VWS V14.01,2013-07-28 15:05:00,
2013-07-28 11:06:00,59.6,41.3,29.88,WSW,238,9.9,10.2,51,0.00,,,0.00,341.39,VWS V14.01,2013-07-28 15:06:00,
2013-07-28 11:07:00,59.0,38.8,29.87,WNW,282,16.4,16.4,47,0.00,,,0.00,334.37,VWS V14.01,2013-07-28 15:07:00,
2013-07-28 11:08:00,59.7,39.8,29.88,WSW,257,11.7,16.4,48,0.00,,,0.00,617.64,VWS V14.01,2013-07-28 15:08:00,
2013-07-28 11:09:00,59.2,38.7,29.87,West,259,13.1,13.1,46,0.00,,,0.00,334.07,VWS V14.01,2013-07-28 15:09:00,
2013-07-28 11:10:00,59.3,40.3,29.87,West,265,12.9,13.1,49,0.00,,,0.00,366.12,VWS V14.01,2013-07-28 15:10:00,
2013-07-28 11:11:00,60.3,40.8,29.88,WNW,291,14.1,14.1,48,0.00,,,0.00,530.95,VWS V14.01,2013-07-28 15:11:00,
2013-07-28 11:12:00,59.5,38.5,29.89,NW,319,14.0,14.1,46,0.00,,,0.00,374.66,VWS V14.01,2013-07-28 15:12:00,
2013-07-28 11:13:00,60.2,40.3,29.88,WNW,283,10.5,14.0,48,0.00,,,0.00,385.65,VWS V14.01,2013-07-28 15:13:00,
2013-07-28 11:14:00,59.8,39.2,29.88,WNW,298,14.5,14.5,46,0.00,,,0.00,361.23,VWS V14.01,2013-07-28 15:14:00,
2013-07-28 11:15:00,59.4,39.8,29.88,WNW,287,12.6,14.5,48,0.00,,,0.00,373.69,VWS V14.01,2013-07-28 15:15:00,
2013-07-28 11:16:00,59.4,38.5,29.88,WNW,283,15.8,15.8,46,0.00,,,0.00,441.82,VWS V14.01,2013-07-28 15:16:00,
2013-07-28 11:17:00,59.6,38.5,29.89,WNW,290,16.5,16.5,46,0.00,,,0.00,402.75,VWS V14.01,2013-07-28 15:17:00,
2013-07-28 11:19:00,59.6,38.5,29.89,WNW,290,16.5,16.5,46,0.00,,,0.00,402.75,VWS V14.01,2013-07-28 15:19:00,
2013-07-28 11:20:00,61.2,41.8,29.88,NW,305,10.5,14.0,49,0.00,,,0.00,514.47,VWS V14.01,2013-07-28 15:20:00,
2013-07-28 11:21:00,60.7,41.0,29.88,WNW,296,10.7,10.7,48,0.00,,,0.00,359.89,VWS V14.01,2013-07-28 15:21:00,
2013-07-28 11:22:00,60.0,40.1,29.88,WNW,295,10.4,12.1,48,0.00,,,0.00,419.84,VWS V14.01,2013-07-28 15:22:00,
2013-07-28 11:23:00,60.8,39.9,29.88,West,272,14.5,14.5,46,0.00,,,0.00,424.73,VWS V14.01,2013-07-28 15:23:00,
2013-07-28 11:24:00,59.7,37.6,29.88,West,271,18.4,18.4,44,0.00,,,0.00,359.04,VWS V14.01,2013-07-28 15:24:00,
2013-07-28 11:25:00,59.7,38.7,29.88,West,278,12.9,18.4,46,0.00,,,0.00,375.27,VWS V14.01,2013-07-28 15:25:00,
2013-07-28 11:26:00,60.0,39.4,29.88,WSW,247,13.6,13.6,46,0.00,,,0.00,624.97,VWS V14.01,2013-07-28 15:26:00,
2013-07-28 11:27:00,59.9,38.1,29.88,West,273,13.6,14.8,44,0.00,,,0.00,425.34,VWS V14.01,2013-07-28 15:27:00,
2013-07-28 11:28:00,59.9,40.0,29.89,WSW,256,10.9,13.6,48,0.00,,,0.00,471.49,VWS V14.01,2013-07-28 15:28:00,
2013-07-28 11:29:00,60.3,40.3,29.88,WSW,249,12.1,13.1,48,0.00,,,0.00,485.78,VWS V14.01,2013-07-28 15:29:00,
2013-07-28 11:30:00,60.4,39.9,29.88,WSW,252,12.3,12.3,47,0.00,,,0.00,515.08,VWS V14.01,2013-07-28 15:30:00,
2013-07-28 11:31:00,60.9,40.5,29.88,WSW,252,11.4,11.9,47,0.00,,,0.00,378.94,VWS V14.01,2013-07-28 15:31:00,
2013-07-28 11:32:00,61.5,41.6,29.88,WSW,240,7.6,11.9,48,0.00,,,0.00,358.73,VWS V14.01,2013-07-28 15:32:00,
2013-07-28 11:33:00,59.7,37.8,29.87,West,275,13.8,13.8,44,0.00,,,0.00,398.47,VWS V14.01,2013-07-28 15:33:00,
2013-07-28 11:34:00,60.8,39.2,29.88,West,267,16.7,16.7,45,0.00,,,0.00,505.01,VWS V14.01,2013-07-28 15:34:00,
2013-07-28 11:35:00,60.5,39.8,29.87,WSW,250,13.8,16.7,46,0.00,,,0.00,546.46,VWS V14.01,2013-07-28 15:35:00,
2013-07-28 11:36:00,60.2,38.7,29.88,West,267,15.0,15.8,45,0.00,,,0.00,475.76,VWS V14.01,2013-07-28 15:36:00,
2013-07-28 11:37:00,60.0,38.2,29.88,West,261,14.5,15.0,44,0.00,,,0.00,381.38,VWS V14.01,2013-07-28 15:37:00,
2013-07-28 11:38:00,59.8,38.5,29.88,WNW,296,13.8,14.8,45,0.00,,,0.00,429.61,VWS V14.01,2013-07-28 15:38:00,
2013-07-28 11:39:00,59.8,38.5,29.88,WNW,296,13.8,14.8,45,0.00,,,0.00,429.61,VWS V14.01,2013-07-28 15:39:00,
2013-07-28 11:40:00,60.9,39.9,29.88,WSW,255,14.3,16.2,46,0.00,,,0.00,693.04,VWS V14.01,2013-07-28 15:40:00,
2013-07-28 11:41:00,60.6,39.2,29.88,West,259,14.0,15.3,45,0.00,,,0.00,444.26,VWS V14.01,2013-07-28 15:41:00,
2013-07-28 11:42:00,60.5,38.0,29.88,WSW,249,15.8,15.8,43,0.00,,,0.00,559.04,VWS V14.01,2013-07-28 15:42:00,
2013-07-28 11:43:00,61.2,39.8,29.88,West,264,14.8,15.8,45,0.00,,,0.00,1073.08,VWS V14.01,2013-07-28 15:43:00,
2013-07-28 11:44:00,60.7,37.7,29.87,WSW,245,16.4,16.4,42,0.00,,,0.00,592.92,VWS V14.01,2013-07-28 15:44:00,
2013-07-28 11:45:00,60.3,38.6,29.88,West,262,11.2,16.4,44,0.00,,,0.00,570.27,VWS V14.01,2013-07-28 15:45:00,
2013-07-28 11:46:00,61.0,37.9,29.88,SW,233,17.0,17.0,42,0.00,,,0.00,740.60,VWS V14.01,2013-07-28 15:46:00,
2013-07-28 11:47:00,61.3,38.9,29.90,WSW,250,12.9,17.0,43,0.00,,,0.00,593.22,VWS V14.01,2013-07-28 15:47:00,
2013-07-28 11:48:00,62.2,40.4,29.87,West,260,11.1,12.9,45,0.00,,,0.00,649.08,VWS V14.01,2013-07-28 15:48:00,
2013-07-28 11:49:00,61.2,39.9,29.87,SW,217,12.9,12.9,45,0.00,,,0.00,434.25,VWS V14.01,2013-07-28 15:49:00,
2013-07-28 11:50:00,61.2,39.9,29.87,SW,217,12.9,12.9,45,0.00,,,0.00,434.25,VWS V14.01,2013-07-28 15:50:00,
2013-07-28 11:51:00,60.4,36.8,29.86,WSW,244,13.3,13.3,41,0.00,,,0.00,568.80,VWS V14.01,2013-07-28 15:51:00,
2013-07-28 11:52:00,61.1,37.6,29.87,WSW,249,15.3,15.3,42,0.00,,,0.00,529.73,VWS V14.01,2013-07-28 15:52:00,
2013-07-28 11:53:00,60.9,36.6,29.87,WSW,258,15.2,15.3,40,0.00,,,0.00,661.36,VWS V14.01,2013-07-28 15:53:00,
2013-07-28 11:54:00,62.2,40.7,29.88,West,270,11.2,16.9,45,0.00,,,0.00,861.84,VWS V14.01,2013-07-28 15:54:00,
2013-07-28 11:55:00,60.8,35.7,29.87,West,259,16.5,16.5,39,0.00,,,0.00,505.92,VWS V14.01,2013-07-28 15:55:00,
2013-07-28 11:56:00,60.0,35.1,29.87,West,261,17.6,17.6,39,0.00,,,0.00,492.74,VWS V14.01,2013-07-28 15:56:00,
2013-07-28 11:57:00,61.1,39.0,29.87,West,279,9.5,11.2,44,0.00,,,0.00,438.16,VWS V14.01,2013-07-28 15:57:00,
2013-07-28 11:58:00,60.9,35.9,29.87,West,260,14.6,14.6,39,0.00,,,0.00,659.16,VWS V14.01,2013-07-28 15:58:00,
2013-07-28 11:59:00,61.2,40.8,29.88,West,263,9.0,14.6,47,0.00,,,0.00,511.11,VWS V14.01,2013-07-28 15:59:00,
2013-07-28 12:01:00,61.5,40.9,29.87,WSW,256,11.7,11.7,47,0.00,,,0.00,421.98,VWS V14.01,2013-07-28 16:01:00,
2013-07-28 12:02:00,60.9,39.0,29.87,West,270,11.2,17.0,44,0.00,,,0.00,794.63,VWS V14.01,2013-07-28 16:02:00,
2013-07-28 12:03:00,61.8,38.9,29.88,WSW,249,14.8,14.8,43,0.00,,,0.00,1038.28,VWS V14.01,2013-07-28 16:03:00,
2013-07-28 12:04:00,61.2,37.5,29.87,WSW,255,14.0,14.8,41,0.00,,,0.00,756.59,VWS V14.01,2013-07-28 16:04:00,
2013-07-28 12:05:00,62.8,40.4,29.88,West,262,11.4,13.3,44,0.00,,,0.00,974.18,VWS V14.01,2013-07-28 16:05:00,
2013-07-28 12:06:00,61.8,37.5,29.88,WSW,240,14.1,16.9,40,0.00,,,0.00,985.65,VWS V14.01,2013-07-28 16:06:00,
2013-07-28 12:07:00,62.9,40.1,29.87,WSW,244,13.6,14.1,43,0.00,,,0.00,834.92,VWS V14.01,2013-07-28 16:07:00,
2013-07-28 12:08:00,61.3,37.2,29.87,West,259,16.4,16.4,41,0.00,,,0.00,403.66,VWS V14.01,2013-07-28 16:08:00,
2013-07-28 12:09:00,61.1,37.9,29.87,West,266,11.4,16.4,42,0.00,,,0.00,571.00,VWS V14.01,2013-07-28 16:09:00,
2013-07-28 12:10:00,60.8,37.8,29.87,WSW,247,19.1,20.1,42,0.00,,,0.00,1062.33,VWS V14.01,2013-07-28 16:10:00,
2013-07-28 12:11:00,62.3,40.4,29.86,West,276,10.5,19.1,44,0.00,,,0.00,925.09,VWS V14.01,2013-07-28 16:11:00,
2013-07-28 12:12:00,62.2,39.5,29.86,West,270,15.5,15.5,43,0.00,,,0.00,519.17,VWS V14.01,2013-07-28 16:12:00,
2013-07-28 12:13:00,60.6,38.3,29.87,West,265,16.5,18.8,44,0.00,,,0.00,483.33,VWS V14.01,2013-07-28 16:13:00,
2013-07-28 12:14:00,62.5,39.5,29.87,WSW,253,15.3,16.5,43,0.00,,,0.00,673.81,VWS V14.01,2013-07-28 16:14:00,
2013-07-28 12:15:00,61.8,38.7,29.87,West,269,14.5,15.3,42,0.00,,,0.00,834.98,VWS V14.01,2013-07-28 16:15:00,
2013-07-28 12:16:00,61.8,38.7,29.87,West,269,14.5,15.3,42,0.00,,,0.00,834.98,VWS V14.01,2013-07-28 16:16:00,
2013-07-28 12:17:00,63.0,41.9,29.87,WSW,251,10.4,10.9,46,0.00,,,0.00,324.30,VWS V14.01,2013-07-28 16:17:00,
2013-07-28 12:18:00,61.0,38.4,29.87,West,269,15.2,15.2,43,0.00,,,0.00,947.31,VWS V14.01,2013-07-28 16:18:00,
2013-07-28 12:19:00,61.1,38.7,29.86,WSW,256,11.1,15.2,43,0.00,,,0.00,942.43,VWS V14.01,2013-07-28 16:19:00,
2013-07-28 12:20:00,62.3,41.2,29.87,WSW,238,8.3,12.1,46,0.00,,,0.00,887.79,VWS V14.01,2013-07-28 16:20:00,
2013-07-28 12:21:00,63.3,41.6,29.87,WSW,244,12.4,12.4,45,0.00,,,0.00,527.29,VWS V14.01,2013-07-28 16:21:00,
2013-07-28 12:22:00,61.8,40.6,29.86,WSW,243,11.1,12.9,46,0.00,,,0.00,573.20,VWS V14.01,2013-07-28 16:22:00,
2013-07-28 12:23:00,61.3,38.8,29.87,West,280,13.5,17.4,43,0.00,,,0.00,278.21,VWS V14.01,2013-07-28 16:23:00,
2013-07-28 12:24:00,60.2,35.6,29.87,WNW,283,16.9,16.9,40,0.00,,,0.00,278.21,VWS V14.01,2013-07-28 16:24:00,
2013-07-28 12:25:00,60.6,37.5,29.87,WNW,297,16.5,16.9,42,0.00,,,0.00,300.43,VWS V14.01,2013-07-28 16:25:00,
2013-07-28 12:26:00,60.8,37.9,29.87,WSW,258,14.3,14.3,43,0.00,,,0.00,331.62,VWS V14.01,2013-07-28 16:26:00,
2013-07-28 12:27:00,62.7,43.0,29.87,West,278,10.2,14.3,48,0.00,,,0.00,307.51,VWS V14.01,2013-07-28 16:27:00,
2013-07-28 12:28:00,60.9,38.2,29.86,WNW,291,16.0,16.0,43,0.00,,,0.00,351.47,VWS V14.01,2013-07-28 16:28:00,
2013-07-28 12:29:00,61.9,40.3,29.86,WSW,242,17.4,17.4,45,0.00,,,0.00,427.17,VWS V14.01,2013-07-28 16:29:00,
2013-07-28 12:30:00,62.5,41.1,29.87,WSW,258,11.4,17.4,45,0.00,,,0.00,439.32,VWS V14.01,2013-07-28 16:30:00,
2013-07-28 12:31:00,62.0,39.2,29.86,SW,236,15.2,15.2,43,0.00,,,0.00,400.31,VWS V14.01,2013-07-28 16:31:00,
2013-07-28 12:32:00,61.7,40.5,29.87,West,265,10.5,17.7,45,0.00,,,0.00,397.86,VWS V14.01,2013-07-28 16:32:00,
2013-07-28 12:33:00,62.0,39.3,29.86,West,272,14.5,14.5,43,0.00,,,0.00,408.12,VWS V14.01,2013-07-28 16:33:00,
2013-07-28 12:34:00,62.7,41.8,29.86,WNW,291,12.3,14.5,46,0.00,,,0.00,371.00,VWS V14.01,2013-07-28 16:34:00,
2013-07-28 12:35:00,62.2,38.8,29.86,WNW,285,14.3,14.6,42,0.00,,,0.00,379.24,VWS V14.01,2013-07-28 16:35:00,
2013-07-28 12:36:00,62.7,38.1,29.87,WSW,240,10.2,14.3,40,0.00,,,0.00,408.24,VWS V14.01,2013-07-28 16:36:00,
2013-07-28 12:37:00,61.5,38.5,29.87,West,271,12.4,12.6,43,0.00,,,0.00,451.28,VWS V14.01,2013-07-28 16:37:00,
2013-07-28 12:38:00,62.3,39.9,29.87,WSW,250,13.5,13.5,44,0.00,,,0.00,423.26,VWS V14.01,2013-07-28 16:38:00,
2013-07-28 12:39:00,61.3,36.8,29.87,West,281,15.3,15.3,40,0.00,,,0.00,351.47,VWS V14.01,2013-07-28 16:39:00,
2013-07-28 12:40:00,61.9,40.2,29.87,West,269,14.8,14.8,45,0.00,,,0.00,507.75,VWS V14.01,2013-07-28 16:40:00,
2013-07-28 12:41:00,62.3,39.8,29.87,West,266,11.2,15.2,43,0.00,,,0.00,487.97,VWS V14.01,2013-07-28 16:41:00,
2013-07-28 12:42:00,61.5,38.4,29.87,WNW,292,15.2,15.2,42,0.00,,,0.00,493.41,VWS V14.01,2013-07-28 16:42:00,
2013-07-28 12:43:00,61.8,38.7,29.87,West,276,17.7,17.7,42,0.00,,,0.00,525.34,VWS V14.01,2013-07-28 16:43:00,
2013-07-28 12:44:00,61.9,38.0,29.87,WSW,254,17.2,17.7,41,0.00,,,0.00,532.42,VWS V14.01,2013-07-28 16:44:00,
2013-07-28 12:45:00,61.5,37.8,29.87,West,279,14.1,14.1,41,0.00,,,0.00,474.18,VWS V14.01,2013-07-28 16:45:00,
2013-07-28 12:46:00,61.5,37.2,29.86,West,272,19.3,19.3,40,0.00,,,0.00,558.73,VWS V14.01,2013-07-28 16:46:00,
2013-07-28 12:47:00,62.0,38.7,29.86,West,261,14.5,19.3,42,0.00,,,0.00,537.36,VWS V14.01,2013-07-28 16:47:00,
2013-07-28 12:48:00,61.4,37.3,29.86,West,277,12.8,14.1,41,0.00,,,0.00,444.26,VWS V14.01,2013-07-28 16:48:00,
2013-07-28 12:49:00,62.1,38.7,29.87,West,266,15.3,15.3,42,0.00,,,0.00,590.78,VWS V14.01,2013-07-28 16:49:00,
2013-07-28 12:50:00,62.1,38.7,29.87,West,266,15.3,15.3,42,0.00,,,0.00,590.78,VWS V14.01,2013-07-28 16:50:00,
2013-07-28 12:51:00,61.8,38.0,29.87,West,271,17.7,17.7,41,0.00,,,0.00,532.78,VWS V14.01,2013-07-28 16:51:00,
2013-07-28 12:52:00,61.4,37.1,29.87,West,259,17.9,17.9,40,0.00,,,0.00,521.37,VWS V14.01,2013-07-28 16:52:00,
2013-07-28 12:53:00,62.2,39.9,29.87,West,266,12.4,18.4,44,0.00,,,0.00,547.25,VWS V14.01,2013-07-28 16:53:00,
2013-07-28 12:54:00,62.3,39.0,29.87,West,279,15.0,15.3,42,0.00,,,0.00,576.74,VWS V14.01,2013-07-28 16:54:00,
2013-07-28 12:55:00,62.6,39.2,29.88,West,273,16.4,16.4,42,0.00,,,0.00,622.53,VWS V14.01,2013-07-28 16:55:00,
2013-07-28 12:56:00,62.3,36.6,29.89,SW,226,17.4,18.6,38,0.00,,,0.00,640.78,VWS V14.01,2013-07-28 16:56:00,
2013-07-28 12:57:00,62.8,37.8,29.87,SW,235,14.8,17.4,39,0.00,,,0.00,649.39,VWS V14.01,2013-07-28 16:57:00,
2013-07-28 12:58:00,62.7,38.1,29.87,WSW,255,13.8,13.8,40,0.00,,,0.00,484.86,VWS V14.01,2013-07-28 16:58:00,
2013-07-28 12:59:00,62.7,38.1,29.87,WSW,255,13.8,13.8,40,0.00,,,0.00,484.86,VWS V14.01,2013-07-28 16:59:00,
2013-07-28 13:00:00,62.4,37.1,29.86,West,269,16.5,16.5,39,0.00,,,0.00,932.36,VWS V14.01,2013-07-28 17:00:00,
2013-07-28 13:02:00,61.7,36.8,29.89,NW,309,17.0,20.1,39,0.00,,,0.00,473.08,VWS V14.01,2013-07-28 17:02:00,
2013-07-28 13:03:00,62.3,39.2,29.87,West,270,12.3,20.1,42,0.00,,,0.00,476.50,VWS V14.01,2013-07-28 17:03:00,
2013-07-28 13:04:00,62.2,37.9,29.87,West,273,13.5,13.5,41,0.00,,,0.00,469.17,VWS V14.01,2013-07-28 17:04:00,
2013-07-28 13:06:00,62.5,39.3,29.87,WNW,293,12.1,15.2,42,0.00,,,0.00,442.80,VWS V14.01,2013-07-28 17:06:00,
2013-07-28 13:07:00,61.8,37.0,29.88,West,280,16.9,16.9,40,0.00,,,0.00,435.41,VWS V14.01,2013-07-28 17:07:00,
2013-07-28 13:09:00,61.9,37.5,29.88,WNW,289,17.4,17.4,40,0.00,,,0.00,363.68,VWS V14.01,2013-07-28 17:09:00,
2013-07-28 13:10:00,62.2,38.4,29.87,West,280,18.8,18.8,41,0.00,,,0.00,473.57,VWS V14.01,2013-07-28 17:10:00,
2013-07-28 13:12:00,62.9,40.4,29.88,West,270,13.8,13.8,44,0.00,,,0.00,430.46,VWS V14.01,2013-07-28 17:12:00,
2013-07-28 13:14:00,61.7,38.5,29.88,WSW,255,11.2,16.9,42,0.00,,,0.00,487.91,VWS V14.01,2013-07-28 17:14:00,
2013-07-28 13:15:00,62.3,39.5,29.88,SW,236,13.6,13.6,43,0.00,,,0.00,550.85,VWS V14.01,2013-07-28 17:15:00,
2013-07-28 13:18:00,62.3,38.9,29.87,West,267,15.2,15.2,42,0.00,,,0.00,522.10,VWS V14.01,2013-07-28 17:18:00,
2013-07-28 13:19:00,61.7,38.4,29.87,West,261,13.1,20.3,42,0.00,,,0.00,478.75,VWS V14.01,2013-07-28 17:19:00,
2013-07-28 13:20:00,62.1,38.7,29.88,WSW,255,14.8,14.8,42,0.00,,,0.00,494.44,VWS V14.01,2013-07-28 17:20:00,
2013-07-28 13:21:00,63.5,41.4,29.88,West,280,10.2,14.8,44,0.00,,,0.00,433.52,VWS V14.01,2013-07-28 17:21:00,
2013-07-28 13:22:00,61.9,37.6,29.88,West,280,11.9,14.5,40,0.00,,,0.00,479.85,VWS V14.01,2013-07-28 17:22:00,
2013-07-28 13:24:00,62.5,39.4,29.87,West,277,15.7,15.7,42,0.00,,,0.00,492.98,VWS V14.01,2013-07-28 17:24:00,
2013-07-28 13:25:00,62.0,38.2,29.88,West,261,12.8,12.9,41,0.00,,,0.00,500.92,VWS V14.01,2013-07-28 17:25:00,
2013-07-28 13:26:00,62.5,39.7,29.88,West,276,9.5,12.9,43,0.00,,,0.00,486.26,VWS V14.01,2013-07-28 17:26:00,
2013-07-28 13:27:00,62.6,40.0,29.88,West,279,12.1,12.1,43,0.00,,,0.00,444.75,VWS V14.01,2013-07-28 17:27:00,
2013-07-28 13:30:00,62.0,39.5,29.88,West,269,11.9,12.4,43,0.00,,,0.00,350.98,VWS V14.01,2013-07-28 17:30:00,
2013-07-28 13:31:00,61.8,39.5,29.88,West,272,12.8,12.8,44,0.00,,,0.00,357.81,VWS V14.01,2013-07-28 17:31:00,
2013-07-28 13:32:00,62.0,39.4,29.88,WSW,240,18.1,18.1,43,0.00,,,0.00,390.35,VWS V14.01,2013-07-28 17:32:00,
2013-07-28 13:36:00,61.7,38.5,29.90,WNW,288,14.6,14.6,42,0.00,,,0.00,287.97,VWS V14.01,2013-07-28 17:36:00,
2013-07-28 13:37:00,61.7,39.3,29.88,West,270,13.3,13.5,44,0.00,,,0.00,283.33,VWS V14.01,2013-07-28 17:37:00,
2013-07-28 13:38:00,61.7,39.7,29.88,West,280,11.6,13.5,44,0.00,,,0.00,303.79,VWS V14.01,2013-07-28 17:38:00,
2013-07-28 13:39:00,61.7,38.9,29.88,West,277,16.4,16.4,43,0.00,,,0.00,350.00,VWS V14.01,2013-07-28 17:39:00,
2013-07-28 13:42:00,62.2,40.6,29.89,West,264,11.1,14.3,45,0.00,,,0.00,390.54,VWS V14.01,2013-07-28 17:42:00,
2013-07-28 13:43:00,62.2,40.0,29.88,West,269,13.3,13.3,44,0.00,,,0.00,421.00,VWS V14.01,2013-07-28 17:43:00,
2013-07-28 13:45:00,62.2,39.5,29.89,West,273,12.6,14.3,43,0.00,,,0.00,444.26,VWS V14.01,2013-07-28 17:45:00,
2013-07-28 13:47:00,62.4,39.4,29.88,WSW,242,12.9,16.7,43,0.00,,,0.00,385.65,VWS V14.01,2013-07-28 17:47:00,
2013-07-28 13:49:00,62.0,38.5,29.89,WNW,290,15.3,15.3,42,0.00,,,0.00,343.22,VWS V14.01,2013-07-28 17:49:00,
2013-07-28 13:50:00,61.7,37.8,29.88,WNW,285,15.3,17.6,41,0.00,,,0.00,300.06,VWS V14.01,2013-07-28 17:50:00,
2013-07-28 13:51:00,61.8,39.7,29.87,West,272,11.4,15.3,44,0.00,,,0.00,272.28,VWS V14.01,2013-07-28 17:51:00,
2013-07-28 13:52:00,61.6,38.5,29.87,West,276,16.5,16.5,42,0.00,,,0.00,250.79,VWS V14.01,2013-07-28 17:52:00,
2013-07-28 13:54:00,61.5,38.2,29.88,West,279,16.5,16.5,42,0.00,,,0.00,251.95,VWS V14.01,2013-07-28 17:54:00,
2013-07-28 13:55:00,61.6,39.3,29.88,West,262,13.1,16.5,44,0.00,,,0.00,258.67,VWS V14.01,2013-07-28 17:55:00,
2013-07-28 13:56:00,61.5,39.6,29.90,West,271,10.4,15.2,44,0.00,,,0.00,275.70,VWS V14.01,2013-07-28 17:56:00,
2013-07-28 14:00:00,61.4,39.3,29.87,WSW,258,12.4,14.5,44,0.00,,,0.00,277.90,VWS V14.01,2013-07-28 18:00:00,
2013-07-28 14:01:00,63.2,37.3,29.86,West,272,0.0,0.0,38,0.00,,,0.00,932.66,VWS V14.01,2013-07-28 18:01:00,
2013-07-28 14:02:00,61.5,38.8,29.87,WSW,239,13.5,16.0,43,0.00,,,0.00,244.02,VWS V14.01,2013-07-28 18:02:00,
2013-07-28 14:03:00,62.3,39.2,29.87,West,270,12.3,20.1,42,0.00,,,0.00,476.50,VWS V14.01,2013-07-28 18:03:00,
2013-07-28 14:04:00,62.3,38.6,29.87,WNW,294,13.4,14.0,41,0.00,,,0.00,471.25,VWS V14.01,2013-07-28 18:04:00,
2013-07-28 14:05:00,61.4,40.3,29.88,West,280,9.5,16.0,46,0.00,,,0.00,201.28,VWS V14.01,2013-07-28 18:05:00,
2013-07-28 14:06:00,62.5,39.3,29.87,WNW,293,12.1,15.2,42,0.00,,,0.00,442.80,VWS V14.01,2013-07-28 18:06:00,
2013-07-28 14:07:00,61.5,41.7,29.88,West,271,9.2,16.0,48,0.00,,,0.00,184.92,VWS V14.01,2013-07-28 18:07:00,
2013-07-28 14:08:00,61.4,39.6,29.88,West,271,14.1,16.0,45,0.00,,,0.00,165.87,VWS V14.01,2013-07-28 18:08:00,
2013-07-28 14:09:00,61.3,40.2,29.88,West,261,10.4,16.0,46,0.00,,,0.00,145.12,VWS V14.01,2013-07-28 18:09:00,
2013-07-28 14:10:00,61.0,40.7,29.88,West,266,8.8,16.0,47,0.00,,,0.00,124.60,VWS V14.01,2013-07-28 18:10:00,
2013-07-28 14:11:00,61.2,40.0,29.89,WSW,252,10.7,16.0,46,0.00,,,0.00,118.68,VWS V14.01,2013-07-28 18:11:00,
2013-07-28 14:12:00,62.3,38.8,29.87,West,271,13.3,17.0,42,0.00,,,0.00,484.31,VWS V14.01,2013-07-28 18:12:00,
2013-07-28 14:13:00,61.0,39.7,29.89,WSW,243,13.6,16.0,45,0.00,,,0.00,93.83,VWS V14.01,2013-07-28 18:13:00,
2013-07-28 14:14:00,61.7,38.5,29.88,WSW,255,11.2,16.9,42,0.00,,,0.00,487.91,VWS V14.01,2013-07-28 18:14:00,
2013-07-28 14:15:00,60.8,39.2,29.89,West,265,14.1,16.0,45,0.00,,,0.00,81.14,VWS V14.01,2013-07-28 18:15:00,
2013-07-28 14:16:00,60.6,39.6,29.88,WSW,253,16.4,16.4,46,0.00,,,0.00,77.96,VWS V14.01,2013-07-28 18:16:00,
2013-07-28 14:17:00,60.3,40.3,29.88,West,259,11.9,16.4,47,0.00,,,0.00,78.39,VWS V14.01,2013-07-28 18:17:00,
2013-07-28 14:18:00,62.3,38.9,29.87,West,267,15.2,15.2,42,0.00,,,0.00,522.10,VWS V14.01,2013-07-28 18:18:00,
2013-07-28 14:19:00,61.7,38.4,29.87,West,261,13.1,20.3,42,0.00,,,0.00,478.76,VWS V14.01,2013-07-28 18:19:00,
2013-07-28 14:20:00,60.1,40.0,29.88,West,259,13.5,16.4,47,0.00,,,0.00,82.84,VWS V14.01,2013-07-28 18:20:00,
2013-07-28 14:21:00,60.0,42.2,29.89,West,264,9.0,16.4,52,0.00,,,0.00,87.12,VWS V14.01,2013-07-28 18:21:00,
2013-07-28 14:22:00,59.4,42.1,29.89,WNW,285,11.4,16.4,53,0.00,,,0.00,91.82,VWS V14.01,2013-07-28 18:22:00,
2013-07-28 14:23:00,59.6,41.7,29.90,WNW,282,10.2,16.4,51,0.00,,,0.00,94.57,VWS V14.01,2013-07-28 18:23:00,
2013-07-28 14:24:00,59.2,42.1,29.90,West,274,9.0,16.4,53,0.00,,,0.00,95.24,VWS V14.01,2013-07-28 18:24:00,
2013-07-28 14:25:00,62.0,39.1,29.87,West,268,12.9,12.9,43,0.00,,,0.00,492.37,VWS V14.01,2013-07-28 18:25:00,
2013-07-28 14:26:00,59.8,42.0,29.90,West,278,14.3,16.4,52,0.00,,,0.00,106.78,VWS V14.01,2013-07-28 18:26:00,
2013-07-28 14:27:00,58.9,40.3,29.90,WSW,254,12.1,16.4,50,0.00,,,0.00,121.61,VWS V14.01,2013-07-28 18:27:00,
2013-07-28 14:28:00,59.2,42.4,29.90,WNW,288,10.7,16.4,54,0.00,,,0.00,126.50,VWS V14.01,2013-07-28 18:28:00,
2013-07-28 14:29:00,62.1,39.0,29.88,West,268,12.8,16.2,42,0.00,,,0.00,358.49,VWS V14.01,2013-07-28 18:29:00,
2013-07-28 14:30:00,58.9,41.4,29.90,West,272,10.0,16.4,52,0.00,,,0.00,123.57,VWS V14.01,2013-07-28 18:30:00,
2013-07-28 14:31:00,59.0,43.5,29.90,West,274,8.5,16.4,56,0.00,,,0.00,119.96,VWS V14.01,2013-07-28 18:31:00,
2013-07-28 14:32:00,62.0,39.4,29.88,WSW,240,18.1,18.1,43,0.00,,,0.00,390.35,VWS V14.01,2013-07-28 18:32:00,
2013-07-28 14:33:00,58.1,43.9,29.90,WSW,257,11.6,16.4,59,0.00,,,0.00,107.26,VWS V14.01,2013-07-28 18:33:00,
2013-07-28 14:34:00,57.3,43.8,29.90,West,265,15.7,16.4,61,0.00,,,0.00,109.83,VWS V14.01,2013-07-28 18:34:00,
2013-07-28 14:35:00,61.7,39.2,29.88,WNW,285,12.6,12.6,43,0.00,,,0.00,322.16,VWS V14.01,2013-07-28 18:35:00,
2013-07-28 14:36:00,61.7,38.5,29.90,WNW,288,14.6,14.6,42,0.00,,,0.00,287.97,VWS V14.01,2013-07-28 18:36:00,
2013-07-28 14:37:00,55.2,45.0,29.90,WNW,282,15.2,16.4,68,0.00,,,0.00,129.24,VWS V14.01,2013-07-28 18:37:00,
2013-07-28 14:38:00,55.5,45.7,29.89,WNW,295,12.6,16.4,70,0.00,,,0.00,127.05,VWS V14.01,2013-07-28 18:38:00,
2013-07-28 14:39:00,57.0,47.5,29.90,West,277,12.4,16.4,70,0.00,,,0.00,126.80,VWS V14.01,2013-07-28 18:39:00,
2013-07-28 14:40:00,57.4,47.6,29.89,West,280,11.1,16.4,70,0.00,,,0.00,128.94,VWS V14.01,2013-07-28 18:40:00,
2013-07-28 14:41:00,62.2,39.8,29.88,West,267,14.3,16.2,44,0.00,,,0.00,383.21,VWS V14.01,2013-07-28 18:41:00,
2013-07-28 14:42:00,62.2,40.6,29.89,West,264,11.1,14.3,45,0.00,,,0.00,390.54,VWS V14.01,2013-07-28 18:42:00,
2013-07-28 14:43:00,57.4,47.9,29.90,WSW,255,8.8,16.4,70,0.00,,,0.00,166.12,VWS V14.01,2013-07-28 18:43:00,
2013-07-28 14:44:00,57.7,47.8,29.90,WSW,257,8.5,16.4,69,0.00,,,0.00,197.62,VWS V14.01,2013-07-28 18:44:00,
2013-07-28 14:45:00,57.7,47.8,29.90,West,268,11.1,16.4,69,0.00,,,0.00,204.88,VWS V14.01,2013-07-28 18:45:00,
2013-07-28 14:46:00,58.1,47.3,29.90,West,269,11.6,16.4,67,0.00,,,0.00,217.03,VWS V14.01,2013-07-28 18:46:00,
2013-07-28 14:47:00,61.9,35.7,29.88,WNW,286,16.7,17.0,37,0.00,,,0.00,404.95,VWS V14.01,2013-07-28 18:47:00,
2013-07-28 14:48:00,62.6,40.2,29.88,West,271,12.6,16.7,44,0.00,,,0.00,362.39,VWS V14.01,2013-07-28 18:48:00,
2013-07-28 14:49:00,58.1,46.5,29.91,West,281,8.7,16.4,65,0.00,,,0.00,190.05,VWS V14.01,2013-07-28 18:49:00,
2013-07-28 14:50:00,61.7,37.8,29.88,WNW,285,15.3,17.6,41,0.00,,,0.00,300.06,VWS V14.01,2013-07-28 18:50:00,
2013-07-28 14:51:00,61.8,39.7,29.88,West,272,11.4,15.3,44,0.00,,,0.00,272.28,VWS V14.01,2013-07-28 18:51:00,
2013-07-28 14:52:00,58.3,47.4,29.90,West,280,9.2,16.4,67,0.00,,,0.00,180.53,VWS V14.01,2013-07-28 18:52:00,
2013-07-28 14:53:00,61.7,38.7,29.86,West,259,12.4,16.5,43,0.00,,,0.00,248.41,VWS V14.01,2013-07-28 18:53:00,
2013-07-28 14:54:00,58.3,48.0,29.91,West,268,9.3,16.4,69,0.00,,,0.00,193.65,VWS V14.01,2013-07-28 18:54:00,
2013-07-28 14:55:00,58.4,48.2,29.91,WSW,253,8.3,16.4,69,0.00,,,0.00,238.83,VWS V14.01,2013-07-28 18:55:00,
2013-07-28 14:56:00,61.5,38.0,29.88,West,265,15.2,17.7,42,0.00,,,0.00,270.15,VWS V14.01,2013-07-28 18:56:00,
2013-07-28 14:57:00,58.6,47.2,29.89,West,280,10.9,16.4,66,0.00,,,0.00,268.25,VWS V14.01,2013-07-28 18:57:00,
2013-07-28 14:58:00,61.5,37.9,29.88,West,276,18.1,18.1,42,0.00,,,0.00,285.84,VWS V14.01,2013-07-28 18:58:00,
2013-07-28 14:59:00,58.8,46.7,29.90,WNW,289,11.7,16.4,64,0.00,,,0.00,319.72,VWS V14.01,2013-07-28 18:59:00,
2013-07-28 15:00:00,61.4,39.3,29.87,WSW,258,12.4,14.5,44,0.00,,,0.00,277.90,VWS V14.01,2013-07-28 19:00:00,
2013-07-28 15:01:00,59.5,48.3,29.90,West,272,8.7,16.4,66,0.00,,,0.00,529.73,VWS V14.01,2013-07-28 19:01:00,
2013-07-28 15:02:00,59.2,45.9,29.90,West,264,16.2,16.2,61,0.00,,,0.00,395.67,VWS V14.01,2013-07-28 19:02:00,
2013-07-28 15:03:00,60.1,48.5,29.90,West,272,5.9,9.9,66,0.00,,,0.00,375.89,VWS V14.01,2013-07-28 19:03:00,
2013-07-28 15:04:00,59.7,47.7,29.89,WSW,243,13.3,13.3,64,0.00,,,0.00,351.47,VWS V14.01,2013-07-28 19:04:00,
2013-07-28 15:05:00,59.8,47.4,29.89,WSW,249,8.5,13.3,63,0.00,,,0.00,342.92,VWS V14.01,2013-07-28 19:05:00,
2013-07-28 15:06:00,59.7,46.1,29.89,WNW,284,15.3,15.3,61,0.00,,,0.00,317.64,VWS V14.01,2013-07-28 19:06:00,
2013-07-28 15:07:00,59.6,46.2,29.89,WNW,285,11.6,15.3,61,0.00,,,0.00,308.24,VWS V14.01,2013-07-28 19:07:00,
2013-07-28 15:08:00,59.7,46.3,29.89,West,273,11.1,11.6,61,0.00,,,0.00,303.11,VWS V14.01,2013-07-28 19:08:00,
2013-07-28 15:09:00,59.9,47.1,29.90,West,278,8.8,12.1,63,0.00,,,0.00,299.63,VWS V14.01,2013-07-28 19:09:00,
2013-07-28 15:10:00,59.6,45.2,29.90,West,268,10.7,10.7,59,0.00,,,0.00,300.18,VWS V14.01,2013-07-28 19:10:00,
2013-07-28 15:11:00,59.7,45.9,29.90,West,276,12.1,12.1,60,0.00,,,0.00,302.93,VWS V14.01,2013-07-28 19:11:00,
2013-07-28 15:12:00,59.8,46.1,29.90,West,269,9.3,9.3,60,0.00,,,0.00,304.58,VWS V14.01,2013-07-28 19:12:00,
2013-07-28 15:13:00,59.8,46.1,29.90,West,269,9.3,9.3,60,0.00,,,0.00,304.58,VWS V14.01,2013-07-28 19:13:00,
2013-07-28 15:14:00,60.2,47.8,29.93,West,280,7.8,10.7,64,0.00,,,0.00,306.72,VWS V14.01,2013-07-28 19:14:00,
2013-07-28 15:15:00,60.3,47.8,29.91,WNW,297,8.1,8.1,63,0.00,,,0.00,302.08,VWS V14.01,2013-07-28 19:15:00,
2013-07-28 15:16:00,60.2,46.2,29.90,West,276,8.8,10.0,60,0.00,,,0.00,309.46,VWS V14.01,2013-07-28 19:16:00,
2013-07-28 15:17:00,60.0,44.1,29.89,West,273,12.4,12.8,56,0.00,,,0.00,319.72,VWS V14.01,2013-07-28 19:17:00,
2013-07-28 15:18:00,60.0,43.8,29.89,WNW,282,14.6,14.6,55,0.00,,,0.00,314.59,VWS V14.01,2013-07-28 19:18:00,
2013-07-28 15:19:00,60.0,43.8,29.89,WNW,282,14.6,14.6,55,0.00,,,0.00,314.59,VWS V14.01,2013-07-28 19:19:00,
2013-07-28 15:20:00,60.2,45.0,29.89,West,280,14.1,14.1,57,0.00,,,0.00,315.75,VWS V14.01,2013-07-28 19:20:00,
2013-07-28 15:21:00,60.1,44.6,29.89,WSW,257,14.6,14.6,57,0.00,,,0.00,320.09,VWS V14.01,2013-07-28 19:21:00,
2013-07-28 15:22:00,60.3,45.1,29.89,WNW,283,12.9,14.6,57,0.00,,,0.00,342.43,VWS V14.01,2013-07-28 19:22:00,
2013-07-28 15:23:00,60.3,45.0,29.90,West,266,12.6,12.9,57,0.00,,,0.00,349.88,VWS V14.01,2013-07-28 19:23:00,
2013-07-28 15:24:00,60.5,45.8,29.91,West,276,11.7,12.6,58,0.00,,,0.00,350.85,VWS V14.01,2013-07-28 19:24:00,
2013-07-28 15:25:00,60.4,44.7,29.90,West,279,13.4,13.8,56,0.00,,,0.00,352.32,VWS V14.01,2013-07-28 19:25:00,
2013-07-28 15:26:00,60.3,45.0,29.90,WNW,286,10.5,13.5,57,0.00,,,0.00,364.84,VWS V14.01,2013-07-28 19:26:00,
2013-07-28 15:27:00,60.2,44.2,29.90,West,262,12.8,12.8,55,0.00,,,0.00,373.75,VWS V14.01,2013-07-28 19:27:00,
2013-07-28 15:28:00,60.2,43.5,29.90,West,270,16.4,16.4,54,0.00,,,0.00,383.21,VWS V14.01,2013-07-28 19:28:00,
2013-07-28 15:29:00,61.2,45.5,29.90,West,269,10.5,11.4,56,0.00,,,0.00,453.72,VWS V14.01,2013-07-28 19:29:00,
2013-07-28 15:30:00,60.7,43.3,29.90,WNW,284,14.1,14.1,52,0.00,,,0.00,424.73,VWS V14.01,2013-07-28 19:30:00,
2013-07-28 15:31:00,61.1,43.3,29.90,WNW,298,15.3,15.3,52,0.00,,,0.00,580.22,VWS V14.01,2013-07-28 19:31:00,
2013-07-28 15:32:00,61.4,43.7,29.89,West,276,13.3,15.3,52,0.00,,,0.00,397.92,VWS V14.01,2013-07-28 19:32:00,
2013-07-28 15:33:00,60.9,43.0,29.90,West,271,13.3,13.3,52,0.00,,,0.00,368.56,VWS V14.01,2013-07-28 19:33:00,
2013-07-28 15:34:00,61.0,42.3,29.89,West,259,15.5,15.5,50,0.00,,,0.00,358.79,VWS V14.01,2013-07-28 19:34:00,
2013-07-28 15:35:00,61.0,41.9,29.90,WNW,284,12.9,15.5,49,0.00,,,0.00,349.45,VWS V14.01,2013-07-28 19:35:00,
2013-07-28 15:36:00,61.4,44.1,29.89,West,275,10.7,12.9,53,0.00,,,0.00,350.49,VWS V14.01,2013-07-28 19:36:00,
2013-07-28 15:38:00,61.2,41.2,29.89,WNW,290,14.1,14.1,48,0.00,,,0.00,400.92,VWS V14.01,2013-07-28 19:38:00,
2013-07-28 15:39:00,61.3,42.8,29.89,West,265,14.3,14.3,51,0.00,,,0.00,373.44,VWS V14.01,2013-07-28 19:39:00,
2013-07-28 15:40:00,61.3,41.6,29.90,WSW,257,10.9,14.0,48,0.00,,,0.00,390.54,VWS V14.01,2013-07-28 19:40:00,
2013-07-28 15:41:00,61.7,42.0,29.90,West,268,14.3,14.3,48,0.00,,,0.00,400.31,VWS V14.01,2013-07-28 19:41:00,
2013-07-28 15:42:00,61.5,42.0,29.89,WSW,248,14.8,15.3,49,0.00,,,0.00,409.77,VWS V14.01,2013-07-28 19:42:00,
2013-07-28 15:43:00,61.6,40.9,29.89,WNW,285,18.4,18.4,46,0.00,,,0.00,754.40,VWS V14.01,2013-07-28 19:43:00,
2013-07-28 15:44:00,62.0,42.0,29.90,WSW,255,12.6,14.8,48,0.00,,,0.00,549.27,VWS V14.01,2013-07-28 19:44:00,
2013-07-28 15:45:00,62.0,42.0,29.90,WSW,255,12.6,14.8,48,0.00,,,0.00,549.27,VWS V14.01,2013-07-28 19:45:00,
2013-07-28 15:46:00,62.4,43.3,29.90,West,260,12.6,14.3,49,0.00,,,0.00,1006.66,VWS V14.01,2013-07-28 19:46:00,
2013-07-28 15:47:00,62.6,40.7,29.90,WNW,302,18.4,18.4,44,0.00,,,0.00,1044.99,VWS V14.01,2013-07-28 19:47:00,
2013-07-28 15:48:00,62.2,40.7,29.89,West,275,11.9,18.4,45,0.00,,,0.00,500.43,VWS V14.01,2013-07-28 19:48:00,
2013-07-28 15:49:00,62.2,40.3,29.89,WNW,283,16.5,16.5,44,0.00,,,0.00,347.50,VWS V14.01,2013-07-28 19:49:00,
2013-07-28 15:50:00,62.1,41.4,29.90,WNW,293,11.2,16.5,47,0.00,,,0.00,373.69,VWS V14.01,2013-07-28 19:50:00,
2013-07-28 15:51:00,61.7,39.8,29.89,West,280,20.6,20.6,44,0.00,,,0.00,381.38,VWS V14.01,2013-07-28 19:51:00,
2013-07-28 15:52:00,62.1,41.7,29.89,West,281,12.6,20.6,47,0.00,,,0.00,543.83,VWS V14.01,2013-07-28 19:52:00,
2013-07-28 15:53:00,62.2,40.3,29.89,WSW,257,16.5,16.5,45,0.00,,,0.00,876.50,VWS V14.01,2013-07-28 19:53:00,
2013-07-28 15:54:00,62.9,40.8,29.88,WNW,293,14.1,14.5,44,0.00,,,0.00,508.00,VWS V14.01,2013-07-28 19:54:00,
2013-07-28 15:55:00,62.8,41.0,29.88,WSW,256,15.3,15.3,45,0.00,,,0.00,1012.76,VWS V14.01,2013-07-28 19:55:00,
2013-07-28 15:56:00,62.4,41.0,29.88,West,274,11.6,15.3,46,0.00,,,0.00,656.35,VWS V14.01,2013-07-28 19:56:00,
2013-07-28 15:57:00,62.7,40.1,29.89,West,276,13.6,13.6,43,0.00,,,0.00,522.16,VWS V14.01,2013-07-28 19:57:00,
2013-07-28 15:58:00,62.0,38.9,29.89,West,274,18.9,18.9,42,0.00,,,0.00,575.34,VWS V14.01,2013-07-28 19:58:00,
2013-07-28 15:59:00,62.1,38.8,29.89,West,262,14.8,18.9,42,0.00,,,0.00,396.03,VWS V14.01,2013-07-28 19:59:00,
2013-07-28 16:00:00,62.7,41.4,29.89,WNW,285,11.6,12.9,45,0.00,,,0.00,408.61,VWS V14.01,2013-07-28 20:00:00,
2013-07-28 16:01:00,62.5,40.5,29.89,WNW,291,11.6,15.2,44,0.00,,,0.00,920.27,VWS V14.01,2013-07-28 20:01:00,
2013-07-28 16:02:00,62.5,40.5,29.89,WNW,291,11.6,15.2,44,0.00,,,0.00,920.27,VWS V14.01,2013-07-28 20:02:00,
2013-07-28 16:03:00,64.0,42.7,29.89,West,268,12.9,12.9,46,0.00,,,0.00,906.66,VWS V14.01,2013-07-28 20:03:00,
2013-07-28 16:04:00,63.5,42.7,29.89,West,274,10.5,12.9,47,0.00,,,0.00,534.62,VWS V14.01,2013-07-28 20:04:00,
2013-07-28 16:05:00,63.3,41.5,29.89,West,277,11.9,12.9,45,0.00,,,0.00,544.14,VWS V14.01,2013-07-28 20:05:00,
2013-07-28 16:06:00,63.9,43.7,29.89,WNW,294,10.5,11.9,48,0.00,,,0.00,792.98,VWS V14.01,2013-07-28 20:06:00,
2013-07-28 16:07:00,63.5,42.4,29.89,WNW,284,12.9,12.9,46,0.00,,,0.00,743.41,VWS V14.01,2013-07-28 20:07:00,
2013-07-28 16:08:00,63.5,40.4,29.89,West,276,11.6,11.6,43,0.00,,,0.00,754.40,VWS V14.01,2013-07-28 20:08:00,
2013-07-28 16:09:00,63.5,40.4,29.89,West,276,11.6,11.6,43,0.00,,,0.00,754.40,VWS V14.01,2013-07-28 20:09:00,
2013-07-28 16:10:00,63.5,40.7,29.89,West,280,13.3,13.3,43,0.00,,,0.00,823.02,VWS V14.01,2013-07-28 20:10:00,
2013-07-28 16:11:00,64.5,42.3,29.89,WSW,254,12.1,13.4,44,0.00,,,0.00,776.13,VWS V14.01,2013-07-28 20:11:00,
2013-07-28 16:12:00,64.5,42.3,29.89,WSW,254,12.1,13.5,44,0.00,,,0.00,776.13,VWS V14.01,2013-07-28 20:12:00,
2013-07-28 16:13:00,64.0,41.0,29.90,West,260,12.3,12.6,43,0.00,,,0.00,761.42,VWS V14.01,2013-07-28 20:13:00,
2013-07-28 16:14:00,64.5,41.8,29.89,West,275,14.1,14.1,43,0.00,,,0.00,427.17,VWS V14.01,2013-07-28 20:14:00,
2013-07-28 16:15:00,63.0,37.4,29.89,West,268,16.5,16.5,38,0.00,,,0.00,316.18,VWS V14.01,2013-07-28 20:15:00,
2013-07-28 16:16:00,64.4,41.6,29.90,WNW,297,11.2,11.2,43,0.00,,,0.00,737.91,VWS V14.01,2013-07-28 20:16:00,
2013-07-28 16:17:00,64.1,39.2,29.89,NW,312,12.6,12.6,40,0.00,,,0.00,820.64,VWS V14.01,2013-07-28 20:17:00,
2013-07-28 16:18:00,63.6,40.1,29.90,NW,314,13.8,13.8,42,0.00,,,0.00,410.07,VWS V14.01,2013-07-28 20:18:00,
2013-07-28 16:19:00,63.9,40.7,29.90,WNW,293,9.9,13.8,42,0.00,,,0.00,833.70,VWS V14.01,2013-07-28 20:19:00,
2013-07-28 16:20:00,64.3,40.7,29.89,NW,314,16.5,16.5,42,0.00,,,0.00,330.22,VWS V14.01,2013-07-28 20:20:00,
2013-07-28 16:21:00,64.3,40.7,29.89,NW,314,16.5,16.5,42,0.00,,,0.00,330.22,VWS V14.01,2013-07-28 20:21:00,
2013-07-28 16:22:00,63.1,41.2,29.89,WSW,256,9.9,9.9,45,0.00,,,0.00,323.81,VWS V14.01,2013-07-28 20:22:00,
2013-07-28 16:23:00,63.3,41.5,29.89,NW,324,7.8,9.9,45,0.00,,,0.00,266.91,VWS V14.01,2013-07-28 20:23:00,
2013-07-28 16:24:00,63.3,39.0,29.89,NW,313,11.4,12.8,41,0.00,,,0.00,439.93,VWS V14.01,2013-07-28 20:24:00,
2013-07-28 16:25:00,63.0,40.3,29.89,West,272,11.6,15.0,43,0.00,,,0.00,349.02,VWS V14.01,2013-07-28 20:25:00,
2013-07-28 16:26:00,63.3,41.4,29.89,West,265,9.9,14.0,45,0.00,,,0.00,573.14,VWS V14.01,2013-07-28 20:26:00,
2013-07-28 16:27:00,63.8,40.4,29.89,West,274,9.9,9.9,42,0.00,,,0.00,463.80,VWS V14.01,2013-07-28 20:27:00,
2013-07-28 16:28:00,64.3,42.6,29.90,West,270,7.6,9.9,45,0.00,,,0.00,354.33,VWS V14.01,2013-07-28 20:28:00,
2013-07-28 16:29:00,63.5,40.2,29.90,West,260,10.2,10.2,42,0.00,,,0.00,339.87,VWS V14.01,2013-07-28 20:29:00,
2013-07-28 16:30:00,63.6,39.9,29.89,WNW,296,11.4,11.4,42,0.00,,,0.00,586.51,VWS V14.01,2013-07-28 20:30:00,
2013-07-28 16:31:00,64.6,42.5,29.90,WNW,302,13.4,13.4,44,0.00,,,0.00,656.10,VWS V14.01,2013-07-28 20:31:00,
2013-07-28 16:32:00,64.2,41.3,29.90,West,279,7.5,13.4,43,0.00,,,0.00,293.89,VWS V14.01,2013-07-28 20:32:00,
2013-07-28 16:33:00,64.1,39.5,29.89,West,274,10.9,10.9,40,0.00,,,0.00,801.04,VWS V14.01,2013-07-28 20:33:00,
2013-07-28 16:34:00,63.3,38.3,29.89,WNW,294,12.8,14.0,40,0.00,,,0.00,228.14,VWS V14.01,2013-07-28 20:34:00,
2013-07-28 16:35:00,63.9,40.0,29.89,West,270,10.5,12.8,41,0.00,,,0.00,820.33,VWS V14.01,2013-07-28 20:35:00,
2013-07-28 16:36:00,63.9,39.3,29.89,West,263,11.2,11.7,40,0.00,,,0.00,781.26,VWS V14.01,2013-07-28 20:36:00,
2013-07-28 16:37:00,64.5,38.5,29.89,West,261,11.6,15.0,38,0.00,,,0.00,712.58,VWS V14.01,2013-07-28 20:37:00,
2013-07-28 16:38:00,64.5,38.5,29.89,West,261,11.6,15.0,38,0.00,,,0.00,712.58,VWS V14.01,2013-07-28 20:38:00,
2013-07-28 16:39:00,65.6,39.7,29.90,WSW,250,9.9,11.6,39,0.00,,,0.00,703.79,VWS V14.01,2013-07-28 20:39:00,
2013-07-28 16:40:00,65.9,41.0,29.90,West,280,11.6,11.6,40,0.00,,,0.00,720.21,VWS V14.01,2013-07-28 20:40:00,
2013-07-28 16:41:00,64.2,36.9,29.90,West,267,15.7,15.7,36,0.00,,,0.00,730.46,VWS V14.01,2013-07-28 20:41:00,
2013-07-28 16:42:00,64.3,37.3,29.90,West,267,15.5,16.5,37,0.00,,,0.00,772.47,VWS V14.01,2013-07-28 20:42:00,
2013-07-28 16:43:00,63.6,36.9,29.90,WNW,288,16.5,16.5,37,0.00,,,0.00,410.07,VWS V14.01,2013-07-28 20:43:00,
2013-07-28 16:44:00,63.7,38.2,29.89,NW,306,13.5,16.5,39,0.00,,,0.00,442.74,VWS V14.01,2013-07-28 20:44:00,
2013-07-28 16:45:00,64.2,39.0,29.89,NW,316,13.6,16.4,39,0.00,,,0.00,403.36,VWS V14.01,2013-07-28 20:45:00,
2013-07-28 16:46:00,63.2,37.8,29.89,WNW,292,12.8,13.6,39,0.00,,,0.00,309.95,VWS V14.01,2013-07-28 20:46:00,
2013-07-28 16:47:00,63.2,37.8,29.89,WNW,292,12.8,13.6,39,0.00,,,0.00,309.95,VWS V14.01,2013-07-28 20:47:00,
2013-07-28 16:48:00,63.3,34.9,29.90,West,264,14.5,14.5,35,0.00,,,0.00,513.25,VWS V14.01,2013-07-28 20:48:00,
2013-07-28 16:49:00,63.8,38.0,29.90,West,264,13.1,14.5,38,0.00,,,0.00,371.00,VWS V14.01,2013-07-28 20:49:00,
2013-07-28 16:50:00,64.3,38.7,29.89,WNW,283,11.1,13.4,39,0.00,,,0.00,752.63,VWS V14.01,2013-07-28 20:50:00,
2013-07-28 16:51:00,64.7,38.1,29.90,West,271,11.2,11.2,37,0.00,,,0.00,517.09,VWS V14.01,2013-07-28 20:51:00,
2013-07-28 16:52:00,65.2,38.7,29.90,West,270,11.6,11.6,38,0.00,,,0.00,656.72,VWS V14.01,2013-07-28 20:52:00,
2013-07-28 16:53:00,64.0,37.3,29.89,West,263,14.3,14.3,37,0.00,,,0.00,410.07,VWS V14.01,2013-07-28 20:53:00,
2013-07-28 16:54:00,64.2,38.1,29.90,West,259,11.2,11.4,38,0.00,,,0.00,292.86,VWS V14.01,2013-07-28 20:54:00,
2013-07-28 16:55:00,63.5,36.1,29.90,West,264,14.6,14.6,36,0.00,,,0.00,295.30,VWS V14.01,2013-07-28 20:55:00,
2013-07-28 16:56:00,63.3,38.0,29.92,West,277,10.4,16.0,39,0.00,,,0.00,305.80,VWS V14.01,2013-07-28 20:56:00,
2013-07-28 16:57:00,62.8,36.4,29.90,West,269,14.3,14.3,37,0.00,,,0.00,279.67,VWS V14.01,2013-07-28 20:57:00,
2013-07-28 16:58:00,62.9,38.0,29.90,West,261,10.4,14.3,40,0.00,,,0.00,270.57,VWS V14.01,2013-07-28 20:58:00,
2013-07-28 16:59:00,62.7,36.6,29.89,WSW,256,16.0,16.0,38,0.00,,,0.00,276.01,VWS V14.01,2013-07-28 20:59:00,
2013-07-28 17:00:00,62.8,37.1,29.89,NW,304,13.1,14.1,38,0.00,,,0.00,288.46,VWS V14.01,2013-07-28 21:00:00,
2013-07-28 17:01:00,62.9,38.9,29.90,West,276,12.1,12.1,41,0.00,,,0.00,288.95,VWS V14.01,2013-07-28 21:01:00,
2013-07-28 17:02:00,62.9,36.6,29.91,West,276,17.7,17.7,38,0.00,,,0.00,298.11,VWS V14.01,2013-07-28 21:02:00,
2013-07-28 17:03:00,63.0,37.4,29.89,West,277,12.6,15.2,39,0.00,,,0.00,314.83,VWS V14.01,2013-07-28 21:03:00,
2013-07-28 17:04:00,63.0,37.4,29.89,West,277,12.6,15.2,39,0.00,,,0.00,314.84,VWS V14.01,2013-07-28 21:04:00,
2013-07-28 17:05:00,62.8,36.4,29.90,West,268,13.6,13.6,37,0.00,,,0.00,341.21,VWS V14.01,2013-07-28 21:05:00,
2013-07-28 17:06:00,62.9,37.0,29.90,West,262,14.5,14.5,38,0.00,,,0.00,324.42,VWS V14.01,2013-07-28 21:06:00,
2013-07-28 17:07:00,62.8,37.4,29.91,West,268,12.8,15.2,39,0.00,,,0.00,283.09,VWS V14.01,2013-07-28 21:07:00,
2013-07-28 17:08:00,62.8,37.4,29.91,West,268,12.8,15.2,39,0.00,,,0.00,283.09,VWS V14.01,2013-07-28 21:08:00,
2013-07-28 17:09:00,64.3,40.3,29.90,WNW,282,10.0,15.8,41,0.00,,,0.00,537.06,VWS V14.01,2013-07-28 21:09:00,
2013-07-28 17:10:00,63.0,37.8,29.90,West,273,15.8,15.8,39,0.00,,,0.00,346.95,VWS V14.01,2013-07-28 21:10:00,
2013-07-28 17:11:00,63.1,36.9,29.89,West,264,16.5,16.5,38,0.00,,,0.00,346.83,VWS V14.01,2013-07-28 21:11:00,
2013-07-28 17:12:00,62.9,39.2,29.91,WNW,299,11.1,11.4,42,0.00,,,0.00,301.83,VWS V14.01,2013-07-28 21:12:00,
2013-07-28 17:13:00,62.9,39.2,29.91,WNW,299,11.1,11.4,42,0.00,,,0.00,301.83,VWS V14.01,2013-07-28 21:13:00,
2013-07-28 17:14:00,62.6,37.4,29.91,West,281,15.8,15.8,39,0.00,,,0.00,312.64,VWS V14.01,2013-07-28 21:14:00,
2013-07-28 17:15:00,62.8,37.9,29.91,West,280,14.0,15.8,40,0.00,,,0.00,268.44,VWS V14.01,2013-07-28 21:15:00,
2013-07-28 17:16:00,62.5,38.8,29.90,WNW,299,10.9,14.0,41,0.00,,,0.00,260.56,VWS V14.01,2013-07-28 21:16:00,
2013-07-28 17:17:00,62.7,38.3,29.91,West,278,13.3,13.3,40,0.00,,,0.00,309.95,VWS V14.01,2013-07-28 21:17:00,
2013-07-28 17:18:00,62.8,39.3,29.91,WNW,297,12.6,13.3,42,0.00,,,0.00,317.28,VWS V14.01,2013-07-28 21:18:00,
2013-07-28 17:19:00,62.8,39.2,29.90,WNW,300,10.9,12.6,42,0.00,,,0.00,342.31,VWS V14.01,2013-07-28 21:19:00,
2013-07-28 17:20:00,62.8,39.0,29.89,WNW,292,10.7,11.7,41,0.00,,,0.00,326.98,VWS V14.01,2013-07-28 21:20:00,
2013-07-28 17:21:00,62.8,39.0,29.89,WNW,292,10.7,11.7,41,0.00,,,0.00,326.98,VWS V14.01,2013-07-28 21:21:00,
2013-07-28 17:22:00,62.7,39.6,29.90,WNW,299,10.7,14.1,43,0.00,,,0.00,306.23,VWS V14.01,2013-07-28 21:22:00,
2013-07-28 17:23:00,63.0,39.9,29.91,WNW,296,12.1,12.1,43,0.00,,,0.00,298.72,VWS V14.01,2013-07-28 21:23:00,
2013-07-28 17:24:00,62.7,39.3,29.91,West,261,8.7,12.1,42,0.00,,,0.00,285.04,VWS V14.01,2013-07-28 21:24:00,
2013-07-28 17:25:00,62.9,39.9,29.91,West,264,11.1,11.1,43,0.00,,,0.00,278.08,VWS V14.01,2013-07-28 21:25:00,
2013-07-28 17:26:00,62.9,40.4,29.91,West,269,9.0,11.6,44,0.00,,,0.00,272.53,VWS V14.01,2013-07-28 21:26:00,
2013-07-28 17:27:00,63.0,39.0,29.90,WSW,250,13.3,13.3,41,0.00,,,0.00,293.16,VWS V14.01,2013-07-28 21:27:00,
2013-07-28 17:28:00,62.8,39.8,29.91,WSW,249,11.1,15.3,43,0.00,,,0.00,300.79,VWS V14.01,2013-07-28 21:28:00,
2013-07-28 17:29:00,62.8,40.8,29.91,West,267,9.2,11.1,44,0.00,,,0.00,271.06,VWS V14.01,2013-07-28 21:29:00,
2013-07-28 17:30:00,62.4,38.2,29.91,West,265,13.5,13.5,41,0.00,,,0.00,249.51,VWS V14.01,2013-07-28 21:30:00,
2013-07-28 17:31:00,62.5,39.9,29.91,WSW,257,10.4,13.5,43,0.00,,,0.00,222.04,VWS V14.01,2013-07-28 21:31:00,
2013-07-28 17:32:00,62.6,40.3,29.93,West,269,10.0,11.9,44,0.00,,,0.00,200.06,VWS V14.01,2013-07-28 21:32:00,
2013-07-28 17:33:00,62.4,40.8,29.91,WNW,284,9.5,10.2,45,0.00,,,0.00,195.18,VWS V14.01,2013-07-28 21:33:00,
2013-07-28 17:34:00,62.6,40.7,29.91,West,275,10.9,10.9,44,0.00,,,0.00,188.83,VWS V14.01,2013-07-28 21:34:00,
2013-07-28 17:35:00,62.0,40.1,29.94,WSW,250,12.3,12.4,44,0.00,,,0.00,183.58,VWS V14.01,2013-07-28 21:35:00,
2013-07-28 17:36:00,62.0,40.5,29.92,West,263,10.0,12.3,45,0.00,,,0.00,177.59,VWS V14.01,2013-07-28 21:36:00,
2013-07-28 17:37:00,62.3,40.0,29.91,West,267,12.9,12.9,44,0.00,,,0.00,174.18,VWS V14.01,2013-07-28 21:37:00,
2013-07-28 17:38:00,62.4,36.8,29.91,WSW,258,11.6,11.6,38,0.00,,,0.00,171.67,VWS V14.01,2013-07-28 21:38:00,
2013-07-28 17:39:00,62.0,40.1,29.91,West,267,9.3,13.8,45,0.00,,,0.00,165.63,VWS V14.01,2013-07-28 21:39:00,
2013-07-28 17:40:00,62.1,39.8,29.91,West,267,8.1,10.2,44,0.00,,,0.00,151.22,VWS V14.01,2013-07-28 21:40:00,
2013-07-28 17:41:00,62.0,40.3,29.92,West,263,11.7,11.7,45,0.00,,,0.00,146.83,VWS V14.01,2013-07-28 21:41:00,
2013-07-28 17:42:00,62.1,40.1,29.92,West,261,10.0,11.7,44,0.00,,,0.00,141.45,VWS V14.01,2013-07-28 21:42:00,
2013-07-28 17:43:00,62.0,38.8,29.92,West,270,12.8,12.8,42,0.00,,,0.00,139.01,VWS V14.01,2013-07-28 21:43:00,
2013-07-28 17:44:00,62.2,39.5,29.92,WSW,256,15.0,15.0,43,0.00,,,0.00,141.94,VWS V14.01,2013-07-28 21:44:00,
2013-07-28 17:45:00,62.0,39.1,29.92,WNW,285,12.9,15.0,43,0.00,,,0.00,150.24,VWS V14.01,2013-07-28 21:45:00,
2013-07-28 17:46:00,61.8,40.3,29.92,WNW,283,8.0,12.9,45,0.00,,,0.00,158.24,VWS V14.01,2013-07-28 21:46:00,
2013-07-28 17:47:00,62.2,39.7,29.92,WNW,285,10.4,10.4,43,0.00,,,0.00,163.19,VWS V14.01,2013-07-28 21:47:00,
2013-07-28 17:48:00,62.0,41.0,29.91,West,278,6.8,11.2,46,0.00,,,0.00,170.33,VWS V14.01,2013-07-28 21:48:00,
2013-07-28 17:49:00,62.0,40.7,29.92,West,262,10.5,10.5,46,0.00,,,0.00,174.42,VWS V14.01,2013-07-28 21:49:00,
2013-07-28 17:50:00,62.0,41.5,29.92,West,273,7.8,10.5,47,0.00,,,0.00,180.53,VWS V14.01,2013-07-28 21:50:00,
2013-07-28 17:51:00,62.1,39.9,29.91,WNW,286,9.7,13.1,44,0.00,,,0.00,191.51,VWS V14.01,2013-07-28 21:51:00,
2013-07-28 17:52:00,62.1,39.9,29.91,WNW,286,9.7,13.1,44,0.00,,,0.00,191.51,VWS V14.01,2013-07-28 21:52:00,
2013-07-28 17:53:00,62.3,40.7,29.92,West,270,10.4,10.7,45,0.00,,,0.00,193.71,VWS V14.01,2013-07-28 21:53:00,
2013-07-28 17:54:00,62.1,41.0,29.91,WSW,258,9.5,11.4,46,0.00,,,0.00,192.74,VWS V14.01,2013-07-28 21:54:00,
2013-07-28 17:55:00,62.1,40.0,29.91,WNW,299,10.7,10.7,44,0.00,,,0.00,194.14,VWS V14.01,2013-07-28 21:55:00,
2013-07-28 17:56:00,62.3,40.1,29.91,West,274,8.8,10.7,44,0.00,,,0.00,195.18,VWS V14.01,2013-07-28 21:56:00,
2013-07-28 17:57:00,62.2,39.7,29.91,WNW,303,13.1,13.1,43,0.00,,,0.00,194.14,VWS V14.01,2013-07-28 21:57:00,
2013-07-28 17:58:00,62.2,40.3,29.92,West,259,7.8,11.9,44,0.00,,,0.00,185.41,VWS V14.01,2013-07-28 21:58:00,
2013-07-28 17:59:00,62.1,39.7,29.91,WNW,287,10.4,10.4,44,0.00,,,0.00,182.42,VWS V14.01,2013-07-28 21:59:00,
2013-07-28 18:00:00,62.0,39.6,29.91,WSW,257,10.5,10.5,43,0.00,,,0.00,181.44,VWS V14.01,2013-07-28 22:00:00,
2013-07-28 18:01:00,62.1,39.6,29.91,West,269,12.1,12.1,43,0.00,,,0.00,181.38,VWS V14.01,2013-07-28 22:01:00,
2013-07-28 18:02:00,62.1,39.6,29.91,West,269,12.1,12.1,43,0.00,,,0.00,181.38,VWS V14.01,2013-07-28 22:02:00,
2013-07-28 18:03:00,62.0,40.2,29.91,WNW,289,8.5,12.1,45,0.00,,,0.00,169.11,VWS V14.01,2013-07-28 22:03:00,
2013-07-28 18:04:00,62.2,40.4,29.91,WNW,299,11.6,11.6,45,0.00,,,0.00,165.87,VWS V14.01,2013-07-28 22:04:00,
2013-07-28 18:05:00,62.0,40.2,29.91,West,277,8.8,10.5,45,0.00,,,0.00,160.99,VWS V14.01,2013-07-28 22:05:00,
2013-07-28 18:06:00,62.1,40.5,29.92,WNW,287,8.8,9.2,45,0.00,,,0.00,174.85,VWS V14.01,2013-07-28 22:06:00,
2013-07-28 18:07:00,62.1,40.5,29.92,WNW,287,8.8,9.2,45,0.00,,,0.00,174.85,VWS V14.01,2013-07-28 22:07:00,
2013-07-28 18:08:00,62.0,40.6,29.91,West,281,8.8,9.5,45,0.00,,,0.00,192.49,VWS V14.01,2013-07-28 22:08:00,
2013-07-28 18:09:00,61.8,39.9,29.92,West,269,10.4,11.7,44,0.00,,,0.00,202.50,VWS V14.01,2013-07-28 22:09:00,
2013-07-28 18:10:00,61.9,40.4,29.91,West,276,11.6,11.6,45,0.00,,,0.00,196.40,VWS V14.01,2013-07-28 22:10:00,
2013-07-28 18:11:00,62.0,40.7,29.92,West,263,7.5,11.6,45,0.00,,,0.00,190.78,VWS V14.01,2013-07-28 22:11:00,
2013-07-28 18:12:00,62.0,39.7,29.92,West,271,11.7,11.7,44,0.00,,,0.00,177.11,VWS V14.01,2013-07-28 22:12:00,
2013-07-28 18:13:00,61.8,40.5,29.91,West,263,8.3,11.7,45,0.00,,,0.00,165.14,VWS V14.01,2013-07-28 22:13:00,
2013-07-28 18:14:00,61.6,40.8,29.91,West,263,9.2,9.2,46,0.00,,,0.00,156.84,VWS V14.01,2013-07-28 22:14:00,
2013-07-28 18:15:00,61.5,40.7,29.91,SW,234,10.2,10.2,46,0.00,,,0.00,150.92,VWS V14.01,2013-07-28 22:15:00,
2013-07-28 18:16:00,61.5,40.7,29.91,SW,234,10.2,10.2,46,0.00,,,0.00,150.92,VWS V14.01,2013-07-28 22:16:00,
2013-07-28 18:17:00,61.5,40.5,29.92,WSW,245,8.7,10.4,46,0.00,,,0.00,143.90,VWS V14.01,2013-07-28 22:17:00,
2013-07-28 18:18:00,61.6,40.5,29.92,WNW,286,10.5,10.5,46,0.00,,,0.00,138.46,VWS V14.01,2013-07-28 22:18:00,
2013-07-28 18:19:00,61.9,39.6,29.92,West,277,13.1,13.1,44,0.00,,,0.00,134.43,VWS V14.01,2013-07-28 22:19:00,
2013-07-28 18:20:00,61.6,40.8,29.92,West,259,9.9,12.1,46,0.00,,,0.00,124.36,VWS V14.01,2013-07-28 22:20:00,
2013-07-28 18:21:00,62.0,40.8,29.91,West,260,11.1,11.1,46,0.00,,,0.00,124.36,VWS V14.01,2013-07-28 22:21:00,
2013-07-28 18:22:00,61.6,40.6,29.91,WSW,257,9.5,11.1,46,0.00,,,0.00,122.65,VWS V14.01,2013-07-28 22:22:00,
2013-07-28 18:23:00,61.7,40.2,29.92,West,265,12.1,12.1,45,0.00,,,0.00,120.09,VWS V14.01,2013-07-28 22:23:00,
2013-07-28 18:24:00,61.3,41.9,29.92,West,274,6.4,11.1,49,0.00,,,0.00,121.43,VWS V14.01,2013-07-28 22:24:00,
2013-07-28 18:25:00,61.5,40.8,29.92,West,259,9.0,12.1,46,0.00,,,0.00,120.39,VWS V14.01,2013-07-28 22:25:00,
2013-07-28 18:26:00,61.7,40.5,29.91,West,259,11.9,11.9,46,0.00,,,0.00,121.92,VWS V14.01,2013-07-28 22:26:00,
2013-07-28 18:27:00,61.1,41.7,29.92,West,264,6.4,11.9,49,0.00,,,0.00,120.39,VWS V14.01,2013-07-28 22:27:00,
2013-07-28 18:28:00,61.8,40.9,29.95,West,263,9.7,9.7,46,0.00,,,0.00,121.92,VWS V14.01,2013-07-28 22:28:00,
2013-07-28 18:29:00,61.8,40.9,29.95,West,263,9.7,9.7,46,0.00,,,0.00,121.92,VWS V14.01,2013-07-28 22:29:00,
2013-07-28 18:30:00,61.4,40.9,29.92,West,262,7.8,9.7,47,0.00,,,0.00,118.93,VWS V14.01,2013-07-28 22:30:00,
2013-07-28 18:31:00,61.7,40.8,29.91,WNW,293,7.6,10.0,46,0.00,,,0.00,126.25,VWS V14.01,2013-07-28 22:31:00,
2013-07-28 18:32:00,61.6,39.8,29.91,West,273,11.1,11.1,45,0.00,,,0.00,134.13,VWS V14.01,2013-07-28 22:32:00,
2013-07-28 18:33:00,61.7,39.6,29.92,WNW,294,11.9,11.9,44,0.00,,,0.00,139.87,VWS V14.01,2013-07-28 22:33:00,
2013-07-28 18:34:00,61.8,39.3,29.91,WNW,290,10.5,11.9,43,0.00,,,0.00,151.22,VWS V14.01,2013-07-28 22:34:00,
2013-07-28 18:35:00,61.8,39.3,29.91,WNW,290,10.5,11.9,43,0.00,,,0.00,151.22,VWS V14.01,2013-07-28 22:35:00,
2013-07-28 18:36:00,61.9,39.1,29.92,West,273,11.4,11.4,43,0.00,,,0.00,152.44,VWS V14.01,2013-07-28 22:36:00,
2013-07-28 18:37:00,61.7,38.8,29.92,WNW,283,11.2,11.2,43,0.00,,,0.00,150.73,VWS V14.01,2013-07-28 22:37:00,
2013-07-28 18:38:00,61.7,40.2,29.91,WNW,283,8.8,11.2,45,0.00,,,0.00,148.78,VWS V14.01,2013-07-28 22:38:00,
2013-07-28 18:39:00,61.4,39.4,29.93,WSW,252,8.1,9.7,44,0.00,,,0.00,152.38,VWS V14.01,2013-07-28 22:39:00,
2013-07-28 18:40:00,61.7,39.5,29.93,WNW,296,7.1,8.1,44,0.00,,,0.00,148.78,VWS V14.01,2013-07-28 22:40:00,
2013-07-28 18:41:00,61.5,39.5,29.92,West,276,8.7,8.7,44,0.00,,,0.00,145.30,VWS V14.01,2013-07-28 22:41:00,
2013-07-28 18:42:00,61.8,38.7,29.92,West,272,10.7,11.1,42,0.00,,,0.00,154.15,VWS V14.01,2013-07-28 22:42:00,
2013-07-28 18:43:00,61.7,38.6,29.92,WSW,248,9.7,10.7,42,0.00,,,0.00,157.51,VWS V14.01,2013-07-28 22:43:00,
2013-07-28 18:44:00,61.7,38.6,29.92,WSW,248,9.7,10.7,42,0.00,,,0.00,157.51,VWS V14.01,2013-07-28 22:44:00,
2013-07-28 18:45:00,61.7,38.6,29.92,WSW,258,8.7,9.7,42,0.00,,,0.00,150.98,VWS V14.01,2013-07-28 22:45:00,
2013-07-28 18:46:00,61.2,38.8,29.93,West,274,8.1,8.5,43,0.00,,,0.00,139.50,VWS V14.01,2013-07-28 22:46:00,
2013-07-28 18:47:00,61.3,37.9,29.92,WNW,282,10.5,10.5,42,0.00,,,0.00,139.01,VWS V14.01,2013-07-28 22:47:00,
2013-07-28 18:48:00,61.6,38.4,29.92,West,264,9.7,10.5,42,0.00,,,0.00,137.55,VWS V14.01,2013-07-28 22:48:00,
2013-07-28 18:49:00,61.5,38.6,29.93,WSW,248,10.4,10.4,43,0.00,,,0.00,136.32,VWS V14.01,2013-07-28 22:49:00,
2013-07-28 18:50:00,61.4,38.8,29.92,West,270,9.9,10.4,43,0.00,,,0.00,134.07,VWS V14.01,2013-07-28 22:50:00,
2013-07-28 18:51:00,61.2,39.4,29.92,West,266,7.8,7.8,45,0.00,,,0.00,134.43,VWS V14.01,2013-07-28 22:51:00,
2013-07-28 18:52:00,61.1,39.3,29.93,WNW,290,8.0,8.0,44,0.00,,,0.00,134.13,VWS V14.01,2013-07-28 22:52:00,
2013-07-28 18:53:00,61.1,39.4,29.92,West,259,8.5,8.5,45,0.00,,,0.00,131.38,VWS V14.01,2013-07-28 22:53:00,
2013-07-28 18:54:00,61.5,38.9,29.93,West,267,9.7,9.7,43,0.00,,,0.00,129.24,VWS V14.01,2013-07-28 22:54:00,
2013-07-28 18:55:00,61.5,38.9,29.93,West,267,9.7,9.7,43,0.00,,,0.00,129.24,VWS V14.01,2013-07-28 22:55:00,
2013-07-28 18:56:00,61.2,39.7,29.93,West,270,8.7,9.9,45,0.00,,,0.00,127.04,VWS V14.01,2013-07-28 22:56:00,
2013-07-28 18:57:00,61.0,39.0,29.93,West,263,9.0,10.4,44,0.00,,,0.00,126.80,VWS V14.01,2013-07-28 22:57:00,
2013-07-28 18:58:00,60.9,39.3,29.92,WSW,252,7.5,10.4,45,0.00,,,0.00,121.92,VWS V14.01,2013-07-28 22:58:00,
2013-07-28 18:59:00,61.0,39.7,29.93,WSW,244,7.5,8.1,45,0.00,,,0.00,117.77,VWS V14.01,2013-07-28 22:59:00,
2013-07-28 19:00:00,61.0,39.7,29.93,WSW,244,7.5,8.1,45,0.00,,,0.00,117.77,VWS V14.01,2013-07-28 23:00:00,
2013-07-28 19:01:00,61.2,39.2,29.93,WSW,242,9.0,9.0,44,0.00,,,0.00,115.81,VWS V14.01,2013-07-28 23:01:00,
2013-07-28 19:02:00,61.2,39.2,29.93,WSW,242,9.0,9.0,44,0.00,,,0.00,115.81,VWS V14.01,2013-07-28 23:02:00,
2013-07-28 19:03:00,61.4,39.0,29.93,West,276,9.5,9.5,43,0.00,,,0.00,113.13,VWS V14.01,2013-07-28 23:03:00,
2013-07-28 19:04:00,60.9,39.1,29.93,WNW,286,7.5,9.5,44,0.00,,,0.00,111.54,VWS V14.01,2013-07-28 23:04:00,
2013-07-28 19:05:00,61.0,39.4,29.92,West,272,9.5,9.5,45,0.00,,,0.00,112.39,VWS V14.01,2013-07-28 23:05:00,
2013-07-28 19:06:00,61.1,40.0,29.94,West,276,6.3,9.5,46,0.00,,,0.00,112.15,VWS V14.01,2013-07-28 23:06:00,
2013-07-28 19:07:00,61.0,39.7,29.94,West,271,8.1,8.1,45,0.00,,,0.00,112.15,VWS V14.01,2013-07-28 23:07:00,
2013-07-28 19:08:00,61.0,39.8,29.93,West,260,8.5,8.5,45,0.00,,,0.00,109.65,VWS V14.01,2013-07-28 23:08:00,
2013-07-28 19:09:00,60.8,40.8,29.93,WNW,290,5.6,5.6,48,0.00,,,0.00,108.18,VWS V14.01,2013-07-28 23:09:00,
2013-07-28 19:10:00,61.2,36.9,29.94,WSW,254,10.5,10.5,40,0.00,,,0.00,104.82,VWS V14.01,2013-07-28 23:10:00,
2013-07-28 19:11:00,61.1,39.2,29.94,West,270,9.0,10.5,44,0.00,,,0.00,104.58,VWS V14.01,2013-07-28 23:11:00,
2013-07-28 19:12:00,60.7,40.1,29.94,West,270,5.4,9.0,46,0.00,,,0.00,101.34,VWS V14.01,2013-07-28 23:12:00,
2013-07-28 19:13:00,60.8,39.8,29.94,West,277,7.3,7.3,46,0.00,,,0.00,100.55,VWS V14.01,2013-07-28 23:13:00,
2013-07-28 19:14:00,61.1,39.1,29.94,West,275,8.1,8.7,44,0.00,,,0.00,91.33,VWS V14.01,2013-07-28 23:14:00,
2013-07-28 19:15:00,60.8,40.3,29.94,West,276,8.7,9.5,47,0.00,,,0.00,91.27,VWS V14.01,2013-07-28 23:15:00,
2013-07-28 19:16:00,61.0,39.7,29.94,WNW,285,10.7,10.7,45,0.00,,,0.00,87.73,VWS V14.01,2013-07-28 23:16:00,
2013-07-28 19:17:00,61.1,39.4,29.94,WNW,291,8.5,10.7,45,0.00,,,0.00,85.29,VWS V14.01,2013-07-28 23:17:00,
2013-07-28 19:18:00,60.4,40.7,29.94,WNW,302,5.9,8.5,48,0.00,,,0.00,82.11,VWS V14.01,2013-07-28 23:18:00,
2013-07-28 19:19:00,60.4,40.7,29.94,WNW,302,5.9,8.5,48,0.00,,,0.00,82.11,VWS V14.01,2013-07-28 23:19:00,
2013-07-28 19:20:00,60.6,40.8,29.94,WNW,295,6.3,6.3,48,0.00,,,0.00,84.19,VWS V14.01,2013-07-28 23:20:00,
2013-07-28 19:21:00,60.6,39.6,29.94,NW,311,8.8,9.5,46,0.00,,,0.00,84.25,VWS V14.01,2013-07-28 23:21:00,
2013-07-28 19:22:00,61.0,38.3,29.95,NW,316,11.4,11.4,43,0.00,,,0.00,85.29,VWS V14.01,2013-07-28 23:22:00,
2013-07-28 19:23:00,61.1,37.7,29.94,WNW,293,10.9,11.6,42,0.00,,,0.00,85.53,VWS V14.01,2013-07-28 23:23:00,
2013-07-28 19:24:00,60.8,37.8,29.94,WNW,287,10.0,10.9,42,0.00,,,0.00,85.10,VWS V14.01,2013-07-28 23:24:00,
2013-07-28 19:25:00,60.8,37.8,29.95,NW,305,9.9,10.2,42,0.00,,,0.00,87.73,VWS V14.01,2013-07-28 23:25:00,
2013-07-28 19:26:00,60.7,38.5,29.95,WNW,294,9.2,11.4,44,0.00,,,0.00,87.18,VWS V14.01,2013-07-28 23:26:00,
2013-07-28 19:27:00,60.7,38.5,29.95,WNW,294,9.2,11.4,44,0.00,,,0.00,87.18,VWS V14.01,2013-07-28 23:27:00,
2013-07-28 19:28:00,60.3,39.2,29.94,WNW,287,8.7,9.0,46,0.00,,,0.00,90.42,VWS V14.01,2013-07-28 23:28:00,
2013-07-28 19:29:00,60.3,39.2,29.94,WNW,287,8.7,9.0,46,0.00,,,0.00,90.42,VWS V14.01,2013-07-28 23:29:00,
2013-07-28 19:30:00,60.7,38.2,29.95,West,271,11.9,11.9,43,0.00,,,0.00,90.42,VWS V14.01,2013-07-28 23:30:00,
2013-07-28 19:31:00,60.5,38.0,29.95,West,259,10.0,13.8,43,0.00,,,0.00,90.17,VWS V14.01,2013-07-28 23:31:00,
2013-07-28 19:32:00,60.3,34.5,29.95,WNW,286,8.7,10.0,38,0.00,,,0.00,88.71,VWS V14.01,2013-07-28 23:32:00,
2013-07-28 19:33:00,60.4,38.9,29.95,NW,317,9.0,9.0,45,0.00,,,0.00,87.61,VWS V14.01,2013-07-28 23:33:00,
2013-07-28 19:34:00,60.8,38.3,29.94,West,278,11.4,12.4,43,0.00,,,0.00,84.98,VWS V14.01,2013-07-28 23:34:00,
2013-07-28 19:35:00,60.4,38.6,29.95,NW,305,10.2,11.4,44,0.00,,,0.00,85.59,VWS V14.01,2013-07-28 23:35:00,
2013-07-28 19:36:00,60.4,38.5,29.95,WNW,286,9.2,11.4,44,0.00,,,0.00,84.31,VWS V14.01,2013-07-28 23:36:00,
2013-07-28 19:37:00,60.3,38.8,29.95,NW,309,6.8,8.8,45,0.00,,,0.00,82.84,VWS V14.01,2013-07-28 23:37:00,
2013-07-28 19:38:00,60.8,38.4,29.95,WNW,301,10.4,10.4,43,0.00,,,0.00,81.07,VWS V14.01,2013-07-28 23:38:00,
2013-07-28 19:39:00,60.8,38.4,29.95,WNW,301,10.4,10.4,43,0.00,,,0.00,81.07,VWS V14.01,2013-07-28 23:39:00,
2013-07-28 19:40:00,60.3,39.1,29.94,WNW,294,7.6,10.0,45,0.00,,,0.00,80.71,VWS V14.01,2013-07-28 23:40:00,
2013-07-28 19:41:00,61.0,38.9,29.94,WNW,294,10.9,10.9,44,0.00,,,0.00,80.40,VWS V14.01,2013-07-28 23:41:00,
2013-07-28 19:42:00,60.0,39.4,29.95,WNW,301,6.4,8.8,46,0.00,,,0.00,78.69,VWS V14.01,2013-07-28 23:42:00,
2013-07-28 19:43:00,60.4,39.8,29.97,NNW,334,9.3,9.3,47,0.00,,,0.00,77.96,VWS V14.01,2013-07-28 23:43:00,
2013-07-28 19:44:00,60.8,39.0,29.95,WNW,296,10.9,10.9,45,0.00,,,0.00,75.52,VWS V14.01,2013-07-28 23:44:00,
2013-07-28 19:45:00,60.8,39.0,29.95,WNW,296,10.9,10.9,45,0.00,,,0.00,75.52,VWS V14.01,2013-07-28 23:45:00,
2013-07-28 19:46:00,60.4,38.7,29.94,West,279,8.8,10.9,45,0.00,,,0.00,73.08,VWS V14.01,2013-07-28 23:46:00,
2013-07-28 19:47:00,60.6,39.2,29.94,NNW,330,7.6,9.3,45,0.00,,,0.00,73.32,VWS V14.01,2013-07-28 23:47:00,
2013-07-28 19:48:00,60.7,38.7,29.95,NW,304,12.1,12.1,44,0.00,,,0.00,73.08,VWS V14.01,2013-07-28 23:48:00,
2013-07-28 19:49:00,59.8,39.4,29.94,WNW,289,5.1,12.1,47,0.00,,,0.00,72.59,VWS V14.01,2013-07-28 23:49:00,
2013-07-28 19:50:00,59.8,39.4,29.94,WNW,289,5.1,12.1,47,0.00,,,0.00,72.59,VWS V14.01,2013-07-28 23:50:00,
2013-07-28 19:51:00,60.3,39.6,29.94,WNW,292,7.8,7.8,46,0.00,,,0.00,75.52,VWS V14.01,2013-07-28 23:51:00,
2013-07-28 19:52:00,60.0,39.5,29.95,WNW,300,7.5,7.8,47,0.00,,,0.00,75.52,VWS V14.01,2013-07-28 23:52:00,
2013-07-28 19:53:00,59.8,40.4,29.95,WNW,291,5.1,7.3,49,0.00,,,0.00,76.98,VWS V14.01,2013-07-28 23:53:00,
2013-07-28 19:54:00,60.2,40.1,29.95,West,277,6.6,7.3,47,0.00,,,0.00,77.72,VWS V14.01,2013-07-28 23:54:00,
2013-07-28 19:55:00,59.8,40.5,29.95,WNW,295,5.1,7.1,49,0.00,,,0.00,77.72,VWS V14.01,2013-07-28 23:55:00,
2013-07-28 19:56:00,60.5,39.6,29.94,WNW,284,8.0,8.0,46,0.00,,,0.00,75.82,VWS V14.01,2013-07-28 23:56:00,
2013-07-28 19:57:00,60.0,40.2,29.95,WNW,299,5.9,8.0,48,0.00,,,0.00,72.77,VWS V14.01,2013-07-28 23:57:00,
2013-07-28 19:58:00,60.0,40.2,29.95,WNW,299,5.9,8.0,48,0.00,,,0.00,72.77,VWS V14.01,2013-07-28 23:58:00,
2013-07-28 19:59:00,60.3,40.4,29.95,WNW,303,6.3,7.3,48,0.00,,,0.00,70.63,VWS V14.01,2013-07-28 23:59:00,
2013-07-28 20:00:00,60.2,40.6,29.95,West,279,5.1,6.3,48,0.00,,,0.00,63.31,VWS V14.01,2013-07-29 00:00:00,
2013-07-28 20:01:00,60.2,40.6,29.95,West,279,5.1,6.3,48,0.00,,,0.00,63.31,VWS V14.01,2013-07-29 00:01:00,
2013-07-28 20:02:00,59.7,40.9,29.96,NW,306,5.4,5.4,50,0.00,,,0.00,53.24,VWS V14.01,2013-07-29 00:02:00,
2013-07-28 20:03:00,60.0,41.0,29.95,NW,307,5.6,5.6,49,0.00,,,0.00,53.54,VWS V14.01,2013-07-29 00:03:00,
2013-07-28 20:04:00,60.4,39.3,29.95,West,275,6.9,6.9,46,0.00,,,0.00,60.87,VWS V14.01,2013-07-29 00:04:00,
2013-07-28 20:05:00,60.1,40.6,29.96,West,277,6.4,6.9,48,0.00,,,0.00,61.36,VWS V14.01,2013-07-29 00:05:00,
2013-07-28 20:06:00,60.4,40.0,29.95,NW,305,7.3,7.3,47,0.00,,,0.00,62.21,VWS V14.01,2013-07-29 00:06:00,
2013-07-28 20:07:00,60.2,38.7,29.95,WNW,287,5.7,5.7,45,0.00,,,0.00,63.25,VWS V14.01,2013-07-29 00:07:00,
2013-07-28 20:08:00,60.0,40.5,29.95,WNW,292,5.7,6.1,48,0.00,,,0.00,57.08,VWS V14.01,2013-07-29 00:08:00,
2013-07-28 20:09:00,60.1,40.7,29.95,WNW,284,6.3,6.8,49,0.00,,,0.00,58.36,VWS V14.01,2013-07-29 00:09:00,
2013-07-28 20:10:00,59.3,40.8,29.96,WNW,297,4.9,6.3,50,0.00,,,0.00,61.17,VWS V14.01,2013-07-29 00:10:00,
2013-07-28 20:11:00,59.3,40.8,29.96,WNW,297,4.9,6.3,50,0.00,,,0.00,61.17,VWS V14.01,2013-07-29 00:11:00,
2013-07-28 20:12:00,59.8,41.1,29.95,WNW,303,6.8,6.8,50,0.00,,,0.00,63.31,VWS V14.01,2013-07-29 00:12:00,
2013-07-28 20:13:00,59.7,41.5,29.98,WNW,301,8.1,8.1,51,0.00,,,0.00,63.49,VWS V14.01,2013-07-29 00:13:00,
2013-07-28 20:14:00,59.8,41.2,29.96,WNW,283,5.2,8.1,50,0.00,,,0.00,64.77,VWS V14.01,2013-07-29 00:14:00,
2013-07-28 20:15:00,59.8,41.7,29.95,WNW,290,5.9,5.9,51,0.00,,,0.00,64.83,VWS V14.01,2013-07-29 00:15:00,
2013-07-28 20:16:00,59.0,42.1,29.95,WNW,291,3.9,5.9,53,0.00,,,0.00,65.02,VWS V14.01,2013-07-29 00:16:00,
2013-07-28 20:17:00,59.5,42.6,29.95,WNW,295,4.9,4.9,54,0.00,,,0.00,64.71,VWS V14.01,2013-07-29 00:17:00,
2013-07-28 20:18:00,59.8,39.7,29.96,WNW,294,6.8,6.8,47,0.00,,,0.00,61.84,VWS V14.01,2013-07-29 00:18:00,
2013-07-28 20:19:00,59.6,41.9,29.96,WNW,285,5.4,6.8,52,0.00,,,0.00,60.56,VWS V14.01,2013-07-29 00:19:00,
2013-07-28 20:20:00,59.6,42.0,29.96,NW,308,5.4,6.8,52,0.00,,,0.00,58.91,VWS V14.01,2013-07-29 00:20:00,
2013-07-28 20:21:00,59.5,42.1,29.95,WNW,299,4.4,6.8,52,0.00,,,0.00,53.30,VWS V14.01,2013-07-29 00:21:00,
2013-07-28 20:22:00,59.2,41.9,29.95,NW,312,5.1,6.8,53,0.00,,,0.00,47.13,VWS V14.01,2013-07-29 00:22:00,
2013-07-28 20:23:00,59.4,42.0,29.95,WNW,289,6.4,6.4,52,0.00,,,0.00,43.77,VWS V14.01,2013-07-29 00:23:00,
2013-07-28 20:24:00,59.4,42.0,29.95,WNW,289,6.4,6.4,52,0.00,,,0.00,43.77,VWS V14.01,2013-07-29 00:24:00,
2013-07-28 20:25:00,59.0,42.1,29.95,NW,305,5.7,6.3,53,0.00,,,0.00,38.89,VWS V14.01,2013-07-29 00:25:00,
2013-07-28 20:26:00,59.0,41.8,29.96,WNW,297,5.2,8.1,53,0.00,,,0.00,33.52,VWS V14.01,2013-07-29 00:26:00,
2013-07-28 20:27:00,58.8,42.4,29.96,WNW,298,5.2,5.4,54,0.00,,,0.00,30.28,VWS V14.01,2013-07-29 00:27:00,
2013-07-28 20:28:00,59.1,42.4,29.96,WNW,289,5.9,5.9,54,0.00,,,0.00,25.70,VWS V14.01,2013-07-29 00:28:00,
2013-07-28 20:29:00,58.7,42.8,29.95,WNW,297,4.0,5.9,56,0.00,,,0.00,22.53,VWS V14.01,2013-07-29 00:29:00,
2013-07-28 20:30:00,58.7,42.8,29.95,WNW,297,4.0,5.9,56,0.00,,,0.00,22.53,VWS V14.01,2013-07-29 00:30:00,
2013-07-28 20:31:00,58.6,43.0,29.96,WNW,302,4.7,5.6,56,0.00,,,0.00,19.35,VWS V14.01,2013-07-29 00:31:00,
2013-07-28 20:32:00,58.4,42.9,29.96,WNW,295,4.5,4.7,56,0.00,,,0.00,17.83,VWS V14.01,2013-07-29 00:32:00,
2013-07-28 20:33:00,58.2,43.2,29.97,WNW,293,3.7,4.5,57,0.00,,,0.00,15.93,VWS V14.01,2013-07-29 00:33:00,
2013-07-28 20:34:00,58.1,43.2,29.96,WNW,283,3.7,4.5,58,0.00,,,0.00,15.08,VWS V14.01,2013-07-29 00:34:00,
2013-07-28 20:35:00,58.4,43.2,29.95,WNW,284,4.4,4.4,57,0.00,,,0.00,14.47,VWS V14.01,2013-07-29 00:35:00,
2013-07-28 20:36:00,57.0,43.1,29.97,WNW,290,2.8,4.9,60,0.00,,,0.00,11.97,VWS V14.01,2013-07-29 00:36:00,
2013-07-28 20:37:00,57.0,43.1,29.97,WNW,290,2.8,4.9,60,0.00,,,0.00,11.97,VWS V14.01,2013-07-29 00:37:00,
2013-07-28 20:38:00,57.4,41.7,29.96,WNW,303,3.7,4.9,56,0.00,,,0.00,12.03,VWS V14.01,2013-07-29 00:38:00,
2013-07-28 20:39:00,58.0,44.2,29.96,WNW,292,4.5,4.5,60,0.00,,,0.00,11.29,VWS V14.01,2013-07-29 00:39:00,
2013-07-28 20:40:00,57.8,44.1,29.96,WNW,286,3.9,4.5,60,0.00,,,0.00,10.32,VWS V14.01,2013-07-29 00:40:00,
2013-07-28 20:41:00,57.6,42.7,29.97,WNW,288,4.5,4.5,57,0.00,,,0.00,9.89,VWS V14.01,2013-07-29 00:41:00,
2013-07-28 20:42:00,57.8,44.6,29.97,WNW,295,4.7,5.6,61,0.00,,,0.00,10.19,VWS V14.01,2013-07-29 00:42:00,
2013-07-28 20:43:00,57.5,44.7,29.97,WNW,285,3.7,4.7,62,0.00,,,0.00,9.77,VWS V14.01,2013-07-29 00:43:00,
2013-07-28 20:44:00,57.5,45.0,29.97,WNW,289,3.7,3.7,63,0.00,,,0.00,8.85,VWS V14.01,2013-07-29 00:44:00,
2013-07-28 20:45:00,57.3,45.0,29.96,WNW,291,3.5,3.9,63,0.00,,,0.00,7.14,VWS V14.01,2013-07-29 00:45:00,
2013-07-28 20:46:00,57.3,45.0,29.96,WNW,291,3.5,3.5,63,0.00,,,0.00,7.14,VWS V14.01,2013-07-29 00:46:00,
2013-07-28 20:47:00,57.3,45.6,29.97,WNW,291,3.0,3.0,65,0.00,,,0.00,7.14,VWS V14.01,2013-07-29 00:47:00,
2013-07-28 20:48:00,57.1,45.7,29.96,WNW,291,2.2,3.0,66,0.00,,,0.00,6.35,VWS V14.01,2013-07-29 00:48:00,
2013-07-28 20:49:00,57.1,45.8,29.97,WNW,282,2.3,2.3,66,0.00,,,0.00,6.29,VWS V14.01,2013-07-29 00:49:00,
2013-07-28 20:50:00,57.2,45.9,29.97,West,273,3.0,3.0,66,0.00,,,0.00,4.70,VWS V14.01,2013-07-29 00:50:00,
2013-07-28 20:51:00,56.5,45.5,29.97,West,273,2.3,3.0,67,0.00,,,0.00,4.70,VWS V14.01,2013-07-29 00:51:00,
2013-07-28 20:52:00,55.9,45.9,29.97,West,273,0.0,2.3,69,0.00,,,0.00,4.70,VWS V14.01,2013-07-29 00:52:00,
2013-07-28 20:53:00,55.5,46.0,29.96,West,273,0.0,0.0,70,0.00,,,0.00,4.70,VWS V14.01,2013-07-29 00:53:00,
2013-07-28 20:55:00,56.4,47.9,29.97,SW,222,0.0,2.0,73,0.00,,,0.00,4.46,VWS V14.01,2013-07-29 00:55:00,
2013-07-28 20:56:00,56.5,47.7,29.98,West,280,0.0,0.0,72,0.00,,,0.00,4.82,VWS V14.01,2013-07-29 00:56:00,
2013-07-28 20:57:00,56.7,47.5,29.97,NW,317,1.6,1.6,71,0.00,,,0.00,4.40,VWS V14.01,2013-07-29 00:57:00,
2013-07-28 20:58:00,56.8,47.2,29.97,NW,318,0.0,1.6,70,0.00,,,0.00,4.09,VWS V14.01,2013-07-29 00:58:00,
2013-07-28 20:59:00,56.8,47.0,29.97,NW,318,0.0,0.0,70,0.00,,,0.00,2.99,VWS V14.01,2013-07-29 00:59:00,
2013-07-28 21:00:00,56.2,46.7,29.97,NW,318,0.0,0.0,71,0.00,,,0.00,2.26,VWS V14.01,2013-07-29 01:00:00,
2013-07-28 21:01:00,56.1,47.2,29.97,NW,318,0.0,0.0,72,0.00,,,0.00,2.26,VWS V14.01,2013-07-29 01:01:00,
2013-07-28 21:02:00,56.2,47.3,29.98,NW,318,0.0,0.0,72,0.00,,,0.00,2.26,VWS V14.01,2013-07-29 01:02:00,
2013-07-28 21:03:00,56.2,47.4,29.98,NW,318,0.0,0.0,72,0.00,,,0.00,2.26,VWS V14.01,2013-07-29 01:03:00,
2013-07-28 21:04:00,56.3,47.5,30.01,NW,318,0.0,0.0,72,0.00,,,0.00,2.26,VWS V14.01,2013-07-29 01:04:00,
2013-07-28 21:05:00,56.0,47.2,29.98,NW,318,0.0,0.0,72,0.00,,,0.00,2.26,VWS V14.01,2013-07-29 01:05:00,
2013-07-28 21:06:00,56.0,47.8,29.97,NW,318,0.0,0.0,74,0.00,,,0.00,2.02,VWS V14.01,2013-07-29 01:06:00,
2013-07-28 21:07:00,56.3,48.1,29.96,NW,318,0.0,0.0,74,0.00,,,0.00,2.02,VWS V14.01,2013-07-29 01:07:00,
2013-07-28 21:08:00,56.0,47.9,29.96,NW,318,0.0,0.0,74,0.00,,,0.00,2.01,VWS V14.01,2013-07-29 01:08:00,
2013-07-28 21:09:00,56.3,48.5,29.98,NW,318,0.0,0.0,75,0.00,,,0.00,1.77,VWS V14.01,2013-07-29 01:09:00,
2013-07-28 21:10:00,56.3,48.5,29.98,NW,318,0.0,0.0,75,0.00,,,0.00,1.77,VWS V14.01,2013-07-29 01:10:00,
2013-07-28 21:11:00,56.2,48.8,29.97,NW,318,0.0,0.0,76,0.00,,,0.00,0.79,VWS V14.01,2013-07-29 01:11:00,
2013-07-28 21:12:00,56.4,48.8,29.98,NW,318,0.0,0.0,76,0.00,,,0.00,0.00,VWS V14.01,2013-07-29 01:12:00,
2013-07-28 21:13:00,56.4,48.8,29.98,NW,318,0.0,0.0,76,0.00,,,0.00,0.00,VWS V14.01,2013-07-29 01:13:00,
2013-07-28 21:14:00,56.4,48.8,29.98,NW,318,0.0,0.0,76,0.00,,,0.00,0.00,VWS V14.01,2013-07-29 01:14:00,
2013-07-28 21:15:00,56.0,48.9,29.98,NW,318,0.0,0.0,77,0.00,,,0.00,0.00,VWS V14.01,2013-07-29 01:15:00,
2013-07-28 21:16:00,56.4,49.2,29.98,NW,318,0.0,0.0,77,0.00,,,0.00,0.00,VWS V14.01,2013-07-29 01:16:00,
2013-07-28 21:17:00,56.4,49.2,29.98,NW,318,0.0,0.0,77,0.00,,,0.00,0.00,VWS V14.01,2013-07-29 01:17:00,
2013-07-28 21:18:00,56.5,49.3,29.98,NW,318,0.0,0.0,77,0.00,,,0.00,0.43,VWS V14.01,2013-07-29 01:18:00,
2013-07-28 21:19:00,56.5,49.3,29.98,NW,318,0.0,0.0,77,0.00,,,0.00,0.43,VWS V14.01,2013-07-29 01:19:00,
2013-07-28 21:20:00,55.2,48.6,29.98,SW,223,0.0,0.0,79,0.00,,,0.00,0.43,VWS V14.01,2013-07-29 01:20:00,
2013-07-28 21:21:00,55.1,48.9,29.98,SW,223,1.5,1.5,80,0.00,,,0.00,0.00,VWS V14.01,2013-07-29 01:21:00,
2013-07-28 21:22:00,55.2,49.0,29.97,SW,223,1.1,2.0,80,0.00,,,0.00,0.00,VWS V14.01,2013-07-29 01:22:00,
2013-07-28 21:23:00,55.1,48.9,29.98,SW,223,1.1,1.1,80,0.00,,,0.00,0.00,VWS V14.01,2013-07-29 01:23:00,
2013-07-28 21:24:00,55.3,49.2,29.98,SW,223,0.0,1.1,80,0.00,,,0.00,0.00,VWS V14.01,2013-07-29 01:24:00,
2013-07-28 21:25:00,55.6,49.7,29.98,SW,223,0.0,0.0,80,0.00,,,0.00,0.00,VWS V14.01,2013-07-29 01:25:00,
2013-07-28 21:26:00,55.1,49.4,29.98,SW,223,0.0,0.0,81,0.00,,,0.00,0.00,VWS V14.01,2013-07-29 01:26:00,
2013-07-28 21:27:00,55.0,49.7,29.98,SW,223,0.0,0.0,82,0.00,,,0.00,0.00,VWS V14.01,2013-07-29 01:27:00,
2013-07-28 21:28:00,55.4,50.2,30.02,SW,223,0.0,0.0,83,0.00,,,0.00,0.43,VWS V14.01,2013-07-29 01:28:00,
2013-07-28 21:29:00,55.6,50.5,29.98,SW,223,0.0,0.0,83,0.00,,,0.00,0.00,VWS V14.01,2013-07-29 01:29:00,
2013-07-28 21:30:00,55.7,50.5,29.99,SW,223,0.0,0.0,83,0.00,,,0.00,0.00,VWS V14.01,2013-07-29 01:30:00,
2013-07-28 21:31:00,55.7,50.2,29.98,SW,224,0.0,0.0,81,0.00,,,0.00,0.00,VWS V14.01,2013-07-29 01:31:00,
2013-07-28 21:32:00,55.6,49.8,29.98,SW,224,0.0,0.0,81,0.00,,,0.00,0.00,VWS V14.01,2013-07-29 01:32:00,
2013-07-28 21:33:00,55.2,49.6,29.99,SW,224,0.0,0.0,81,0.00,,,0.00,0.00,VWS V14.01,2013-07-29 01:33:00,
2013-07-28 21:34:00,55.8,50.2,29.98,SW,224,0.0,0.0,81,0.00,,,0.00,0.00,VWS V14.01,2013-07-29 01:34:00,
2013-07-28 21:35:00,55.3,49.7,29.98,SW,224,0.0,0.0,81,0.00,,,0.00,0.00,VWS V14.01,2013-07-29 01:35:00,
2013-07-28 21:36:00,55.2,49.5,29.98,SW,224,0.0,0.0,81,0.00,,,0.00,0.00,VWS V14.01,2013-07-29 01:36:00,
2013-07-28 21:37:00,54.7,49.3,29.98,SW,224,0.0,0.0,82,0.00,,,0.00,0.00,VWS V14.01,2013-07-29 01:37:00,
2013-07-28 21:38:00,55.1,50.0,29.98,SW,224,0.0,0.0,83,0.00,,,0.00,0.00,VWS V14.01,2013-07-29 01:38:00,
2013-07-28 21:39:00,55.1,50.0,29.98,SW,224,0.0,0.0,83,0.00,,,0.00,0.00,VWS V14.01,2013-07-29 01:39:00,
2013-07-28 21:40:00,55.5,50.5,29.98,SW,224,0.0,0.0,83,0.00,,,0.00,0.00,VWS V14.01,2013-07-29 01:40:00,
2013-07-28 21:41:00,55.8,50.9,29.98,NNW,338,0.0,1.3,83,0.00,,,0.00,0.00,VWS V14.01,2013-07-29 01:41:00,
2013-07-28 21:42:00,55.6,50.7,29.97,WNW,286,0.0,0.0,84,0.00,,,0.00,0.00,VWS V14.01,2013-07-29 01:42:00,
2013-07-28 21:43:00,55.5,50.4,29.98,WNW,303,0.0,0.0,83,0.00,,,0.00,0.37,VWS V14.01,2013-07-29 01:43:00,
2013-07-28 21:44:00,55.5,50.3,29.98,WNW,303,0.0,0.0,83,0.00,,,0.00,0.00,VWS V14.01,2013-07-29 01:44:00,
2013-07-28 21:45:00,55.2,50.0,29.99,WNW,303,0.0,0.0,83,0.00,,,0.00,0.12,VWS V14.01,2013-07-29 01:45:00,
2013-07-28 21:46:00,55.8,50.4,29.98,WNW,303,0.0,0.0,82,0.00,,,0.00,0.00,VWS V14.01,2013-07-29 01:46:00,
2013-07-28 21:47:00,55.4,49.9,29.99,WNW,303,0.0,0.0,82,0.00,,,0.00,0.12,VWS V14.01,2013-07-29 01:47:00,
2013-07-28 21:48:00,55.4,49.9,29.99,WNW,303,0.0,0.0,82,0.00,,,0.00,0.12,VWS V14.01,2013-07-29 01:48:00,
2013-07-28 21:49:00,55.3,49.8,29.99,WNW,302,0.0,0.0,82,0.00,,,0.00,0.00,VWS V14.01,2013-07-29 01:49:00,
2013-07-28 21:50:00,55.0,49.6,29.98,WNW,303,0.0,0.0,82,0.00,,,0.00,0.00,VWS V14.01,2013-07-29 01:50:00,
2013-07-28 21:51:00,54.9,49.6,29.98,WNW,303,0.0,0.0,82,0.00,,,0.00,0.00,VWS V14.01,2013-07-29 01:51:00,
2013-07-28 21:52:00,54.7,49.4,29.99,WNW,303,0.0,0.0,82,0.00,,,0.00,0.00,VWS V14.01,2013-07-29 01:52:00,
2013-07-28 21:53:00,54.5,49.2,29.99,WNW,303,0.0,0.0,82,0.00,,,0.00,0.00,VWS V14.01,2013-07-29 01:53:00,
2013-07-28 21:54:00,54.1,49.0,29.98,WNW,303,0.0,0.0,83,0.00,,,0.00,0.00,VWS V14.01,2013-07-29 01:54:00,
2013-07-28 21:55:00,54.5,49.8,29.99,WNW,303,0.0,0.0,84,0.00,,,0.00,0.00,VWS V14.01,2013-07-29 01:55:00,
2013-07-28 21:56:00,54.7,50.1,29.99,WNW,303,0.0,0.0,85,0.00,,,0.00,0.06,VWS V14.01,2013-07-29 01:56:00,
2013-07-28 21:57:00,54.7,50.5,29.99,WNW,302,0.0,0.0,86,0.00,,,0.00,0.00,VWS V14.01,2013-07-29 01:57:00,
2013-07-28 21:58:00,54.8,50.7,29.99,WNW,303,0.0,0.0,86,0.00,,,0.00,0.00,VWS V14.01,2013-07-29 01:58:00,
2013-07-28 21:59:00,54.8,50.7,29.99,SW,217,0.0,0.0,86,0.00,,,0.00,0.00,VWS V14.01,2013-07-29 01:59:00,
2013-07-28 22:00:00,54.9,50.6,29.99,SW,217,2.0,2.0,85,0.00,,,0.00,0.00,VWS V14.01,2013-07-29 02:00:00,
2013-07-28 22:01:00,54.9,50.5,29.98,SW,217,2.5,2.5,85,0.00,,,0.00,0.00,VWS V14.01,2013-07-29 02:01:00,
2013-07-28 22:02:00,54.8,50.3,29.98,SW,217,3.2,3.2,85,0.00,,,0.00,0.00,VWS V14.01,2013-07-29 02:02:00,
2013-07-28 22:03:00,54.8,50.3,29.99,SW,220,3.0,3.2,85,0.00,,,0.00,0.00,VWS V14.01,2013-07-29 02:03:00,
2013-07-28 22:04:00,55.2,50.8,29.99,SW,221,2.2,3.0,85,0.00,,,0.00,0.00,VWS V14.01,2013-07-29 02:04:00,
2013-07-28 22:05:00,55.2,50.8,29.99,SW,216,1.1,2.2,85,0.00,,,0.00,0.00,VWS V14.01,2013-07-29 02:05:00,
2013-07-28 22:06:00,54.9,50.4,29.99,SW,216,1.5,1.5,85,0.00,,,0.00,0.00,VWS V14.01,2013-07-29 02:06:00,
2013-07-28 22:07:00,54.9,50.4,29.99,SW,216,1.5,1.5,85,0.00,,,0.00,0.00,VWS V14.01,2013-07-29 02:07:00,
2013-07-28 22:08:00,54.6,49.9,29.99,SW,214,3.0,3.0,84,0.00,,,0.00,0.43,VWS V14.01,2013-07-29 02:08:00,
2013-07-28 22:09:00,54.1,49.7,29.99,SSW,208,3.0,3.2,85,0.00,,,0.00,0.00,VWS V14.01,2013-07-29 02:09:00,
2013-07-28 22:10:00,54.0,49.9,29.99,SSW,205,3.4,3.4,86,0.00,,,0.00,0.00,VWS V14.01,2013-07-29 02:10:00,
2013-07-28 22:11:00,53.9,50.0,29.99,SSW,205,3.0,3.4,87,0.00,,,0.00,0.00,VWS V14.01,2013-07-29 02:11:00,
2013-07-28 22:12:00,53.8,50.0,29.99,SSW,203,2.8,3.0,87,0.00,,,0.00,0.12,VWS V14.01,2013-07-29 02:12:00,
2013-07-28 22:13:00,54.0,50.2,29.99,SSW,202,2.2,3.0,87,0.00,,,0.00,0.00,VWS V14.01,2013-07-29 02:13:00,
2013-07-28 22:14:00,54.0,50.2,29.99,SSW,202,2.2,3.0,87,0.00,,,0.00,0.00,VWS V14.01,2013-07-29 02:14:00,
2013-07-28 22:15:00,53.5,49.9,29.99,SSW,202,1.3,2.2,87,0.00,,,0.00,0.00,VWS V14.01,2013-07-29 02:15:00,
2013-07-28 22:16:00,53.5,50.1,29.99,SSW,202,0.0,1.3,88,0.00,,,0.00,0.00,VWS V14.01,2013-07-29 02:16:00,
2013-07-28 22:17:00,53.6,50.4,29.99,SSW,202,0.0,0.0,89,0.00,,,0.00,0.06,VWS V14.01,2013-07-29 02:17:00,
2013-07-28 22:18:00,53.6,50.4,29.99,SSW,202,0.0,0.0,89,0.00,,,0.00,0.00,VWS V14.01,2013-07-29 02:18:00,
2013-07-28 22:19:00,53.2,50.2,29.99,SSW,202,0.0,0.0,90,0.00,,,0.00,0.00,VWS V14.01,2013-07-29 02:19:00,
2013-07-28 22:20:00,53.2,50.3,29.99,SSW,202,0.0,0.0,90,0.00,,,0.00,0.12,VWS V14.01,2013-07-29 02:20:00,
2013-07-28 22:21:00,53.3,50.4,29.99,SSW,202,0.0,0.0,90,0.00,,,0.00,0.00,VWS V14.01,2013-07-29 02:21:00,
2013-07-28 22:22:00,53.3,50.3,29.99,SSW,202,0.0,0.0,90,0.00,,,0.00,0.00,VWS V14.01,2013-07-29 02:22:00,
2013-07-28 22:23:00,53.5,50.7,30.00,SSW,202,0.0,0.0,90,0.00,,,0.00,0.00,VWS V14.01,2013-07-29 02:23:00,
2013-07-28 22:24:00,53.8,51.1,29.99,SSW,202,0.0,0.0,90,0.00,,,0.00,0.00,VWS V14.01,2013-07-29 02:24:00,
2013-07-28 22:25:00,53.8,51.2,29.98,SSW,202,0.0,0.0,91,0.00,,,0.00,0.00,VWS V14.01,2013-07-29 02:25:00,
2013-07-28 22:26:00,53.6,50.8,30.00,SSW,202,0.0,0.0,90,0.00,,,0.00,0.00,VWS V14.01,2013-07-29 02:26:00,
2013-07-28 22:27:00,53.6,50.8,29.99,SSW,202,0.0,0.0,90,0.00,,,0.00,0.00,VWS V14.01,2013-07-29 02:27:00,
2013-07-28 22:28:00,53.9,50.0,29.99,SSW,202,0.0,0.0,87,0.00,,,0.00,0.00,VWS V14.01,2013-07-29 02:28:00,
2013-07-28 22:29:00,53.8,51.3,29.99,SSW,202,0.0,0.0,91,0.00,,,0.00,0.00,VWS V14.01,2013-07-29 02:29:00,
2013-07-28 22:30:00,53.2,50.7,30.00,SSW,202,0.0,0.0,91,0.00,,,0.00,0.43,VWS V14.01,2013-07-29 02:30:00,
2013-07-28 22:31:00,53.5,49.9,29.99,SSW,202,0.0,0.0,87,0.00,,,0.00,0.00,VWS V14.01,2013-07-29 02:31:00,
2013-07-28 22:32:00,53.4,51.1,29.99,SSW,202,0.0,0.0,92,0.00,,,0.00,0.00,VWS V14.01,2013-07-29 02:32:00,
2013-07-28 22:33:00,53.9,51.7,30.00,SSW,202,0.0,0.0,92,0.00,,,0.00,0.12,VWS V14.01,2013-07-29 02:33:00,
2013-07-28 22:34:00,54.1,51.9,29.99,SSW,202,0.0,0.0,92,0.00,,,0.00,0.00,VWS V14.01,2013-07-29 02:34:00,
2013-07-28 22:35:00,54.1,51.9,29.99,SSW,202,0.0,0.0,92,0.00,,,0.00,0.00,VWS V14.01,2013-07-29 02:35:00,
2013-07-28 22:36:00,53.8,51.6,29.99,SSW,202,0.0,0.0,92,0.00,,,0.00,0.00,VWS V14.01,2013-07-29 02:36:00,
2013-07-28 22:37:00,53.9,51.8,30.00,SSW,202,0.0,0.0,92,0.00,,,0.00,0.00,VWS V14.01,2013-07-29 02:37:00,
2013-07-28 22:38:00,54.0,51.8,30.00,SSW,202,0.0,0.0,92,0.00,,,0.00,0.00,VWS V14.01,2013-07-29 02:38:00,
2013-07-28 22:39:00,53.8,51.6,30.00,SSW,202,0.0,0.0,92,0.00,,,0.00,0.00,VWS V14.01,2013-07-29 02:39:00,
2013-07-28 22:40:00,53.8,51.5,30.00,SSW,202,0.0,0.0,92,0.00,,,0.00,0.00,VWS V14.01,2013-07-29 02:40:00,
2013-07-28 22:41:00,53.2,50.9,29.99,SSW,202,0.0,0.0,92,0.00,,,0.00,0.00,VWS V14.01,2013-07-29 02:41:00,
2013-07-28 22:42:00,53.0,50.8,29.99,SSW,202,0.0,0.0,92,0.00,,,0.00,0.00,VWS V14.01,2013-07-29 02:42:00,
2013-07-28 22:43:00,53.0,50.8,29.99,SSW,202,0.0,0.0,92,0.00,,,0.00,0.00,VWS V14.01,2013-07-29 02:43:00,
2013-07-28 22:44:00,53.0,50.8,29.99,SSW,202,0.0,0.0,92,0.00,,,0.00,0.00,VWS V14.01,2013-07-29 02:44:00,
2013-07-28 22:45:00,53.2,51.1,29.99,SSW,202,0.0,0.0,93,0.00,,,0.00,0.12,VWS V14.01,2013-07-29 02:45:00,
2013-07-28 22:46:00,53.4,51.4,29.99,SSW,202,0.0,0.0,93,0.00,,,0.00,0.00,VWS V14.01,2013-07-29 02:46:00,
2013-07-28 22:47:00,53.6,51.6,30.00,SSW,202,0.0,0.0,93,0.00,,,0.00,0.00,VWS V14.01,2013-07-29 02:47:00,
2013-07-28 22:48:00,53.8,52.0,29.99,SSW,202,0.0,0.0,94,0.00,,,0.00,0.00,VWS V14.01,2013-07-29 02:48:00,
2013-07-28 22:49:00,53.8,52.0,29.99,SSW,202,0.0,0.0,94,0.00,,,0.00,0.00,VWS V14.01,2013-07-29 02:49:00,
2013-07-28 22:50:00,53.9,52.3,29.99,SSW,202,0.0,0.0,94,0.00,,,0.00,0.00,VWS V14.01,2013-07-29 02:50:00,
2013-07-28 22:51:00,53.8,52.2,29.99,SSW,202,0.0,0.0,94,0.00,,,0.00,0.00,VWS V14.01,2013-07-29 02:51:00,
2013-07-28 22:52:00,53.6,52.0,29.99,SSW,202,0.0,0.0,94,0.00,,,0.00,0.00,VWS V14.01,2013-07-29 02:52:00,
2013-07-28 22:53:00,53.4,51.7,30.00,SSW,202,0.0,0.0,94,0.00,,,0.00,0.00,VWS V14.01,2013-07-29 02:53:00,
2013-07-28 22:54:00,53.6,51.9,30.00,SSW,202,0.0,0.0,94,0.00,,,0.00,0.00,VWS V14.01,2013-07-29 02:54:00,
2013-07-28 22:55:00,53.7,52.2,29.99,SSW,202,0.0,0.0,95,0.00,,,0.00,0.00,VWS V14.01,2013-07-29 02:55:00,
2013-07-28 22:56:00,54.0,52.5,30.00,SSW,202,1.0,2.0,95,0.00,,,0.00,0.00,VWS V14.01,2013-07-29 02:56:00,
2013-07-28 22:57:00,53.6,52.0,30.00,SSW,202,0.0,1.8,94,0.00,,,0.00,0.12,VWS V14.01,2013-07-29 02:57:00,
2013-07-28 22:58:00,53.8,52.2,30.00,SSW,202,0.0,0.0,94,0.00,,,0.00,0.12,VWS V14.01,2013-07-29 02:58:00,
2013-07-28 22:59:00,53.7,52.1,30.00,SSW,202,0.0,0.0,94,0.00,,,0.00,0.00,VWS V14.01,2013-07-29 02:59:00,
2013-07-28 23:00:00,53.7,52.1,30.00,SSW,202,0.0,0.0,94,0.00,,,0.00,0.00,VWS V14.01,2013-07-29 03:00:00,
2013-07-28 23:01:00,54.0,52.5,29.99,West,281,0.0,0.0,94,0.00,,,0.00,0.00,VWS V14.01,2013-07-29 03:01:00,
2013-07-28 23:05:00,53.9,51.7,30.00,WNW,288,0.0,0.0,93,0.00,,,0.00,0.00,VWS V14.01,2013-07-29 03:05:00,
2013-07-28 23:07:00,54.0,51.9,30.00,WNW,288,0.0,0.0,93,0.00,,,0.00,0.00,VWS V14.01,2013-07-29 03:07:00,
2013-07-28 23:10:00,53.9,51.9,30.03,SW,221,0.0,0.0,93,0.00,,,0.00,0.00,VWS V14.01,2013-07-29 03:10:00,
2013-07-28 23:12:00,53.8,52.0,29.99,SW,221,0.0,0.0,93,0.00,,,0.00,0.00,VWS V14.01,2013-07-29 03:12:00,
2013-07-28 23:13:00,54.1,52.2,30.00,SW,221,0.0,0.0,93,0.00,,,0.00,0.00,VWS V14.01,2013-07-29 03:13:00,
2013-07-28 23:15:00,53.8,51.8,30.00,SW,221,0.0,0.0,93,0.00,,,0.00,0.00,VWS V14.01,2013-07-29 03:15:00,
2013-07-28 23:16:00,53.8,51.8,30.00,SW,221,0.0,0.0,93,0.00,,,0.00,0.00,VWS V14.01,2013-07-29 03:16:00,
2013-07-28 23:18:00,53.6,51.6,30.00,SW,221,0.0,0.0,93,0.00,,,0.00,0.00,VWS V14.01,2013-07-29 03:18:00,
2013-07-28 23:19:00,53.4,51.4,30.00,SW,221,0.0,0.0,93,0.00,,,0.00,0.00,VWS V14.01,2013-07-29 03:19:00,
2013-07-28 23:20:00,53.3,51.3,29.99,SW,221,0.0,0.0,93,0.00,,,0.00,0.12,VWS V14.01,2013-07-29 03:20:00,
2013-07-28 23:22:00,53.1,51.3,29.99,SW,221,0.0,0.0,94,0.00,,,0.00,0.00,VWS V14.01,2013-07-29 03:22:00,
2013-07-28 23:24:00,53.3,51.7,30.00,SW,221,0.0,0.0,94,0.00,,,0.00,0.00,VWS V14.01,2013-07-29 03:24:00,
2013-07-28 23:25:00,53.4,51.9,29.99,SW,221,0.0,0.0,95,0.00,,,0.00,0.00,VWS V14.01,2013-07-29 03:25:00,
2013-07-28 23:30:00,53.2,51.8,29.99,SW,221,0.0,0.0,95,0.00,,,0.00,0.00,VWS V14.01,2013-07-29 03:30:00,
2013-07-28 23:31:00,53.2,51.8,29.99,SW,221,0.0,0.0,95,0.00,,,0.00,0.00,VWS V14.01,2013-07-29 03:31:00,
2013-07-28 23:32:00,53.2,51.8,29.99,SW,221,0.0,0.0,95,0.00,,,0.00,0.00,VWS V14.01,2013-07-29 03:32:00,
2013-07-28 23:33:00,53.6,52.2,29.99,SSW,208,0.0,0.0,95,0.00,,,0.00,0.00,VWS V14.01,2013-07-29 03:33:00,
2013-07-28 23:35:00,53.4,52.1,30.00,SSW,208,0.0,0.0,95,0.00,,,0.00,0.00,VWS V14.01,2013-07-29 03:35:00,
2013-07-28 23:37:00,53.6,52.3,30.00,SSW,208,0.0,0.0,95,0.00,,,0.00,0.00,VWS V14.01,2013-07-29 03:37:00,
2013-07-28 23:38:00,53.8,52.3,29.99,NE,42,0.0,0.0,95,0.00,,,0.00,0.43,VWS V14.01,2013-07-29 03:38:00,
2013-07-28 23:39:00,53.8,52.3,30.00,NE,40,0.0,0.0,95,0.00,,,0.00,0.00,VWS V14.01,2013-07-29 03:39:00,
2013-07-28 23:42:00,53.5,51.8,30.04,NE,41,0.0,0.0,94,0.00,,,0.00,0.00,VWS V14.01,2013-07-29 03:42:00,
2013-07-28 23:43:00,53.6,51.8,30.00,NE,42,0.0,0.0,94,0.00,,,0.00,0.00,VWS V14.01,2013-07-29 03:43:00,
2013-07-28 23:48:00,53.2,51.5,29.99,WSW,256,0.0,0.0,94,0.00,,,0.00,0.00,VWS V14.01,2013-07-29 03:48:00,
2013-07-28 23:50:00,53.3,51.8,30.00,WSW,256,0.0,0.0,95,0.00,,,0.00,0.00,VWS V14.01,2013-07-29 03:50:00,
2013-07-28 23:52:00,53.4,51.9,29.99,WSW,256,0.0,0.0,95,0.00,,,0.00,0.00,VWS V14.01,2013-07-29 03:52:00,
2013-07-28 23:55:00,53.2,51.9,29.99,WSW,256,0.0,0.0,95,0.00,,,0.00,0.00,VWS V14.01,2013-07-29 03:55:00,
2013-07-28 23:57:00,53.2,52.0,30.00,WSW,256,0.0,0.0,96,0.00,,,0.00,0.00,VWS V14.01,2013-07-29 03:57:00,
2013-07-28 23:58:00,53.3,52.1,30.00,WSW,256,0.0,0.0,96,0.00,,,0.00,0.00,VWS V14.01,2013-07-29 03:58:00,